ftp/pub/palmer/observations_modified/2019/June/AR190420_BASE.txt

Download

Sample DateTime	Unit Id	WS Avg 2min	WD Avg 2min	WGS 10min	WGD 10min	Air Temp	Rel Humidity	Dew Point	Pyranometer	Quantum	Air Pressure	Snow Level	Rainfall	PW Current	Visibility	CBase 1	CBase 2	CBase 3	Vert Vis
2019/04/20 00:00:01	BASE	2.77	104	5.81	128	-4.6	100	-4.6	0	0	975.6	NA	0.0000		9999	0	0	0	0
2019/04/20 00:01:01	BASE	2.57	101	5.50	125	-4.5	100	-4.5	0	0	975.6	NA	0.0000		9999	0	0	0	0
2019/04/20 00:02:01	BASE	2.72	101	4.58	116	-4.5	100	-4.5	0	0	975.6	NA	0.0000		9999	0	0	0	0
2019/04/20 00:03:01	BASE	2.72	101	4.58	116	-4.4	100	-4.4	0	0	975.6	NA	0.0000		9999	0	0	0	0
2019/04/20 00:04:01	BASE	2.19	97	4.58	116	-4.3	100	-4.3	0	0	975.6	NA	0.0000		9999	0	0	0	0
2019/04/20 00:05:01	BASE	2.44	101	4.58	116	-4.3	100	-4.4	0	2	975.7	NA	0.0000		9999	0	0	0	0
2019/04/20 00:06:01	BASE	2.87	102	4.58	116	-4.3	100	-4.4	0	2	975.7	NA	0.0000		9999	0	0	0	0
2019/04/20 00:07:01	BASE	3.12	97	4.58	103	-4.3	99	-4.5	0	0	975.7	NA	0.0000		9999	0	0	0	0
2019/04/20 00:08:01	BASE	3.77	103	4.58	103	-4.4	99	-4.5	0	0	975.8	NA	0.0000		9999	0	0	0	0
2019/04/20 00:09:01	BASE	3.79	111	4.58	103	-4.5	98	-4.7	0	0	975.8	NA	0.0000		9999	0	0	0	0
2019/04/20 00:10:01	BASE	3.77	118	5.14	124	-4.5	98	-4.8	0	0	975.8	NA	0.0000		9999	0	0	0	0
2019/04/20 00:11:01	BASE	4.06	122	5.14	124	-4.6	98	-4.9	0	1	975.8	NA	0.0000		9999	0	0	0	0
2019/04/20 00:12:01	BASE	4.42	118	5.92	125	-4.7	98	-4.9	0	1	975.8	NA	0.0000		9999	0	0	0	0
2019/04/20 00:13:01	BASE	5.07	117	6.02	127	-4.8	99	-4.9	0	1	975.7	NA	0.0000		9999	0	0	0	0
2019/04/20 00:14:01	BASE	5.72	120	6.69	120	-4.7	99	-4.8	0	0	975.6	NA	0.0000		9999	0	0	0	0
2019/04/20 00:15:01	BASE	6.28	118	7.25	107	-4.7	100	-4.7	0	1	975.6	NA	0.0000		9999	2530	0	0	0
2019/04/20 00:16:00	BASE	6.82	116	8.18	125	-4.6	100	-4.6	0	0	975.6	NA	0.0000		9999	2490	17320	0	0
2019/04/20 00:17:00	BASE	7.16	119	8.33	125	-4.5	100	-4.5	0	0	975.6	NA	0.0000		9999	0	0	0	0
2019/04/20 00:18:01	BASE	7.51	121	8.33	125	-4.4	100	-4.4	0	0	975.6	NA	0.0000		9999	0	0	0	0
2019/04/20 00:19:01	BASE	7.55	119	8.33	125	-4.4	100	-4.4	0	0	975.6	NA	0.0000		9999	0	0	0	0
2019/04/20 00:20:01	BASE	7.32	115	8.33	125	-4.5	100	-4.5	0	2	975.6	NA	0.0000		9999	0	0	0	0
2019/04/20 00:21:00	BASE	7.34	113	8.33	125	-4.5	100	-4.5	0	0	975.6	NA	0.0000		9999	0	0	0	0
2019/04/20 00:22:01	BASE	6.88	106	8.33	125	-4.6	100	-4.6	0	2	975.6	NA	0.0000		9999	0	0	0	0
2019/04/20 00:23:00	BASE	6.64	94	8.33	125	-4.7	100	-4.7	0	0	975.6	NA	0.0000		9999	0	0	0	0
2019/04/20 00:24:01	BASE	6.58	79	8.33	125	-4.9	100	-4.9	0	1	975.6	NA	0.0000		9999	0	0	0	0
2019/04/20 00:25:01	BASE	6.04	73	8.33	125	-5.0	100	-5.0	0	0	975.6	NA	0.0000		9999	0	0	0	0
2019/04/20 00:26:00	BASE	6.14	83	8.33	125	-5.0	100	-5.0	0	1	975.6	NA	0.0000		9999	0	0	0	0
2019/04/20 00:27:00	BASE	6.33	85	8.28	126	-5.1	100	-5.1	0	0	975.6	NA	0.0000		9999	0	0	0	0
2019/04/20 00:28:00	BASE	6.33	82	8.08	116	-5.1	100	-5.1	0	0	975.6	NA	0.0000		9999	0	0	0	0
2019/04/20 00:29:00	BASE	6.06	82	8.08	116	-5.0	100	-5.0	0	0	975.6	NA	0.0000		9999	0	0	0	0
2019/04/20 00:30:00	BASE	5.27	75	8.08	116	-5.0	100	-5.0	0	1	975.6	NA	0.0000		9999	0	0	0	0
2019/04/20 00:31:00	BASE	5.09	84	7.61	86	-5.0	100	-5.0	0	0	975.6	NA	0.0000		9999	0	0	0	0
2019/04/20 00:32:00	BASE	5.58	97	7.61	86	-5.1	100	-5.1	0	1	975.6	NA	0.0000		9999	0	0	0	0
2019/04/20 00:33:00	BASE	5.81	103	7.41	81	-5.2	100	-5.2	0	0	975.6	NA	0.0000		9999	0	0	0	0
2019/04/20 00:34:00	BASE	5.96	107	7.05	90	-5.2	100	-5.2	0	0	975.6	NA	0.0000		9999	0	0	0	0
2019/04/20 00:35:00	BASE	6.17	110	7.05	108	-5.3	100	-5.3	0	1	975.6	NA	0.0000		9999	0	0	0	0
2019/04/20 00:36:00	BASE	5.72	116	7.05	108	-5.4	100	-5.4	0	0	975.6	NA	0.0000		9999	0	0	0	0
2019/04/20 00:37:00	BASE	5.14	115	7.05	108	-5.4	100	-5.4	0	1	975.6	NA	0.0000		9999	0	0	0	0
2019/04/20 00:38:00	BASE	5.13	110	7.05	108	-5.4	100	-5.4	0	0	975.6	NA	0.0000		9999	0	0	0	0
2019/04/20 00:39:00	BASE	5.05	100	7.05	108	-5.5	100	-5.5	0	1	975.7	NA	0.0000		9999	0	0	0	0
2019/04/20 00:40:00	BASE	3.94	83	7.05	108	-5.5	100	-5.5	0	0	975.8	NA	0.0000		9999	0	0	0	0
2019/04/20 00:41:00	BASE	2.74	79	7.05	108	-5.5	100	-5.5	0	0	975.8	NA	0.0000		9999	0	0	0	0
2019/04/20 00:42:00	BASE	2.14	85	7.05	108	-5.5	100	-5.5	0	0	975.8	NA	0.0000		9999	0	0	0	0
2019/04/20 00:43:00	BASE	1.99	68	7.05	108	-5.4	100	-5.4	0	0	975.8	NA	0.0000		9999	0	0	0	0
2019/04/20 00:44:00	BASE	2.24	47	7.05	108	-5.2	100	-5.3	0	0	975.8	NA	0.0000		9999	0	0	0	0
2019/04/20 00:45:00	BASE	2.25	47	5.97	119	-5.1	99	-5.2	0	0	975.8	NA	0.0000		9999	0	0	0	0
2019/04/20 00:46:00	BASE	2.08	55	5.92	108	-5.0	99	-5.1	0	1	975.8	NA	0.0000		9999	0	0	0	0
2019/04/20 00:47:00	BASE	1.99	64	5.71	102	-4.9	98	-5.1	0	1	975.9	NA	0.0000		9999	0	0	0	0
2019/04/20 00:48:00	BASE	2.07	70	5.71	102	-4.9	98	-5.2	0	0	975.9	NA	0.0000		9999	0	0	0	0
2019/04/20 00:49:00	BASE	2.19	81	3.76	75	-4.9	97	-5.2	0	0	975.9	NA	0.0000		9999	0	0	0	0
2019/04/20 00:50:00	BASE	2.64	104	3.55	121	-5.0	97	-5.4	0	0	975.9	NA	0.0000		9999	0	0	0	0
2019/04/20 00:51:00	BASE	3.37	120	4.01	126	-5.2	96	-5.7	0	2	975.9	NA	0.0000		9999	0	0	0	0
2019/04/20 00:52:00	BASE	3.50	118	4.01	126	-5.3	96	-5.9	0	0	975.9	NA	0.0000		9999	0	0	0	0
2019/04/20 00:53:00	BASE	3.36	112	4.01	126	-5.5	95	-6.1	0	0	976.0	NA	0.0000		9999	0	0	0	0
2019/04/20 00:54:00	BASE	3.05	109	4.01	126	-5.5	95	-6.1	0	0	976.0	NA	0.0000		9999	0	0	0	0
2019/04/20 00:55:00	BASE	2.52	92	4.01	126	-5.3	96	-5.9	0	0	976.0	NA	0.0000		9999	0	0	0	0
2019/04/20 00:56:00	BASE	2.36	70	4.01	126	-5.1	96	-5.6	0	0	976.0	NA	0.0000		9999	0	0	0	0
2019/04/20 00:57:00	BASE	2.47	74	4.01	126	-4.8	96	-5.3	0	1	976.0	NA	0.0000		9999	0	0	0	0
2019/04/20 00:58:00	BASE	3.22	96	4.32	108	-4.7	96	-5.3	0	2	976.0	NA	0.0000		9999	0	0	0	0
2019/04/20 00:59:00	BASE	3.93	106	4.58	113	-4.6	95	-5.3	0	0	976.0	NA	0.0000		9999	0	0	0	0
2019/04/20 01:00:00	BASE	4.14	109	5.66	115	-4.7	95	-5.4	0	0	976.0	NA	0.0000		9999	0	0	0	0
2019/04/20 01:01:00	BASE	5.03	104	6.17	104	-4.9	94	-5.7	0	1	976.0	NA	0.0000		9999	0	0	0	0
2019/04/20 01:02:00	BASE	5.60	101	6.17	95	-5.2	94	-6.0	0	0	976.0	NA	0.0000		9999	0	0	0	0
2019/04/20 01:03:00	BASE	5.25	102	6.17	95	-5.3	94	-6.2	0	0	976.0	NA	0.0000		9999	0	0	0	0
2019/04/20 01:04:00	BASE	4.73	95	6.17	95	-5.4	94	-6.3	0	0	976.0	NA	0.0000		9999	0	0	0	0
2019/04/20 01:05:00	BASE	4.19	89	6.17	95	-5.4	94	-6.2	0	0	976.0	NA	0.0000		9999	0	0	0	0
2019/04/20 01:06:00	BASE	4.15	86	6.17	95	-5.3	94	-6.1	0	0	976.0	NA	0.0000		9999	0	0	0	0
2019/04/20 01:07:00	BASE	4.22	83	6.17	95	-5.3	94	-6.1	0	0	976.1	NA	0.0000		9999	0	0	0	0
2019/04/20 01:08:00	BASE	4.02	83	6.17	95	-5.3	94	-6.1	0	0	976.2	NA	0.0000		9999	0	0	0	0
2019/04/20 01:09:00	BASE	4.23	83	6.17	95	-5.3	94	-6.1	0	0	976.2	NA	0.0000		9999	0	0	0	0
2019/04/20 01:10:00	BASE	4.20	80	6.17	95	-5.4	94	-6.2	0	0	976.2	NA	0.0000		9999	0	0	0	0
2019/04/20 01:11:00	BASE	3.58	80	6.17	95	-5.3	94	-6.1	0	1	976.2	NA	0.0000		9999	0	0	0	0
2019/04/20 01:12:00	BASE	3.22	93	5.71	100	-5.2	95	-5.9	0	0	976.2	NA	0.0000		9999	0	0	0	0
2019/04/20 01:13:00	BASE	3.35	104	5.09	84	-5.1	95	-5.8	0	1	976.2	NA	0.0000		9999	0	0	0	0
2019/04/20 01:14:00	BASE	3.89	104	5.04	89	-5.0	95	-5.8	0	1	976.2	NA	0.0000		9999	0	0	0	0
2019/04/20 01:15:00	BASE	3.78	93	5.04	89	-5.0	94	-5.8	0	0	976.2	NA	0.0000		9999	0	0	0	0
2019/04/20 01:16:00	BASE	3.71	64	4.84	89	-5.0	94	-5.8	0	0	976.2	NA	0.0000		9999	0	0	0	0
2019/04/20 01:17:00	BASE	4.11	48	4.84	89	-5.1	94	-5.9	0	0	976.2	NA	0.0000		9999	0	0	0	0
2019/04/20 01:18:00	BASE	4.17	49	4.84	89	-5.1	94	-5.9	0	0	976.2	NA	0.0000		9999	0	0	0	0
2019/04/20 01:19:00	BASE	3.80	56	4.73	48	-5.0	94	-5.8	0	0	976.2	NA	0.0000		9999	0	0	0	0
2019/04/20 01:20:00	BASE	3.20	62	4.73	48	-4.9	94	-5.7	0	0	976.2	NA	0.0000		9999	0	0	0	0
2019/04/20 01:21:00	BASE	3.22	67	4.73	48	-4.8	94	-5.7	0	0	976.2	NA	0.0000		9999	0	0	0	0
2019/04/20 01:22:00	BASE	4.00	67	4.99	57	-4.8	94	-5.7	0	0	976.2	NA	0.0000		9999	0	0	0	0
2019/04/20 01:23:00	BASE	3.84	62	4.99	57	-4.8	93	-5.7	0	0	976.2	NA	0.0000		9999	0	0	0	0
2019/04/20 01:24:00	BASE	2.73	56	4.99	57	-4.8	93	-5.8	0	0	976.2	NA	0.0000		9999	0	0	0	0
2019/04/20 01:25:00	BASE	2.35	50	4.99	57	-4.9	93	-5.8	0	0	976.2	NA	0.0000		9999	0	0	0	0
2019/04/20 01:26:00	BASE	2.36	30	4.99	57	-4.9	93	-5.8	0	0	976.2	NA	0.0000		9999	0	0	0	0
2019/04/20 01:27:00	BASE	2.41	10	4.99	57	-4.9	93	-5.8	0	0	976.2	NA	0.0000		9999	0	0	0	0
2019/04/20 01:28:00	BASE	2.55	21	4.99	57	-4.8	93	-5.8	0	1	976.2	NA	0.0000		9999	0	0	0	0
2019/04/20 01:29:00	BASE	2.95	34	4.99	57	-4.9	93	-5.8	0	2	976.2	NA	0.0000		9999	0	0	0	0
2019/04/20 01:30:00	BASE	3.54	42	4.99	57	-4.9	93	-5.9	0	0	976.3	NA	0.0000		9999	0	0	0	0
2019/04/20 01:31:00	BASE	3.32	46	4.99	57	-4.9	93	-5.9	0	0	976.3	NA	0.0000		9999	0	0	0	0
2019/04/20 01:32:00	BASE	2.74	51	4.89	62	-4.9	93	-5.8	0	1	976.3	NA	0.0000		9999	0	0	0	0
2019/04/20 01:33:00	BASE	2.38	61	4.89	62	-4.8	93	-5.8	0	2	976.4	NA	0.0000		9999	0	0	0	0
2019/04/20 01:34:00	BASE	2.15	69	4.89	62	-4.8	93	-5.7	0	0	976.4	NA	0.0000		9999	0	0	0	0
2019/04/20 01:35:00	BASE	2.51	70	4.89	62	-4.7	93	-5.7	0	2	976.4	NA	0.0000		9999	0	0	0	0
2019/04/20 01:36:00	BASE	2.65	69	4.89	62	-4.8	93	-5.8	0	2	976.4	NA	0.0000		9999	0	0	0	0
2019/04/20 01:37:00	BASE	2.27	64	4.89	62	-4.7	92	-5.8	0	2	976.4	NA	0.0000		9999	0	0	0	0
2019/04/20 01:38:00	BASE	2.03	57	4.89	62	-4.7	92	-5.8	0	0	976.4	NA	0.0000		9999	0	0	0	0
2019/04/20 01:39:00	BASE	1.59	54	4.89	62	-4.7	92	-5.8	0	0	976.4	NA	0.0000		9999	0	0	0	0
2019/04/20 01:40:00	BASE	0.88	44	3.65	71	-4.6	92	-5.8	0	0	976.4	NA	0.0000		9999	0	0	0	0
2019/04/20 01:41:00	BASE	0.93	30	3.65	71	-4.5	91	-5.7	0	0	976.4	NA	0.0000		9999	0	0	0	0
2019/04/20 01:42:00	BASE	1.47	20	3.65	71	-4.4	91	-5.7	0	1	976.4	NA	0.0000		9999	0	0	0	0
2019/04/20 01:43:00	BASE	1.76	23	3.65	71	-4.4	91	-5.6	0	1	976.4	NA	0.0000		9999	0	0	0	0
2019/04/20 01:44:00	BASE	1.76	47	3.65	71	-4.3	91	-5.6	0	1	976.4	NA	0.0000		9999	0	0	0	0
2019/04/20 01:45:00	BASE	2.21	59	3.45	71	-4.3	91	-5.6	0	1	976.4	NA	0.0000		9999	0	0	0	0
2019/04/20 01:46:00	BASE	3.11	56	3.70	64	-4.4	90	-5.7	0	1	976.4	NA	0.0000		9999	0	0	0	0
2019/04/20 01:47:00	BASE	3.58	59	4.01	59	-4.5	90	-5.9	0	0	976.5	NA	0.0000		9999	0	0	0	0
2019/04/20 01:48:00	BASE	3.37	58	4.01	59	-4.6	90	-6.0	0	1	976.5	NA	0.0000		9999	0	0	0	0
2019/04/20 01:49:00	BASE	2.87	57	4.01	59	-4.6	90	-6.1	0	0	976.5	NA	0.0000		9999	0	0	0	0
2019/04/20 01:50:00	BASE	2.96	56	4.01	59	-4.7	90	-6.1	0	2	976.5	NA	0.0000		9999	0	0	0	0
2019/04/20 01:51:00	BASE	3.19	60	4.01	59	-4.7	90	-6.1	0	2	976.5	NA	0.0000		9999	0	0	0	0
2019/04/20 01:52:00	BASE	3.25	63	4.01	59	-4.7	90	-6.1	0	0	976.5	NA	0.0000		9999	0	0	0	0
2019/04/20 01:53:00	BASE	3.51	62	4.12	60	-4.7	90	-6.1	0	1	976.5	NA	0.0000		9999	0	0	0	0
2019/04/20 01:54:00	BASE	3.45	58	4.12	60	-4.8	90	-6.1	0	1	976.5	NA	0.0000		9999	0	0	0	0
2019/04/20 01:55:00	BASE	3.22	54	4.12	60	-4.8	90	-6.1	0	2	976.5	NA	0.0000		9999	0	0	0	0
2019/04/20 01:56:00	BASE	3.15	53	4.12	60	-4.8	90	-6.2	0	0	976.5	NA	0.0000		9999	0	0	0	0
2019/04/20 01:57:00	BASE	3.10	54	4.12	60	-4.8	90	-6.2	0	1	976.5	NA	0.0000		9999	0	0	0	0
2019/04/20 01:58:00	BASE	3.09	53	4.12	60	-4.8	90	-6.2	0	1	976.5	NA	0.0000		9999	0	0	0	0
2019/04/20 01:59:00	BASE	2.91	51	4.12	60	-4.8	90	-6.2	0	2	976.6	NA	0.0000		9999	0	0	0	0
2019/04/20 02:00:00	BASE	2.66	48	4.12	60	-4.8	90	-6.2	0	0	976.6	NA	0.0000		9999	0	0	0	0
2019/04/20 02:01:00	BASE	2.36	48	4.12	60	-4.8	90	-6.1	0	2	976.6	NA	0.0000		9999	0	0	0	0
2019/04/20 02:02:00	BASE	2.16	56	4.12	60	-4.8	90	-6.1	0	0	976.6	NA	0.0000		9999	0	0	0	0
2019/04/20 02:03:00	BASE	2.25	60	3.70	51	-4.7	90	-6.1	0	0	976.6	NA	0.0000		9999	0	0	0	0
2019/04/20 02:04:00	BASE	2.22	60	3.60	54	-4.7	90	-6.1	0	0	976.7	NA	0.0000		9999	0	0	0	0
2019/04/20 02:05:00	BASE	2.07	62	3.34	52	-4.7	90	-6.1	0	0	976.7	NA	0.0000		9999	0	0	0	0
2019/04/20 02:06:00	BASE	1.86	66	3.29	48	-4.7	90	-6.1	0	0	976.7	NA	0.0000		9999	2590	0	0	0
2019/04/20 02:07:00	BASE	1.90	68	3.29	48	-4.7	90	-6.1	0	0	976.7	NA	0.0000		9999	0	0	0	0
2019/04/20 02:08:00	BASE	1.99	67	3.04	53	-4.7	90	-6.1	0	2	976.7	NA	0.0000		9999	0	0	0	0
2019/04/20 02:09:00	BASE	1.87	70	2.98	46	-4.7	90	-6.0	0	1	976.7	NA	0.0000		9999	0	0	0	0
2019/04/20 02:10:00	BASE	1.91	73	2.47	60	-4.7	91	-6.0	0	1	976.7	NA	0.0000		9999	2620	0	0	0
2019/04/20 02:11:00	BASE	2.10	72	2.47	60	-4.7	91	-6.0	0	0	976.7	NA	0.0000		9999	2560	0	0	0
2019/04/20 02:12:00	BASE	2.42	67	2.88	58	-4.6	91	-5.9	0	0	976.7	NA	0.0000		9999	0	0	0	0
2019/04/20 02:13:00	BASE	2.72	57	2.98	57	-4.6	90	-6.0	0	0	976.7	NA	0.0000		9999	0	0	0	0
2019/04/20 02:14:00	BASE	2.69	51	2.98	57	-4.7	90	-6.0	0	0	976.7	NA	0.0000		9999	2460	0	0	0
2019/04/20 02:15:00	BASE	2.41	51	2.98	57	-4.7	90	-6.0	0	0	976.7	NA	0.0000		9999	0	0	0	0
2019/04/20 02:16:00	BASE	2.22	59	2.98	57	-4.7	90	-6.0	0	2	976.7	NA	0.0000		9999	0	0	0	0
2019/04/20 02:17:00	BASE	2.18	72	2.98	57	-4.6	91	-5.9	0	1	976.7	NA	0.0000		9999	0	0	0	0
2019/04/20 02:18:00	BASE	2.24	80	2.98	57	-4.6	91	-5.9	0	0	976.8	NA	0.0000		9999	0	0	0	0
2019/04/20 02:19:00	BASE	2.29	84	2.98	57	-4.7	91	-5.9	0	2	976.8	NA	0.0000		9999	2430	0	0	0
2019/04/20 02:20:00	BASE	2.30	88	2.98	57	-4.7	91	-6.0	0	0	976.8	NA	0.0000		9999	2400	0	0	0
2019/04/20 02:21:00	BASE	2.33	94	2.98	57	-4.7	90	-6.1	0	2	976.8	NA	0.0000		9999	2360	0	0	0
2019/04/20 02:22:00	BASE	2.46	96	2.98	57	-4.8	90	-6.2	0	1	976.9	NA	0.0000		9999	2400	0	0	0
2019/04/20 02:23:00	BASE	2.63	99	2.93	99	-4.8	90	-6.2	0	1	977.0	NA	0.0000		9999	2360	0	0	0
2019/04/20 02:24:00	BASE	2.63	99	2.93	99	-4.8	90	-6.2	0	0	977.0	NA	0.0000		9999	2330	0	0	0
2019/04/20 02:25:00	BASE	2.61	99	2.93	99	-4.8	90	-6.2	0	0	977.0	NA	0.0000		9999	2300	0	0	0
2019/04/20 02:26:00	BASE	2.56	105	2.98	110	-4.8	90	-6.3	0	1	977.0	NA	0.0000		9999	2300	0	0	0
2019/04/20 02:27:00	BASE	2.29	105	3.24	93	-4.9	90	-6.3	0	1	977.1	NA	0.0000		9999	2230	0	0	0
2019/04/20 02:28:00	BASE	2.80	97	3.81	94	-4.9	89	-6.4	0	0	977.1	NA	0.0000		9999	2300	0	0	0
2019/04/20 02:29:00	BASE	3.41	92	3.81	94	-5.0	89	-6.4	0	0	977.1	NA	0.0000		9999	2260	0	0	0
2019/04/20 02:30:00	BASE	3.24	89	3.81	94	-5.0	89	-6.4	0	0	977.1	NA	0.0000		9999	2200	0	0	0
2019/04/20 02:31:00	BASE	3.15	84	3.81	94	-4.9	90	-6.3	0	0	977.1	NA	0.0000		9999	2200	0	0	0
2019/04/20 02:32:00	BASE	2.84	76	3.81	94	-4.8	90	-6.2	0	0	977.1	NA	0.0000		9999	2260	0	0	0
2019/04/20 02:33:00	BASE	2.51	67	3.81	94	-4.6	90	-6.0	0	0	977.2	NA	0.0000		9999	2200	0	0	0
2019/04/20 02:34:00	BASE	2.60	69	3.81	94	-4.6	90	-6.0	0	0	977.2	NA	0.0000		9999	2170	0	0	0
2019/04/20 02:35:00	BASE	2.89	73	3.81	94	-4.5	90	-5.9	0	0	977.2	NA	0.0000		9999	2170	0	0	0
2019/04/20 02:36:00	BASE	2.87	78	3.81	94	-4.5	90	-5.9	0	1	977.2	NA	0.0000		9999	2170	0	0	0
2019/04/20 02:37:00	BASE	2.71	85	3.81	94	-4.5	90	-5.9	0	0	977.2	NA	0.0000		9999	2130	0	0	0
2019/04/20 02:38:00	BASE	2.63	99	3.55	85	-4.4	90	-5.8	0	2	977.2	NA	0.0000		9999	2260	0	0	0
2019/04/20 02:39:00	BASE	2.50	115	3.55	85	-4.4	90	-5.8	0	0	977.2	NA	0.0000		9999	2260	0	0	0
2019/04/20 02:40:00	BASE	2.51	125	3.55	85	-4.4	90	-5.8	0	2	977.2	NA	0.0000		9999	2230	0	0	0
2019/04/20 02:41:00	BASE	2.25	132	3.34	73	-4.4	90	-5.8	0	1	977.3	NA	0.0000		9999	2200	0	0	0
2019/04/20 02:42:00	BASE	1.02	153	3.34	73	-4.4	90	-5.9	0	0	977.3	NA	0.0000		9999	2170	0	0	0
2019/04/20 02:43:00	BASE	0.35	168	3.34	73	-4.5	90	-5.9	0	2	977.3	NA	0.0000		9999	2130	0	0	0
2019/04/20 02:44:00	BASE	1.05	161	3.34	73	-4.6	90	-5.9	0	2	977.3	NA	0.0000		9999	2260	0	0	0
2019/04/20 02:45:00	BASE	1.93	161	3.09	121	-4.6	91	-5.9	0	0	977.3	NA	0.0000		9999	2200	0	0	0
2019/04/20 02:46:00	BASE	2.92	162	4.01	159	-4.6	92	-5.8	0	0	977.3	NA	0.0000		9999	2100	0	0	0
2019/04/20 02:47:00	BASE	3.40	168	4.01	159	-4.6	92	-5.7	0	1	977.3	NA	0.0000		9999	2130	0	0	0
2019/04/20 02:48:00	BASE	3.61	171	4.42	166	-4.5	93	-5.5	0	0	977.4	NA	0.0000		9999	2260	0	0	0
2019/04/20 02:49:00	BASE	3.55	168	4.42	166	-4.4	93	-5.4	0	0	977.4	NA	0.0000		9999	2230	0	0	0
2019/04/20 02:50:00	BASE	3.24	168	4.42	166	-4.3	94	-5.2	0	1	977.4	NA	0.0000		9999	2300	0	0	0
2019/04/20 02:51:00	BASE	3.62	166	4.42	166	-4.3	94	-5.1	0	0	977.4	NA	0.0000		9999	2170	0	0	0
2019/04/20 02:52:00	BASE	4.11	164	4.68	164	-4.2	94	-5.0	0	0	977.4	NA	0.0000		9999	2230	0	0	0
2019/04/20 02:53:00	BASE	4.02	163	4.68	164	-4.1	94	-4.9	0	2	977.5	NA	0.0000		9999	2170	0	0	0
2019/04/20 02:54:00	BASE	4.08	159	4.94	146	-4.1	94	-4.9	0	0	977.5	NA	0.0000		9999	2200	0	0	0
2019/04/20 02:55:00	BASE	4.42	155	4.94	146	-4.1	94	-4.9	0	2	977.6	NA	0.0000		9999	2200	0	0	0
2019/04/20 02:56:00	BASE	4.79	155	5.50	156	-4.1	94	-4.9	0	2	977.6	NA	0.0000		9999	2260	0	0	0
2019/04/20 02:57:00	BASE	4.82	156	5.50	156	-4.1	94	-4.9	0	0	977.6	NA	0.0000		9999	2200	0	0	0
2019/04/20 02:58:00	BASE	4.30	149	5.50	156	-4.1	94	-4.9	0	0	977.6	NA	0.0000		9999	2300	0	0	0
2019/04/20 02:59:00	BASE	4.62	141	6.02	145	-4.1	94	-4.9	0	0	977.6	NA	0.0000		9999	2300	0	0	0
2019/04/20 03:00:00	BASE	5.32	145	6.02	145	-4.1	94	-4.9	0	2	977.6	NA	0.0000		9999	2200	0	0	0
2019/04/20 03:01:00	BASE	5.67	151	6.58	153	-4.1	94	-4.9	0	1	977.7	NA	0.0000		9999	2200	0	0	0
2019/04/20 03:02:00	BASE	5.98	151	7.72	154	-4.1	94	-4.8	0	1	977.7	NA	0.0000		9999	2230	0	0	0
2019/04/20 03:03:00	BASE	6.14	150	7.72	154	-4.0	94	-4.8	0	0	977.7	NA	0.0000		9999	2330	0	0	0
2019/04/20 03:04:00	BASE	6.40	146	7.72	154	-4.0	94	-4.8	0	2	977.7	NA	0.0000		9999	2260	0	0	0
2019/04/20 03:05:00	BASE	7.01	143	7.77	142	-4.0	95	-4.7	0	0	977.7	NA	0.0000		9999	2260	0	0	0
2019/04/20 03:06:00	BASE	6.99	144	7.77	142	-4.0	95	-4.7	0	0	977.7	NA	0.0000		9999	2260	3350	0	0
2019/04/20 03:07:00	BASE	6.55	147	7.77	142	-4.0	95	-4.8	0	2	977.7	NA	0.0000		9999	2530	3150	0	0
2019/04/20 03:08:00	BASE	6.67	149	8.33	155	-4.0	95	-4.8	0	2	977.7	NA	0.0000		9999	2620	3250	0	0
2019/04/20 03:09:00	BASE	6.76	147	8.33	155	-4.0	95	-4.8	0	0	977.8	NA	0.0000		9999	3250	0	0	0
2019/04/20 03:10:00	BASE	6.69	144	8.33	155	-4.1	95	-4.7	0	0	977.8	NA	0.0000		9999	2620	3180	0	0
2019/04/20 03:11:00	BASE	6.69	140	8.33	155	-4.1	95	-4.7	0	2	977.8	NA	0.0000		9999	2620	3150	0	0
2019/04/20 03:12:00	BASE	7.06	139	8.39	146	-4.0	96	-4.6	0	1	977.8	NA	0.0000		9999	3120	0	0	0
2019/04/20 03:13:00	BASE	6.79	141	8.39	146	-4.0	96	-4.6	0	0	977.8	NA	0.0000		9999	3120	0	0	0
2019/04/20 03:14:00	BASE	6.17	139	8.39	146	-4.0	96	-4.6	0	2	977.8	NA	0.0000		9999	3020	0	0	0
2019/04/20 03:15:00	BASE	6.26	137	8.39	146	-4.0	96	-4.6	0	0	977.8	NA	0.0000		9999	2950	0	0	0
2019/04/20 03:16:01	BASE	6.17	135	8.39	146	-4.0	96	-4.6	0	0	977.8	NA	0.0000		9999	2620	0	0	0
2019/04/20 03:17:00	BASE	6.20	133	8.39	146	-4.1	96	-4.6	0	2	977.8	NA	0.0000		9999	2620	0	0	0
2019/04/20 03:18:01	BASE	6.63	132	8.39	138	-4.1	96	-4.6	0	0	977.9	NA	0.0000		9999	2660	0	0	0
2019/04/20 03:19:00	BASE	6.69	132	8.39	138	-4.1	96	-4.6	0	1	977.9	NA	0.0000		9999	2660	0	0	0
2019/04/20 03:20:01	BASE	6.34	137	8.39	138	-4.1	97	-4.5	0	2	977.9	NA	0.0000		9999	2690	0	0	0
2019/04/20 03:21:01	BASE	5.81	137	8.39	138	-4.1	97	-4.5	0	0	977.9	NA	0.0000		9999	2690	0	0	0
2019/04/20 03:22:01	BASE	5.74	136	8.39	138	-4.0	97	-4.5	0	2	977.9	NA	0.0000		9999	2720	0	0	0
2019/04/20 03:23:01	BASE	6.38	144	8.39	138	-4.0	97	-4.4	0	1	977.9	NA	0.0000		9999	2720	0	0	0
2019/04/20 03:24:01	BASE	6.50	142	8.39	138	-4.0	97	-4.4	0	0	977.9	NA	0.0000		9999	2760	0	0	0
2019/04/20 03:25:01	BASE	6.94	142	9.67	145	-4.0	97	-4.4	0	1	977.9	NA	0.0000		9999	2720	0	0	0
2019/04/20 03:26:01	BASE	6.58	144	9.67	145	-4.0	97	-4.4	0	0	977.9	NA	0.0000		9999	2760	0	0	0
2019/04/20 03:27:01	BASE	5.54	137	9.67	145	-4.0	97	-4.4	0	0	977.9	NA	0.0000		9999	2720	0	0	0
2019/04/20 03:28:01	BASE	5.47	133	9.67	145	-3.9	97	-4.4	0	2	977.9	NA	0.0000		9999	2720	0	0	0
2019/04/20 03:29:01	BASE	5.05	132	9.67	145	-3.9	97	-4.4	0	2	978.0	NA	0.0000		9999	2790	0	0	0
2019/04/20 03:30:01	BASE	4.97	131	9.67	145	-3.9	96	-4.4	0	0	978.1	NA	0.0000		9999	2760	0	0	0
2019/04/20 03:31:01	BASE	4.92	132	9.67	145	-3.9	96	-4.4	0	0	978.1	NA	0.0000		9999	1670	2790	0	0
2019/04/20 03:32:01	BASE	5.43	139	9.67	145	-3.9	96	-4.5	0	0	978.1	NA	0.0000		9999	1900	2760	0	0
2019/04/20 03:33:01	BASE	6.64	144	9.67	145	-3.9	96	-4.4	0	0	978.1	NA	0.0000		9999	1670	0	0	0
2019/04/20 03:34:01	BASE	6.67	144	9.67	145	-3.9	96	-4.4	0	2	978.1	NA	0.0000		9999	1670	2850	0	0
2019/04/20 03:35:01	BASE	5.95	140	7.82	146	-3.9	96	-4.4	0	0	978.1	NA	0.0000		9999	1640	2760	0	0
2019/04/20 03:36:01	BASE	5.60	142	7.82	146	-3.8	96	-4.4	0	2	978.1	NA	0.0000		9999	1570	2490	0	0
2019/04/20 03:37:01	BASE	5.04	144	7.82	146	-3.8	96	-4.3	0	0	978.1	NA	0.0000		9999	1770	2590	0	0
2019/04/20 03:38:01	BASE	5.26	145	7.82	146	-3.8	96	-4.3	0	0	978.1	NA	0.0000		9999	2070	2590	0	0
2019/04/20 03:39:01	BASE	5.17	149	7.82	146	-3.7	96	-4.3	0	0	978.2	NA	0.0000		9999	1970	0	0	0
2019/04/20 03:40:01	BASE	4.67	144	7.82	146	-3.7	96	-4.3	0	0	978.2	NA	0.0000		9999	1840	0	0	0
2019/04/20 03:41:01	BASE	4.74	137	7.82	146	-3.7	96	-4.2	0	2	978.2	NA	0.0000		9999	1740	0	0	0
2019/04/20 03:42:01	BASE	4.55	139	7.82	146	-3.7	96	-4.2	0	2	978.2	NA	0.0000		9999	1710	0	0	0
2019/04/20 03:43:01	BASE	4.96	143	6.89	141	-3.6	96	-4.2	0	1	978.2	NA	0.0000		9999	1670	0	0	0
2019/04/20 03:44:01	BASE	5.12	142	6.58	150	-3.6	96	-4.2	0	2	978.3	NA	0.0000		9999	1610	0	0	0
2019/04/20 03:45:01	BASE	4.91	145	6.58	150	-3.6	96	-4.2	0	2	978.3	NA	0.0000		9999	1640	0	0	0
2019/04/20 03:46:01	BASE	4.43	150	6.58	150	-3.6	96	-4.2	0	2	978.3	NA	0.0000		9999	1610	0	0	0
2019/04/20 03:47:01	BASE	3.46	153	6.58	150	-3.6	96	-4.1	0	0	978.3	NA	0.0000		9999	1640	0	0	0
2019/04/20 03:48:01	BASE	3.21	160	6.02	150	-3.6	96	-4.1	0	1	978.3	NA	0.0000		9999	1670	2330	0	0
2019/04/20 03:49:01	BASE	3.87	162	6.02	150	-3.6	96	-4.1	0	0	978.3	NA	0.0000		9999	1640	2660	0	0
2019/04/20 03:50:01	BASE	5.01	155	7.00	153	-3.6	96	-4.1	0	1	978.3	NA	0.0000		9999	2660	0	0	0
2019/04/20 03:51:01	BASE	5.90	152	7.10	151	-3.6	96	-4.1	0	0	978.3	NA	0.0000		9999	2660	0	0	0
2019/04/20 03:52:01	BASE	5.82	160	7.10	151	-3.6	96	-4.1	0	1	978.3	NA	0.0000		9999	1740	2620	0	0
2019/04/20 03:53:01	BASE	5.00	165	7.10	151	-3.6	96	-4.1	0	1	978.4	NA	0.0000		9999	1610	0	0	0
2019/04/20 03:54:01	BASE	4.70	165	7.10	151	-3.6	96	-4.1	0	1	978.4	NA	0.0000		9999	1570	0	0	0
2019/04/20 03:55:01	BASE	5.35	172	7.10	151	-3.6	96	-4.1	0	0	978.4	NA	0.0000		9999	1540	0	0	0
2019/04/20 03:56:01	BASE	5.42	175	7.10	151	-3.6	96	-4.1	0	0	978.4	NA	0.0000		9999	1710	2760	0	0
2019/04/20 03:57:00	BASE	4.76	169	7.10	151	-3.6	96	-4.1	0	0	978.4	NA	0.0000		9999	1610	0	0	0
2019/04/20 03:58:01	BASE	3.94	148	7.10	151	-3.6	96	-4.1	0	0	978.5	NA	0.0000		9999	1510	0	0	0
2019/04/20 03:59:00	BASE	3.19	115	7.10	151	-3.6	96	-4.1	0	2	978.5	NA	0.0000		9999	1540	2200	0	0
2019/04/20 04:00:00	BASE	3.42	99	7.10	151	-3.6	96	-4.2	0	0	978.5	NA	0.0000		9999	1610	2660	0	0
2019/04/20 04:01:01	BASE	3.79	96	6.94	171	-3.7	96	-4.3	0	1	978.5	NA	0.0000		9999	1800	2720	0	0
2019/04/20 04:02:00	BASE	3.39	97	6.43	184	-3.8	96	-4.4	0	2	978.5	NA	0.0000		9999	1770	0	0	0
2019/04/20 04:03:00	BASE	3.08	101	6.43	184	-3.9	95	-4.5	0	2	978.5	NA	0.0000		9999	1740	0	0	0
2019/04/20 04:04:00	BASE	3.10	105	6.43	184	-4.0	95	-4.7	0	2	978.5	NA	0.0000		9999	1710	0	0	0
2019/04/20 04:05:00	BASE	3.30	106	5.56	175	-4.1	95	-4.8	0	0	978.5	NA	0.0000		9999	1610	0	0	0
2019/04/20 04:06:00	BASE	2.93	111	5.04	175	-4.2	95	-4.9	0	0	978.5	NA	0.0000		9999	1610	0	0	0
2019/04/20 04:07:00	BASE	2.18	118	4.42	134	-4.3	95	-5.0	0	2	978.5	NA	0.0000		9999	1570	2850	0	0
2019/04/20 04:08:00	BASE	1.04	128	4.32	94	-4.4	95	-5.0	0	0	978.5	NA	0.0000		9999	1640	2790	0	0
2019/04/20 04:09:00	BASE	0.21	164	4.32	94	-4.4	95	-5.0	0	2	978.5	NA	0.0000		9999	1670	2820	0	0
2019/04/20 04:10:00	BASE	0.14	216	4.17	93	-4.4	96	-4.9	0	2	978.6	NA	0.0000		9999	1510	2850	0	0
2019/04/20 04:11:00	BASE	0.90	212	3.76	100	-4.3	96	-4.8	0	0	978.6	NA	0.0000		9999	1670	2850	0	0
2019/04/20 04:12:00	BASE	2.30	177	3.76	100	-4.2	97	-4.7	0	1	978.6	NA	0.0000		9999	1610	0	0	0
2019/04/20 04:13:00	BASE	3.44	181	6.74	189	-4.2	97	-4.6	0	0	978.6	NA	0.0000		9999	1740	2990	0	0
2019/04/20 04:14:00	BASE	4.77	188	7.05	180	-4.1	97	-4.5	0	0	978.6	NA	0.0000		9999	1640	3020	0	0
2019/04/20 04:15:00	BASE	6.18	191	7.51	196	-4.0	97	-4.4	0	0	978.7	NA	0.0000		9999	1670	0	0	0
2019/04/20 04:16:00	BASE	6.79	188	7.82	179	-3.9	97	-4.3	0	0	978.7	NA	0.0000		9999	1770	2990	0	0
2019/04/20 04:17:00	BASE	7.42	186	9.88	196	-3.9	97	-4.3	0	0	978.7	NA	0.0000		9999	2070	2990	0	0
2019/04/20 04:18:00	BASE	8.26	194	9.88	196	-3.8	97	-4.2	0	0	978.7	NA	0.0000		9999	2990	0	0	0
2019/04/20 04:19:00	BASE	8.12	199	9.88	196	-3.7	97	-4.1	0	0	978.7	NA	0.0000		9999	1540	0	0	0
2019/04/20 04:20:00	BASE	7.19	198	9.88	196	-3.6	97	-4.1	0	0	978.8	NA	0.0000		9999	1540	0	0	0
2019/04/20 04:21:00	BASE	6.57	196	9.88	196	-3.6	97	-4.0	0	0	978.9	NA	0.0000		9999	1440	0	0	0
2019/04/20 04:22:00	BASE	6.82	194	9.88	196	-3.6	97	-4.0	0	0	978.9	NA	0.0000		9999	1410	0	0	0
2019/04/20 04:23:00	BASE	7.64	194	9.88	196	-3.5	97	-3.9	0	0	978.9	NA	0.0000		9999	1540	0	0	0
2019/04/20 04:24:00	BASE	8.36	196	9.88	196	-3.5	97	-3.9	0	0	978.9	NA	0.0000		9999	1610	0	0	0
2019/04/20 04:25:00	BASE	8.41	192	9.88	196	-3.5	97	-3.8	0	0	978.9	NA	0.0000		9999	1540	0	0	0
2019/04/20 04:26:00	BASE	8.15	190	9.88	196	-3.5	98	-3.8	0	0	978.9	NA	0.0000		9999	1570	0	0	0
2019/04/20 04:27:00	BASE	8.22	192	10.49	199	-3.5	98	-3.8	0	0	978.9	NA	0.0000		9999	1510	0	0	0
2019/04/20 04:28:00	BASE	9.48	194	11.83	194	-3.5	98	-3.8	0	0	978.9	NA	0.0000		9999	1640	0	0	0
2019/04/20 04:29:00	BASE	9.70	192	11.83	194	-3.5	98	-3.8	0	0	979.0	NA	0.0000		9999	1570	0	0	0
2019/04/20 04:30:00	BASE	8.68	192	11.83	194	-3.5	98	-3.8	0	0	979.0	NA	0.0000		9999	1540	0	0	0
2019/04/20 04:31:00	BASE	7.82	190	11.83	194	-3.5	98	-3.7	0	0	979.1	NA	0.0000		9999	1480	0	0	0
2019/04/20 04:32:00	BASE	7.36	187	11.83	194	-3.4	98	-3.7	0	0	979.1	NA	0.0000		9999	1440	0	0	0
2019/04/20 04:33:00	BASE	8.38	187	11.83	194	-3.4	98	-3.7	0	0	979.1	NA	0.0000		9999	1440	0	0	0
2019/04/20 04:34:00	BASE	8.92	198	11.83	194	-3.4	98	-3.7	0	0	979.2	NA	0.0000		9999	1510	0	0	0
2019/04/20 04:35:00	BASE	8.57	205	11.83	194	-3.4	98	-3.7	0	0	979.2	NA	0.0000		9999	1540	0	0	0
2019/04/20 04:36:00	BASE	9.81	203	11.83	194	-3.4	98	-3.7	0	0	979.2	NA	0.0000		9999	1480	0	0	0
2019/04/20 04:37:00	BASE	10.65	205	11.83	194	-3.4	98	-3.7	0	0	979.2	NA	0.0000		9999	1510	0	0	0
2019/04/20 04:38:00	BASE	10.17	197	11.73	204	-3.4	98	-3.7	0	0	979.2	NA	0.0000		9999	1540	0	0	0
2019/04/20 04:39:00	BASE	9.67	186	11.73	204	-3.4	98	-3.7	0	0	979.2	NA	0.0000		9999	1440	0	0	0
2019/04/20 04:40:00	BASE	9.12	187	11.73	204	-3.4	98	-3.7	0	0	979.2	NA	0.0000		9999	1510	0	0	0
2019/04/20 04:41:00	BASE	9.68	191	11.73	204	-3.4	97	-3.8	0	0	979.2	NA	0.0000		9999	1480	0	0	0
2019/04/20 04:42:00	BASE	10.38	190	13.27	185	-3.4	97	-3.8	0	0	979.2	NA	0.0000		9999	1570	0	0	0
2019/04/20 04:43:00	BASE	11.24	188	13.27	185	-3.4	97	-3.9	0	0	979.2	NA	0.0000		9999	1510	3610	0	0
2019/04/20 04:44:00	BASE	12.06	192	13.27	185	-3.4	97	-3.8	0	0	979.2	NA	0.0000		9999	1770	3480	0	0
2019/04/20 04:45:00	BASE	11.27	199	13.27	185	-3.4	97	-3.8	0	0	979.3	NA	0.0000		9999	1740	3380	0	0
2019/04/20 04:46:00	BASE	9.56	203	13.27	185	-3.4	97	-3.8	0	0	979.3	NA	0.0000		9999	1670	3450	0	0
2019/04/20 04:47:00	BASE	8.93	202	13.27	185	-3.4	97	-3.8	0	0	979.3	NA	0.0000		9999	1570	0	0	0
2019/04/20 04:48:00	BASE	9.62	193	13.27	185	-3.4	97	-3.8	0	0	979.3	NA	0.0000		9999	1570	0	0	0
2019/04/20 04:49:00	BASE	10.27	188	13.27	185	-3.4	97	-3.8	0	0	979.3	NA	0.0000		9999	1510	0	0	0
2019/04/20 04:50:00	BASE	9.94	192	13.27	185	-3.4	97	-3.8	0	0	979.3	NA	0.0000		9999	1540	0	0	0
2019/04/20 04:51:00	BASE	9.58	192	13.27	185	-3.4	97	-3.8	0	0	979.3	NA	0.0000		9999	1640	0	0	0
2019/04/20 04:52:00	BASE	10.42	188	12.91	192	-3.4	97	-3.8	0	0	979.3	NA	0.0000		9999	1610	0	0	0
2019/04/20 04:53:00	BASE	10.49	186	12.71	191	-3.5	97	-3.9	0	0	979.3	NA	0.0000		9999	1640	0	0	0
2019/04/20 04:54:00	BASE	9.75	189	12.71	191	-3.5	97	-3.9	0	0	979.3	NA	0.0000		9999	1640	3480	0	0
2019/04/20 04:55:00	BASE	9.69	190	12.71	191	-3.5	97	-3.9	0	0	979.4	NA	0.0000		9999	1870	3480	0	0
2019/04/20 04:56:00	BASE	9.93	190	12.71	191	-3.5	97	-3.9	0	0	979.5	NA	0.0000		9999	1740	3540	0	0
2019/04/20 04:57:00	BASE	9.77	191	12.71	191	-3.6	97	-4.0	0	0	979.4	NA	0.0000		9999	1740	3610	0	0
2019/04/20 04:58:00	BASE	10.08	200	12.71	191	-3.6	97	-4.0	0	0	979.5	NA	0.0000		9999	1840	3640	0	0
2019/04/20 04:59:00	BASE	10.64	205	12.71	191	-3.6	97	-4.0	0	0	979.5	NA	0.0000		9999	3640	0	0	0
2019/04/20 05:00:00	BASE	9.86	198	12.71	191	-3.6	97	-4.0	0	0	979.5	NA	0.0000		9999	1670	0	0	0
2019/04/20 05:01:00	BASE	9.07	194	12.71	191	-3.5	97	-4.0	0	0	979.5	NA	0.0000		9999	1640	0	0	0
2019/04/20 05:02:00	BASE	9.90	197	12.50	201	-3.5	96	-4.0	0	0	979.5	NA	0.0000		9999	1640	0	0	0
2019/04/20 05:03:00	BASE	9.37	200	12.50	201	-3.5	96	-4.0	0	0	979.6	NA	0.0000		9999	1670	0	0	0
2019/04/20 05:04:00	BASE	8.45	200	12.50	201	-3.5	96	-4.1	0	0	979.6	NA	0.0000		9999	0	0	0	0
2019/04/20 05:05:00	BASE	9.16	207	12.50	201	-3.5	96	-4.1	0	0	979.6	NA	0.0000		9999	0	0	0	0
2019/04/20 05:06:00	BASE	9.52	209	12.50	201	-3.5	95	-4.1	0	0	979.6	NA	0.0000		9999	0	0	0	0
2019/04/20 05:07:00	BASE	9.50	205	12.50	201	-3.5	95	-4.2	0	0	979.6	NA	0.0000		9999	1940	0	0	0
2019/04/20 05:08:00	BASE	8.70	204	12.50	201	-3.5	95	-4.2	0	0	979.6	NA	0.0000		9999	1770	0	0	0
2019/04/20 05:09:00	BASE	8.39	206	12.50	201	-3.5	95	-4.2	0	0	979.6	NA	0.0000		9999	1800	0	0	0
2019/04/20 05:10:00	BASE	9.58	208	12.71	209	-3.5	95	-4.2	0	0	979.6	NA	0.0000		9999	1740	0	0	0
2019/04/20 05:11:00	BASE	10.14	211	12.71	209	-3.5	94	-4.3	0	0	979.6	NA	0.0000		9999	1800	0	0	0
2019/04/20 05:12:00	BASE	10.29	213	12.71	209	-3.5	94	-4.3	0	0	979.6	NA	0.0000		9999	1670	0	0	0
2019/04/20 05:13:00	BASE	10.65	215	12.71	209	-3.5	94	-4.3	0	0	979.7	NA	0.0000		9999	1640	0	0	0
2019/04/20 05:14:00	BASE	10.24	210	12.71	209	-3.4	94	-4.3	0	0	979.7	NA	0.0000		9999	1670	0	0	0
2019/04/20 05:15:00	BASE	9.76	207	12.71	209	-3.4	93	-4.3	0	0	979.7	NA	0.0000		9999	1670	0	0	0
2019/04/20 05:16:00	BASE	9.33	209	12.71	209	-3.3	93	-4.2	0	0	979.7	NA	0.0000		9999	1670	0	0	0
2019/04/20 05:17:00	BASE	9.95	206	12.71	209	-3.3	93	-4.2	0	0	979.7	NA	0.0000		9999	1640	0	0	0
2019/04/20 05:18:00	BASE	9.38	194	12.71	209	-3.2	94	-4.1	0	0	979.7	NA	0.0000		9999	1770	0	0	0
2019/04/20 05:19:00	BASE	8.15	183	12.71	209	-3.2	94	-4.1	0	0	979.8	NA	0.0000		9999	1740	0	0	0
2019/04/20 05:20:00	BASE	7.97	183	11.88	210	-3.2	94	-4.1	0	0	979.8	NA	0.0000		9999	1770	0	0	0
2019/04/20 05:21:00	BASE	7.42	175	11.88	210	-3.3	94	-4.1	0	0	979.8	NA	0.0000		9999	1770	0	0	0
2019/04/20 05:22:00	BASE	7.16	168	11.88	210	-3.3	94	-4.1	0	0	979.8	NA	0.0000		9999	1800	0	0	0
2019/04/20 05:23:00	BASE	6.65	180	11.88	210	-3.4	94	-4.2	0	0	979.8	NA	0.0000		9999	1740	0	0	0
2019/04/20 05:24:00	BASE	6.47	190	11.88	210	-3.4	94	-4.2	0	0	979.8	NA	0.0000		9999	1740	0	0	0
2019/04/20 05:25:00	BASE	6.64	185	11.88	210	-3.4	94	-4.3	0	0	979.8	NA	0.0000		9999	1710	0	0	0
2019/04/20 05:26:00	BASE	6.54	178	11.88	210	-3.4	93	-4.3	0	0	979.8	NA	0.0000		9999	1670	0	0	0
2019/04/20 05:27:00	BASE	6.31	176	9.62	183	-3.3	93	-4.3	0	0	979.8	NA	0.0000		9999	1670	0	0	0
2019/04/20 05:28:00	BASE	6.48	176	9.62	183	-3.3	93	-4.3	0	0	979.9	NA	0.0000		9999	1740	0	0	0
2019/04/20 05:29:00	BASE	6.69	178	8.75	194	-3.3	93	-4.2	0	0	979.9	NA	0.0000		9999	1710	0	0	0
2019/04/20 05:30:00	BASE	6.31	186	8.18	173	-3.3	94	-4.2	0	0	979.9	NA	0.0000		9999	1610	0	0	0
2019/04/20 05:31:00	BASE	5.92	189	7.97	174	-3.3	94	-4.2	0	0	979.9	NA	0.0000		9999	1640	0	0	0
2019/04/20 05:32:00	BASE	5.36	187	7.82	175	-3.4	94	-4.2	0	0	979.9	NA	0.0000		9999	1640	0	0	0
2019/04/20 05:33:00	BASE	5.84	188	8.08	192	-3.4	94	-4.2	0	0	979.9	NA	0.0000		9999	1670	0	0	0
2019/04/20 05:34:00	BASE	6.62	182	8.08	192	-3.3	94	-4.2	0	0	980.0	NA	0.0000		9999	1710	0	0	0
2019/04/20 05:35:00	BASE	6.81	187	8.95	207	-3.3	94	-4.2	0	0	980.0	NA	0.0000		9999	1740	0	0	0
2019/04/20 05:36:00	BASE	8.23	203	10.34	210	-3.3	94	-4.1	0	0	979.9	NA	0.0000		9999	1670	0	0	0
2019/04/20 05:37:00	BASE	8.66	210	10.34	210	-3.3	94	-4.1	0	0	979.9	NA	0.0000		9999	1640	0	0	0
2019/04/20 05:38:00	BASE	8.25	203	11.37	212	-3.3	95	-4.1	0	0	980.0	NA	0.0000		9999	1640	0	0	0
2019/04/20 05:39:00	BASE	6.97	197	11.37	212	-3.3	95	-4.1	0	0	980.1	NA	0.0000		9999	1670	0	0	0
2019/04/20 05:40:00	BASE	4.75	188	11.37	212	-3.3	95	-4.1	0	0	980.1	NA	0.0000		9999	1710	0	0	0
2019/04/20 05:41:00	BASE	4.26	175	11.37	212	-3.4	94	-4.1	0	0	980.1	NA	0.0000		9999	1740	0	0	0
2019/04/20 05:42:00	BASE	5.19	174	11.37	212	-3.4	94	-4.2	0	0	980.1	NA	0.0000		9999	1740	0	0	0
2019/04/20 05:43:00	BASE	6.13	177	11.37	212	-3.4	94	-4.2	0	0	980.1	NA	0.0000		9999	1770	0	0	0
2019/04/20 05:44:00	BASE	5.96	185	11.37	212	-3.4	94	-4.2	0	0	980.1	NA	0.0000		9999	1770	0	0	0
2019/04/20 05:45:00	BASE	5.80	202	11.37	212	-3.4	94	-4.2	0	0	980.1	NA	0.0000		9999	1770	0	0	0
2019/04/20 05:46:00	BASE	5.98	205	11.37	212	-3.4	94	-4.2	0	0	980.1	NA	0.0000		9999	1800	0	0	0
2019/04/20 05:47:00	BASE	5.28	197	11.37	212	-3.3	94	-4.2	0	0	980.2	NA	0.0000		9999	1840	0	0	0
2019/04/20 05:48:00	BASE	4.36	198	7.77	221	-3.3	94	-4.1	0	0	980.2	NA	0.0000		9999	1870	0	0	0
2019/04/20 05:49:00	BASE	4.71	199	7.77	221	-3.3	94	-4.1	0	0	980.2	NA	0.0000		9999	1800	0	0	0
2019/04/20 05:50:00	BASE	5.79	206	7.77	221	-3.3	94	-4.1	0	0	980.2	NA	0.0000		9999	1840	0	0	0
2019/04/20 05:51:00	BASE	6.29	211	7.77	221	-3.3	94	-4.1	0	0	980.2	NA	0.0000		9999	1740	0	0	0
2019/04/20 05:52:00	BASE	5.77	193	7.77	221	-3.2	94	-4.1	0	0	980.2	NA	0.0000		9999	1770	0	0	0
2019/04/20 05:53:00	BASE	5.60	178	7.77	221	-3.2	94	-4.1	0	0	980.2	NA	0.0000		9999	1740	0	0	0
2019/04/20 05:54:00	BASE	6.16	180	7.92	183	-3.3	94	-4.1	0	0	980.2	NA	0.0000		9999	1770	0	0	0
2019/04/20 05:55:00	BASE	6.35	183	7.92	183	-3.3	94	-4.1	0	0	980.2	NA	0.0000		9999	1740	0	0	0
2019/04/20 05:56:00	BASE	6.24	188	7.92	183	-3.3	94	-4.2	0	0	980.3	NA	0.0000		9999	1740	0	0	0
2019/04/20 05:57:00	BASE	6.60	196	7.92	183	-3.4	94	-4.2	0	0	980.3	NA	0.0000		9999	1770	0	0	0
2019/04/20 05:58:00	BASE	6.83	200	7.92	183	-3.4	94	-4.2	0	0	980.3	NA	0.0000		9999	1740	0	0	0
2019/04/20 05:59:00	BASE	6.28	200	7.92	183	-3.4	94	-4.3	0	0	980.3	NA	0.0000		9999	1740	0	0	0
2019/04/20 06:00:00	BASE	6.48	196	7.92	183	-3.4	94	-4.3	0	0	980.3	NA	0.0000		9999	1710	0	0	0
2019/04/20 06:01:00	BASE	6.55	192	7.92	183	-3.4	93	-4.3	0	0	980.3	NA	0.0000		9999	1740	2260	0	0
2019/04/20 06:02:00	BASE	5.81	187	7.92	183	-3.4	93	-4.4	0	0	980.3	NA	0.0000		9999	2130	0	0	0
2019/04/20 06:03:00	BASE	5.43	181	7.92	183	-3.4	93	-4.4	0	0	980.3	NA	0.0000		9999	2130	0	0	0
2019/04/20 06:04:00	BASE	5.21	186	7.72	207	-3.4	92	-4.5	0	0	980.3	NA	0.0000		9999	2130	0	0	0
2019/04/20 06:05:00	BASE	4.57	191	7.72	207	-3.4	92	-4.5	0	0	980.4	NA	0.0000		9999	2070	0	0	0
2019/04/20 06:06:00	BASE	4.64	192	7.72	207	-3.5	92	-4.6	0	0	980.4	NA	0.0000		9999	2070	0	0	0
2019/04/20 06:07:00	BASE	5.50	195	7.61	193	-3.5	92	-4.6	0	0	980.4	NA	0.0000		9999	2000	0	0	0
2019/04/20 06:08:00	BASE	5.87	196	7.61	193	-3.4	92	-4.6	0	0	980.4	NA	0.0000		9999	2000	0	0	0
2019/04/20 06:09:00	BASE	5.40	195	7.61	193	-3.4	92	-4.6	0	0	980.4	NA	0.0000		9999	1940	0	0	0
2019/04/20 06:10:00	BASE	4.47	194	7.51	188	-3.4	92	-4.6	0	0	980.4	NA	0.0000		9999	1940	0	0	0
2019/04/20 06:11:00	BASE	3.60	193	6.74	185	-3.4	91	-4.6	0	0	980.4	NA	0.0000		9999	1900	0	0	0
2019/04/20 06:12:00	BASE	2.98	205	6.74	185	-3.4	91	-4.7	0	0	980.4	NA	0.0000		9999	1870	0	0	0
2019/04/20 06:13:00	BASE	3.10	216	6.74	185	-3.4	91	-4.7	0	0	980.4	NA	0.0000		9999	1900	0	0	0
2019/04/20 06:14:00	BASE	3.64	211	6.74	185	-3.4	90	-4.7	0	0	980.4	NA	0.0000		9999	1840	0	0	0
2019/04/20 06:15:00	BASE	3.34	216	6.74	185	-3.4	90	-4.7	0	0	980.4	NA	0.0000		9999	1870	0	0	0
2019/04/20 06:16:00	BASE	2.68	224	6.48	196	-3.3	90	-4.8	0	0	980.4	NA	0.0000		9999	1800	0	0	0
2019/04/20 06:17:00	BASE	3.01	221	6.33	193	-3.3	90	-4.8	0	0	980.4	NA	0.0000		9999	1800	0	0	0
2019/04/20 06:18:00	BASE	3.49	210	5.20	190	-3.3	89	-4.8	0	0	980.4	NA	0.0000		9999	1710	0	0	0
2019/04/20 06:19:00	BASE	3.35	198	4.63	198	-3.3	89	-4.8	0	0	980.5	NA	0.0000		9999	1740	0	0	0
2019/04/20 06:20:00	BASE	3.26	163	4.32	191	-3.3	89	-4.8	0	0	980.6	NA	0.0000		9999	1800	0	0	0
2019/04/20 06:21:00	BASE	3.16	142	4.32	191	-3.3	89	-4.8	0	0	980.6	NA	0.0000		9999	1840	0	0	0
2019/04/20 06:22:00	BASE	3.20	146	4.32	191	-3.3	89	-4.8	0	0	980.6	NA	0.0000		9999	1800	0	0	0
2019/04/20 06:23:00	BASE	3.64	151	4.42	166	-3.3	89	-4.8	0	0	980.6	NA	0.0000		9999	1840	0	0	0
2019/04/20 06:24:00	BASE	3.85	159	4.68	146	-3.3	90	-4.8	0	0	980.7	NA	0.0000		9999	1800	0	0	0
2019/04/20 06:25:00	BASE	3.42	162	4.68	146	-3.4	90	-4.8	0	0	980.7	NA	0.0000		9999	1840	0	0	0
2019/04/20 06:26:00	BASE	2.50	173	4.68	146	-3.4	90	-4.7	0	0	980.7	NA	0.0000		9999	1770	0	0	0
2019/04/20 06:27:00	BASE	1.84	182	4.68	146	-3.4	91	-4.7	0	0	980.7	NA	0.0000		9999	1770	0	0	0
2019/04/20 06:28:00	BASE	1.50	188	4.68	146	-3.4	91	-4.7	0	0	980.8	NA	0.0000		9999	1840	0	0	0
2019/04/20 06:29:00	BASE	0.85	191	4.68	146	-3.5	92	-4.6	0	0	980.8	NA	0.0000		9999	1800	0	0	0
2019/04/20 06:30:00	BASE	0.97	198	4.68	146	-3.5	92	-4.6	0	0	980.8	NA	0.0000		9999	1870	0	0	0
2019/04/20 06:31:00	BASE	2.33	204	4.68	146	-3.5	92	-4.6	0	0	980.8	NA	0.0000		9999	1840	0	0	0
2019/04/20 06:32:00	BASE	3.09	201	4.68	146	-3.4	92	-4.5	0	0	980.8	NA	0.0000		9999	1840	0	0	0
2019/04/20 06:33:00	BASE	2.78	191	4.68	146	-3.4	92	-4.5	0	0	980.8	NA	0.0000		9999	1840	0	0	0
2019/04/20 06:34:00	BASE	2.06	178	3.65	193	-3.4	92	-4.5	0	0	980.8	NA	0.0000		9999	1800	0	0	0
2019/04/20 06:35:00	BASE	1.56	169	3.65	193	-3.3	92	-4.5	0	0	980.9	NA	0.0000		9999	1770	0	0	0
2019/04/20 06:36:00	BASE	1.58	168	3.65	193	-3.3	91	-4.5	0	0	980.9	NA	0.0000		9999	1800	0	0	0
2019/04/20 06:37:00	BASE	1.63	159	3.65	193	-3.3	91	-4.5	0	0	980.9	NA	0.0000		9999	1800	0	0	0
2019/04/20 06:38:00	BASE	1.89	139	3.65	193	-3.3	91	-4.6	0	0	980.9	NA	0.0000		9999	1800	0	0	0
2019/04/20 06:39:00	BASE	2.24	119	3.65	193	-3.3	91	-4.6	0	0	980.9	NA	0.0000		9999	1770	0	0	0
2019/04/20 06:40:00	BASE	2.05	116	3.65	193	-3.4	91	-4.6	0	0	980.9	NA	0.0000		9999	1840	0	0	0
2019/04/20 06:41:00	BASE	1.80	117	3.40	196	-3.4	91	-4.6	0	0	980.9	NA	0.0000		9999	1800	0	0	0
2019/04/20 06:42:00	BASE	1.88	113	3.14	190	-3.4	91	-4.7	0	0	980.9	NA	0.0000		9999	1800	0	0	0
2019/04/20 06:43:00	BASE	2.02	115	2.68	121	-3.5	91	-4.7	0	0	980.9	NA	0.0000		9999	1800	0	0	0
2019/04/20 06:44:00	BASE	2.59	122	4.01	124	-3.5	91	-4.7	0	0	980.9	NA	0.0000		9999	1800	0	0	0
2019/04/20 06:45:00	BASE	3.19	128	4.01	124	-3.5	91	-4.8	0	0	980.9	NA	0.0000		9999	1800	0	0	0
2019/04/20 06:46:00	BASE	3.27	123	4.12	107	-3.5	91	-4.8	0	0	980.9	NA	0.0000		9999	1840	0	0	0
2019/04/20 06:47:00	BASE	3.16	120	4.12	107	-3.5	91	-4.8	0	0	980.9	NA	0.0000		9999	1840	0	0	0
2019/04/20 06:48:00	BASE	3.01	122	4.12	107	-3.5	91	-4.8	0	0	980.9	NA	0.0000		9999	1840	0	0	0
2019/04/20 06:49:00	BASE	3.20	117	4.12	107	-3.5	91	-4.8	0	0	980.9	NA	0.0000		9999	1800	0	0	0
2019/04/20 06:50:00	BASE	3.29	114	4.12	107	-3.5	91	-4.8	0	0	980.9	NA	0.0000		9999	1870	0	0	0
2019/04/20 06:51:00	BASE	3.11	118	4.27	133	-3.5	91	-4.8	0	0	980.9	NA	0.0000		9999	1840	0	0	0
2019/04/20 06:52:00	BASE	3.58	125	4.32	127	-3.5	91	-4.8	0	0	980.9	NA	0.0000		9999	1900	0	0	0
2019/04/20 06:53:00	BASE	3.69	134	4.32	127	-3.5	91	-4.8	0	0	981.0	NA	0.0000		9999	1900	0	0	0
2019/04/20 06:54:00	BASE	3.27	139	4.32	127	-3.5	91	-4.8	0	0	981.0	NA	0.0000		9999	1900	0	0	0
2019/04/20 06:55:00	BASE	3.27	138	4.32	127	-3.5	91	-4.8	0	0	981.0	NA	0.0000		9999	1900	0	0	0
2019/04/20 06:56:00	BASE	2.83	133	4.32	127	-3.5	91	-4.8	0	0	981.0	NA	0.0000		9999	1870	0	0	0
2019/04/20 06:57:00	BASE	2.26	134	4.32	127	-3.5	91	-4.8	0	0	981.0	NA	0.0000		9999	1870	0	0	0
2019/04/20 06:58:00	BASE	2.07	135	4.32	127	-3.5	91	-4.8	0	0	981.0	NA	0.0000		9999	1870	0	0	0
2019/04/20 06:59:00	BASE	1.87	133	4.32	127	-3.5	91	-4.8	0	0	981.0	NA	0.0000		9999	1840	0	0	0
2019/04/20 07:00:00	BASE	1.61	140	4.32	127	-3.5	91	-4.8	0	0	981.0	NA	0.0000		9999	1870	0	0	0
2019/04/20 07:01:00	BASE	1.13	139	4.32	127	-3.5	91	-4.8	0	0	981.0	NA	0.0000		9999	1840	0	0	0
2019/04/20 07:02:00	BASE	0.99	135	3.96	129	-3.5	91	-4.8	0	0	981.0	NA	0.0000		9999	1870	0	0	0
2019/04/20 07:03:00	BASE	0.74	132	3.96	129	-3.5	91	-4.8	0	0	981.0	NA	0.0000		9999	1900	0	0	0
2019/04/20 07:04:00	BASE	0.14	117	3.86	135	-3.5	91	-4.8	0	0	981.0	NA	0.0000		9999	1870	0	0	0
2019/04/20 07:05:00	BASE	0.00	90	2.68	131	-3.4	91	-4.7	0	0	981.0	NA	0.0000		9999	1840	0	0	0
2019/04/20 07:06:00	BASE	0.00	65	2.42	132	-3.4	91	-4.7	0	0	981.1	NA	0.0000		9999	1870	0	0	0
2019/04/20 07:07:00	BASE	0.14	50	2.31	137	-3.3	90	-4.7	0	0	981.2	NA	0.0000		9999	1840	0	0	0
2019/04/20 07:08:00	BASE	0.78	39	2.11	130	-3.3	90	-4.7	0	0	981.2	NA	0.0000		9999	1870	0	0	0
2019/04/20 07:09:00	BASE	1.26	36	1.70	143	-3.3	89	-4.8	0	0	981.2	NA	0.0000		9999	1840	0	0	0
2019/04/20 07:10:00	BASE	0.66	40	1.70	143	-3.4	89	-4.9	0	0	981.2	NA	0.0000		9999	1840	0	0	0
2019/04/20 07:11:00	BASE	0.04	43	1.70	143	-3.4	89	-5.0	0	0	981.2	NA	0.0000		9999	1900	0	0	0
2019/04/20 07:12:00	BASE	0.00	32	1.44	47	-3.5	89	-5.0	0	0	981.2	NA	0.0000		9999	1870	0	0	0
2019/04/20 07:13:00	BASE	0.00	353	1.44	47	-3.5	89	-5.0	0	0	981.2	NA	0.0000		9999	1900	0	0	0
2019/04/20 07:14:00	BASE	0.34	310	1.44	47	-3.5	89	-5.0	0	0	981.2	NA	0.0000		9999	2030	0	0	0
2019/04/20 07:15:00	BASE	1.32	272	2.98	236	-3.5	89	-5.1	0	0	981.2	NA	0.0000		9999	2000	0	0	0
2019/04/20 07:16:01	BASE	2.36	248	4.06	263	-3.4	89	-5.1	0	0	981.3	NA	0.0000		9999	2000	0	0	0
2019/04/20 07:17:00	BASE	2.88	260	4.06	263	-3.4	89	-5.0	0	0	981.3	NA	0.0000		9999	2030	0	0	0
2019/04/20 07:18:00	BASE	2.71	270	4.06	263	-3.4	89	-5.0	0	0	981.4	NA	0.0000		9999	2000	0	0	0
2019/04/20 07:19:00	BASE	2.73	274	4.37	288	-3.4	89	-5.0	0	0	981.4	NA	0.0000		9999	2030	0	0	0
2019/04/20 07:20:00	BASE	3.33	276	4.48	277	-3.4	89	-5.0	0	0	981.4	NA	0.0000		9999	2030	0	0	0
2019/04/20 07:21:00	BASE	3.19	276	4.48	277	-3.3	88	-5.0	0	0	981.4	NA	0.0000		9999	2030	0	0	0
2019/04/20 07:22:00	BASE	2.52	275	4.48	277	-3.3	88	-5.0	0	0	981.5	NA	0.0000		9999	2030	0	0	0
2019/04/20 07:23:00	BASE	2.65	260	4.48	277	-3.3	87	-5.1	0	0	981.5	NA	0.0000		9999	2030	0	0	0
2019/04/20 07:24:00	BASE	3.65	229	4.99	217	-3.2	87	-5.1	0	0	981.5	NA	0.0000		9999	1940	0	0	0
2019/04/20 07:25:00	BASE	4.30	207	5.09	210	-3.2	87	-5.1	0	0	981.5	NA	0.0000		9999	1840	0	0	0
2019/04/20 07:26:00	BASE	4.13	209	7.05	211	-3.2	86	-5.2	0	0	981.5	NA	0.0000		9999	1870	0	0	0
2019/04/20 07:27:00	BASE	3.26	212	7.05	211	-3.2	86	-5.2	0	0	981.5	NA	0.0000		9999	1900	0	0	0
2019/04/20 07:28:00	BASE	3.43	209	7.05	211	-3.2	86	-5.2	0	0	981.5	NA	0.0000		9999	1900	0	0	0
2019/04/20 07:29:00	BASE	4.49	197	7.05	211	-3.2	86	-5.2	0	0	981.6	NA	0.0000		9999	2000	0	0	0
2019/04/20 07:30:00	BASE	4.57	184	7.05	211	-3.2	86	-5.2	0	0	981.6	NA	0.0000		9999	1970	0	0	0
2019/04/20 07:31:00	BASE	4.12	182	7.05	211	-3.2	86	-5.2	0	0	981.6	NA	0.0000		9999	2000	0	0	0
2019/04/20 07:32:00	BASE	3.84	178	7.05	211	-3.2	86	-5.2	0	0	981.6	NA	0.0000		9999	1970	0	0	0
2019/04/20 07:33:00	BASE	3.44	177	7.05	211	-3.2	86	-5.2	0	0	981.6	NA	0.0000		9999	1940	0	0	0
2019/04/20 07:34:00	BASE	2.41	172	7.05	211	-3.2	86	-5.2	0	0	981.6	NA	0.0000		9999	2000	0	0	0
2019/04/20 07:35:00	BASE	2.22	168	7.05	211	-3.2	86	-5.2	0	0	981.6	NA	0.0000		9999	1970	0	0	0
2019/04/20 07:36:00	BASE	2.88	174	5.61	209	-3.2	86	-5.3	0	0	981.6	NA	0.0000		9999	2070	0	0	0
2019/04/20 07:37:00	BASE	3.25	177	5.61	209	-3.2	85	-5.3	0	0	981.6	NA	0.0000		9999	2070	0	0	0
2019/04/20 07:38:00	BASE	3.40	183	5.56	184	-3.2	85	-5.4	0	0	981.6	NA	0.0000		9999	2030	0	0	0
2019/04/20 07:39:00	BASE	3.08	193	5.56	184	-3.2	85	-5.4	0	0	981.7	NA	0.0000		9999	2030	0	0	0
2019/04/20 07:40:00	BASE	2.37	196	5.45	186	-3.2	85	-5.4	0	0	981.7	NA	0.0000		9999	2030	0	0	0
2019/04/20 07:41:00	BASE	1.87	189	4.32	175	-3.2	85	-5.4	0	0	981.7	NA	0.0000		9999	2030	0	0	0
2019/04/20 07:42:00	BASE	1.50	176	4.32	175	-3.2	85	-5.4	0	0	981.7	NA	0.0000		9999	2000	0	0	0
2019/04/20 07:43:00	BASE	1.24	178	4.32	175	-3.2	85	-5.4	0	0	981.8	NA	0.0000		9999	2030	0	0	0
2019/04/20 07:44:00	BASE	1.24	194	4.32	175	-3.1	84	-5.4	0	0	981.8	NA	0.0000		9999	2000	0	0	0
2019/04/20 07:45:00	BASE	0.64	202	4.32	175	-3.1	84	-5.4	0	0	981.8	NA	0.0000		9999	2030	0	0	0
2019/04/20 07:46:00	BASE	0.00	212	4.32	175	-3.1	84	-5.4	0	0	981.8	NA	0.0000		9999	2030	0	0	0
2019/04/20 07:47:00	BASE	0.47	215	3.96	189	-3.1	84	-5.4	0	0	981.8	NA	0.0000		9999	2030	0	0	0
2019/04/20 07:48:00	BASE	0.57	202	2.98	203	-3.1	84	-5.4	0	0	981.8	NA	0.0000		9999	2030	0	0	0
2019/04/20 07:49:00	BASE	0.09	201	2.73	185	-3.1	84	-5.4	0	0	981.8	NA	0.0000		9999	2070	0	0	0
2019/04/20 07:50:00	BASE	0.00	198	2.26	179	-3.1	84	-5.4	0	0	981.8	NA	0.0000		9999	2000	0	0	0
2019/04/20 07:51:00	BASE	0.00	192	1.70	196	-3.1	84	-5.4	0	0	981.9	NA	0.0000		9999	2030	0	0	0
2019/04/20 07:52:00	BASE	0.00	191	1.70	196	-3.0	84	-5.4	0	0	982.0	NA	0.0000		9999	2030	0	0	0
2019/04/20 07:53:00	BASE	0.00	185	1.70	196	-3.0	84	-5.4	0	0	982.0	NA	0.0000		9999	2030	0	0	0
2019/04/20 07:54:00	BASE	0.00	155	1.39	198	-3.0	84	-5.4	0	0	982.0	NA	0.0000		9999	2000	0	0	0
2019/04/20 07:55:00	BASE	0.00	115	1.39	198	-3.1	84	-5.4	0	0	982.0	NA	0.0000		9999	2000	0	0	0
2019/04/20 07:56:00	BASE	0.00	77	1.39	198	-3.1	84	-5.4	0	0	982.0	NA	0.0000		9999	1970	0	0	0
2019/04/20 07:57:00	BASE	0.27	55	1.18	46	-3.1	84	-5.4	0	0	982.0	NA	0.0000		9999	2030	0	0	0
2019/04/20 07:58:00	BASE	0.90	48	1.29	44	-3.1	84	-5.4	0	0	982.0	NA	0.0000		9999	2030	0	0	0
2019/04/20 07:59:00	BASE	1.24	42	1.39	38	-3.1	84	-5.4	0	0	982.0	NA	0.0000		9999	2030	0	0	0
2019/04/20 08:00:00	BASE	1.39	40	1.70	44	-3.1	84	-5.5	0	0	982.0	NA	0.0000		9999	2070	0	0	0
2019/04/20 08:01:00	BASE	1.67	39	1.95	38	-3.2	84	-5.5	0	0	982.0	NA	0.0000		9999	2070	0	0	0
2019/04/20 08:02:00	BASE	1.86	41	2.06	50	-3.2	84	-5.5	0	0	982.0	NA	0.0000		9999	1970	0	0	0
2019/04/20 08:03:00	BASE	1.94	46	2.21	46	-3.2	84	-5.5	0	0	982.0	NA	0.0000		9999	1970	0	0	0
2019/04/20 08:04:00	BASE	1.58	48	2.21	46	-3.2	84	-5.4	0	0	982.0	NA	0.0000		9999	1970	0	0	0
2019/04/20 08:05:00	BASE	1.31	47	2.21	46	-3.2	85	-5.4	0	0	982.0	NA	0.0000		9999	2030	0	0	0
2019/04/20 08:06:00	BASE	1.50	38	2.21	46	-3.2	85	-5.4	0	0	982.1	NA	0.0000		9999	2030	0	0	0
2019/04/20 08:07:00	BASE	1.65	27	2.21	46	-3.2	85	-5.4	0	0	982.1	NA	0.0000		9999	2030	0	0	0
2019/04/20 08:08:00	BASE	1.16	21	2.21	46	-3.1	85	-5.4	0	0	982.1	NA	0.0000		9999	2030	0	0	0
2019/04/20 08:09:00	BASE	0.60	23	2.21	46	-3.1	84	-5.4	0	0	982.1	NA	0.0000		9999	2000	0	0	0
2019/04/20 08:10:00	BASE	0.31	29	2.21	46	-3.1	84	-5.4	0	0	982.1	NA	0.0000		9999	2000	0	0	0
2019/04/20 08:11:00	BASE	0.00	21	2.21	46	-3.1	84	-5.4	0	0	982.2	NA	0.0000		9999	2000	0	0	0
2019/04/20 08:12:00	BASE	0.00	2	2.21	46	-3.1	84	-5.4	0	0	982.2	NA	0.0000		9999	2000	0	0	0
2019/04/20 08:13:00	BASE	0.00	3	1.95	48	-3.1	84	-5.4	0	0	982.2	NA	0.0000		9999	1970	0	0	0
2019/04/20 08:14:00	BASE	0.00	34	1.85	24	-3.1	84	-5.4	0	0	982.2	NA	0.0000		9999	2070	0	0	0
2019/04/20 08:15:00	BASE	0.05	52	1.85	24	-3.1	85	-5.3	0	0	982.2	NA	0.0000		9999	2430	0	0	0
2019/04/20 08:16:00	BASE	1.05	60	2.31	71	-3.1	85	-5.3	0	0	982.2	NA	0.0000		9999	2460	0	0	0
2019/04/20 08:17:00	BASE	2.20	70	2.68	76	-3.1	85	-5.3	0	0	982.2	NA	0.0000		9999	2400	0	0	0
2019/04/20 08:18:00	BASE	2.52	69	2.78	65	-3.2	85	-5.3	0	0	982.2	NA	0.0000		9999	2330	0	0	0
2019/04/20 08:19:00	BASE	2.90	70	3.81	73	-3.2	85	-5.3	0	0	982.2	NA	0.0000		9999	2260	0	0	0
2019/04/20 08:20:00	BASE	3.34	67	3.81	60	-3.2	86	-5.2	0	0	982.2	NA	0.0000		9999	2170	0	0	0
2019/04/20 08:21:00	BASE	3.62	65	3.96	73	-3.2	86	-5.2	0	0	982.2	NA	0.0000		9999	2200	0	0	0
2019/04/20 08:22:00	BASE	3.68	63	4.06	62	-3.2	87	-5.1	0	0	982.2	NA	0.0000		9999	2200	0	0	0
2019/04/20 08:23:00	BASE	3.53	59	4.06	62	-3.2	87	-5.1	0	0	982.2	NA	0.0000		9999	2200	0	0	0
2019/04/20 08:24:00	BASE	3.31	64	4.06	62	-3.3	88	-5.0	0	0	982.2	NA	0.0000		9999	2170	0	0	0
2019/04/20 08:25:00	BASE	3.13	65	4.06	62	-3.3	88	-5.0	0	0	982.3	NA	0.0000		9999	2100	0	0	0
2019/04/20 08:26:00	BASE	3.00	67	4.06	62	-3.3	89	-4.9	0	0	982.3	NA	0.0000		9999	2170	0	0	0
2019/04/20 08:27:00	BASE	2.81	80	4.06	62	-3.3	89	-4.9	0	0	982.3	NA	0.0000		9999	2170	0	0	0
2019/04/20 08:28:00	BASE	2.53	88	4.06	62	-3.4	89	-4.9	0	0	982.3	NA	0.0000		9999	2170	0	0	0
2019/04/20 08:29:00	BASE	2.35	95	4.06	62	-3.4	90	-4.9	0	0	982.3	NA	0.0000		9999	2130	0	0	0
2019/04/20 08:30:00	BASE	2.37	103	4.06	62	-3.4	90	-4.8	0	0	982.4	NA	0.0000		9999	2100	0	0	0
2019/04/20 08:31:00	BASE	2.45	103	4.06	62	-3.5	90	-4.8	0	0	982.4	NA	0.0000		9999	2030	0	0	0
2019/04/20 08:32:00	BASE	2.39	101	3.76	53	-3.5	91	-4.8	0	0	982.4	NA	0.0000		9999	2000	0	0	0
2019/04/20 08:33:00	BASE	2.08	103	3.34	65	-3.6	91	-4.8	0	0	982.4	NA	0.0000		9999	2170	0	0	0
2019/04/20 08:34:00	BASE	1.95	102	3.24	79	-3.6	92	-4.7	0	0	982.4	NA	0.0000		9999	2130	0	0	0
2019/04/20 08:35:00	BASE	1.82	95	3.24	79	-3.6	92	-4.7	0	0	982.4	NA	0.0000		9999	2070	0	0	0
2019/04/20 08:36:00	BASE	1.39	88	2.98	92	-3.5	92	-4.6	0	0	982.4	NA	0.0000		9999	2000	0	0	0
2019/04/20 08:37:00	BASE	0.59	95	2.78	108	-3.5	92	-4.6	0	0	982.4	NA	0.0000		9999	1940	0	0	0
2019/04/20 08:38:00	BASE	0.48	110	2.78	108	-3.4	92	-4.5	0	0	982.4	NA	0.0000		9999	2260	0	0	0
2019/04/20 08:39:00	BASE	1.34	115	2.78	108	-3.4	92	-4.6	0	0	982.4	NA	0.0000		9999	2330	0	0	0
2019/04/20 08:40:00	BASE	1.52	115	2.78	108	-3.4	92	-4.6	0	0	982.5	NA	0.0000		9999	2360	0	0	0
2019/04/20 08:41:00	BASE	1.62	107	2.68	96	-3.4	91	-4.6	0	0	982.6	NA	0.0000		9999	2260	0	0	0
2019/04/20 08:42:00	BASE	2.05	96	2.42	104	-3.3	91	-4.6	0	0	982.6	NA	0.0000		9999	2170	0	0	0
2019/04/20 08:43:00	BASE	2.48	92	3.09	90	-3.3	91	-4.6	0	0	982.6	NA	0.0000		9999	2260	0	0	0
2019/04/20 08:44:00	BASE	3.01	95	3.60	99	-3.3	91	-4.6	0	0	982.6	NA	0.0000		9999	2200	0	0	0
2019/04/20 08:45:00	BASE	3.19	96	3.70	87	-3.3	90	-4.7	0	0	982.6	NA	0.0000		9999	2130	0	0	0
2019/04/20 08:46:00	BASE	2.97	94	3.70	87	-3.3	90	-4.7	0	0	982.6	NA	0.0000		9999	2070	0	0	0
2019/04/20 08:47:00	BASE	2.96	89	3.70	87	-3.3	90	-4.7	0	0	982.6	NA	0.0000		9999	2360	0	0	0
2019/04/20 08:48:00	BASE	2.81	87	3.70	87	-3.3	90	-4.7	0	0	982.6	NA	0.0000		9999	2360	0	0	0
2019/04/20 08:49:00	BASE	2.51	94	3.70	87	-3.3	90	-4.7	0	0	982.6	NA	0.0000		9999	2330	0	0	0
2019/04/20 08:50:00	BASE	2.21	89	3.70	87	-3.3	90	-4.7	0	0	982.7	NA	0.0000		9999	2170	0	0	0
2019/04/20 08:51:00	BASE	1.74	82	3.70	87	-3.3	90	-4.7	0	0	982.7	NA	0.0000		9999	2170	0	0	0
2019/04/20 08:52:00	BASE	1.62	94	3.70	87	-3.3	90	-4.7	0	0	982.7	NA	0.0000		9999	2170	0	0	0
2019/04/20 08:53:00	BASE	1.54	105	3.70	87	-3.3	90	-4.7	0	0	982.7	NA	0.0000		9999	2170	0	0	0
2019/04/20 08:54:00	BASE	1.07	109	3.70	87	-3.2	89	-4.7	0	0	982.7	NA	0.0000		9999	2230	0	0	0
2019/04/20 08:55:00	BASE	0.64	102	3.50	86	-3.2	89	-4.8	0	0	982.7	NA	0.0000		9999	2230	0	0	0
2019/04/20 08:56:00	BASE	1.24	86	3.50	86	-3.2	88	-4.8	0	0	982.7	NA	0.0000		9999	2200	0	0	0
2019/04/20 08:57:00	BASE	1.86	71	3.34	79	-3.2	88	-4.9	0	0	982.7	NA	0.0000		9999	2230	0	0	0
2019/04/20 08:58:00	BASE	1.81	66	3.24	101	-3.2	87	-5.0	0	0	982.7	NA	0.0000		9999	2230	0	0	0
2019/04/20 08:59:00	BASE	1.93	72	2.93	86	-3.2	87	-5.0	0	0	982.7	NA	0.0000		9999	2230	0	0	0
2019/04/20 09:00:01	BASE	2.19	75	2.42	72	-3.2	87	-5.0	0	0	982.7	NA	0.0000		9999	2200	0	0	0
2019/04/20 09:01:01	BASE	2.36	72	2.68	72	-3.3	87	-5.0	0	0	982.7	NA	0.0000		9999	2130	0	0	0
2019/04/20 09:02:01	BASE	2.35	71	2.68	72	-3.3	88	-5.0	0	0	982.7	NA	0.0000		9999	2360	0	0	0
2019/04/20 09:03:01	BASE	2.42	70	2.73	69	-3.3	88	-5.0	0	0	982.7	NA	0.0000		9999	2360	0	0	0
2019/04/20 09:04:01	BASE	2.63	67	2.93	68	-3.2	88	-4.9	0	0	982.7	NA	0.0000		9999	2330	0	0	0
2019/04/20 09:05:01	BASE	2.98	66	3.76	70	-3.2	88	-4.9	0	0	982.8	NA	0.0000		9999	2330	0	0	0
2019/04/20 09:06:01	BASE	3.17	65	3.76	70	-3.2	88	-4.9	0	0	982.8	NA	0.0000		9999	2260	0	0	0
2019/04/20 09:07:01	BASE	3.23	65	3.76	70	-3.2	88	-4.9	0	0	982.8	NA	0.0000		9999	2260	0	0	0
2019/04/20 09:08:01	BASE	3.22	68	3.76	70	-3.2	88	-4.9	0	0	982.8	NA	0.0000		9999	2230	0	0	0
2019/04/20 09:09:01	BASE	3.08	67	3.76	70	-3.2	88	-4.9	0	0	982.9	NA	0.0000		9999	2130	0	0	0
2019/04/20 09:10:01	BASE	2.94	65	3.76	70	-3.2	88	-4.9	0	0	982.9	NA	0.0000		9999	2360	0	0	0
2019/04/20 09:11:01	BASE	2.89	66	3.76	70	-3.2	88	-4.9	0	0	982.9	NA	0.0000		9999	2360	0	0	0
2019/04/20 09:12:01	BASE	2.97	71	3.76	70	-3.2	88	-4.9	0	0	982.9	NA	0.0000		9999	2200	0	0	0
2019/04/20 09:13:01	BASE	2.73	70	3.76	70	-3.2	88	-4.9	0	0	982.9	NA	0.0000		9999	2200	0	0	0
2019/04/20 09:14:01	BASE	2.66	62	3.76	70	-3.2	88	-4.9	0	0	982.9	NA	0.0000		9999	2360	0	0	0
2019/04/20 09:15:01	BASE	2.84	56	3.50	62	-3.1	88	-4.9	0	0	982.9	NA	0.0000		9999	2430	0	0	0
2019/04/20 09:16:01	BASE	2.97	55	3.45	70	-3.1	88	-4.9	0	0	982.9	NA	0.0000		9999	2490	0	0	0
2019/04/20 09:17:01	BASE	2.90	55	3.45	70	-3.1	87	-4.9	0	0	982.9	NA	0.0000		9999	2330	0	0	0
2019/04/20 09:18:01	BASE	2.84	56	3.45	70	-3.0	87	-4.9	0	0	982.9	NA	0.0000		9999	2330	0	0	0
2019/04/20 09:19:01	BASE	3.13	55	3.50	56	-3.0	87	-4.9	0	0	982.9	NA	0.0000		9999	2260	0	0	0
2019/04/20 09:20:01	BASE	3.15	54	3.50	56	-3.0	87	-4.9	0	0	982.9	NA	0.0000		9999	2360	0	0	0
2019/04/20 09:21:01	BASE	3.18	57	3.50	53	-3.0	87	-4.9	0	0	982.9	NA	0.0000		9999	2330	0	0	0
2019/04/20 09:22:01	BASE	3.20	57	3.50	53	-3.0	87	-4.9	0	0	982.9	NA	0.0000		9999	2300	0	0	0
2019/04/20 09:23:01	BASE	3.13	53	3.50	53	-3.0	87	-4.8	0	0	982.9	NA	0.0000		9999	2300	0	0	0
2019/04/20 09:24:01	BASE	3.33	50	3.81	49	-3.0	87	-4.8	0	0	982.9	NA	0.0000		9999	2230	0	0	0
2019/04/20 09:25:01	BASE	3.59	47	3.91	44	-3.0	88	-4.8	0	0	982.9	NA	0.0000		9999	2260	0	0	0
2019/04/20 09:26:01	BASE	3.54	45	3.91	44	-3.0	88	-4.7	0	0	982.9	NA	0.0000		9999	2260	0	0	0
2019/04/20 09:27:01	BASE	3.30	50	3.91	44	-3.0	88	-4.7	0	0	982.9	NA	0.0000		9999	2300	0	0	0
2019/04/20 09:28:01	BASE	3.33	50	3.91	44	-3.0	88	-4.7	0	0	982.9	NA	0.0000		9999	2230	0	0	0
2019/04/20 09:29:01	BASE	3.36	41	3.91	44	-3.0	88	-4.6	0	0	983.0	NA	0.0000		9999	2200	0	0	0
2019/04/20 09:30:01	BASE	3.13	39	3.91	44	-3.0	89	-4.6	0	0	983.1	NA	0.0000		9999	2170	0	0	0
2019/04/20 09:31:01	BASE	3.06	38	3.91	44	-3.0	89	-4.6	0	0	983.1	NA	0.0000		9999	2100	0	0	0
2019/04/20 09:32:01	BASE	3.12	34	3.91	44	-3.0	89	-4.5	0	0	983.1	NA	0.0000		9999	2070	0	0	0
2019/04/20 09:33:01	BASE	3.37	33	4.06	30	-3.0	90	-4.5	0	0	983.1	NA	0.0000		9999	2000	0	0	0
2019/04/20 09:34:01	BASE	3.43	34	4.06	30	-3.0	90	-4.5	0	0	983.1	NA	0.0000		9999	2030	0	0	0
2019/04/20 09:35:01	BASE	3.15	37	4.06	30	-3.0	90	-4.4	0	0	983.1	NA	0.0000		9999	2070	0	0	0
2019/04/20 09:36:01	BASE	3.51	38	4.27	40	-3.0	90	-4.4	0	0	983.1	NA	0.0000		9999	2100	0	0	0
2019/04/20 09:37:01	BASE	3.87	36	4.32	28	-2.9	89	-4.4	0	0	983.1	NA	0.0000		9999	2130	0	0	0
2019/04/20 09:38:01	BASE	3.56	35	4.32	28	-2.9	89	-4.4	0	0	983.1	NA	0.0000		9999	2130	0	0	0
2019/04/20 09:39:01	BASE	2.98	36	4.32	28	-2.9	89	-4.5	0	0	983.1	NA	0.0000		9999	2100	0	0	0
2019/04/20 09:40:01	BASE	2.01	30	4.32	28	-2.9	89	-4.5	0	0	983.2	NA	0.0000		9999	2070	0	0	0
2019/04/20 09:41:01	BASE	1.72	359	4.32	28	-2.9	89	-4.5	0	0	983.2	NA	0.0000		9999	2430	0	0	0
2019/04/20 09:42:01	BASE	1.70	333	4.32	28	-2.9	89	-4.5	0	0	983.2	NA	0.0000		9999	2460	0	0	0
2019/04/20 09:43:01	BASE	0.94	319	4.32	28	-2.9	89	-4.4	0	0	983.2	NA	0.0000		9999	2460	0	0	0
2019/04/20 09:44:01	BASE	0.27	276	4.32	28	-2.9	89	-4.4	0	0	983.2	NA	0.0000		9999	2360	0	0	0
2019/04/20 09:45:01	BASE	0.61	196	4.32	28	-2.8	89	-4.4	0	0	983.2	NA	0.0000		9999	2130	0	0	0
2019/04/20 09:46:01	BASE	1.16	144	4.32	28	-2.8	88	-4.4	0	0	983.2	NA	0.0000		9999	2200	0	0	0
2019/04/20 09:47:01	BASE	0.74	106	3.91	41	-2.8	88	-4.5	0	0	983.3	NA	0.0000		9999	2230	0	0	0
2019/04/20 09:48:01	BASE	1.00	315	2.93	336	-2.8	87	-4.7	0	0	983.3	NA	0.0000		9999	2490	0	0	0
2019/04/20 09:49:01	BASE	2.24	290	3.60	284	-2.7	86	-4.8	0	0	983.3	NA	0.0000		9999	2560	0	0	0
2019/04/20 09:50:01	BASE	3.32	277	5.71	276	-2.7	85	-4.8	0	0	983.3	NA	0.0000		9999	2530	0	0	0
2019/04/20 09:51:00	BASE	4.02	272	5.71	276	-2.7	85	-4.9	0	0	983.3	NA	0.0000		9999	2360	0	0	0
2019/04/20 09:52:00	BASE	3.58	273	5.71	276	-2.7	85	-4.9	0	0	983.3	NA	0.0000		9999	2170	0	0	0
2019/04/20 09:53:01	BASE	2.96	276	5.71	276	-2.7	84	-4.9	0	0	983.3	NA	0.0000		9999	2170	0	0	0
2019/04/20 09:54:01	BASE	3.67	274	5.97	271	-2.6	84	-5.0	0	0	983.3	NA	0.0000		9999	2200	0	0	0
2019/04/20 09:55:00	BASE	4.42	278	5.97	271	-2.6	84	-5.0	0	0	983.3	NA	0.0000		9999	2360	2950	0	0
2019/04/20 09:56:00	BASE	4.37	281	5.97	271	-2.6	83	-5.0	0	0	983.3	NA	0.0000		9999	2790	0	0	0
2019/04/20 09:57:00	BASE	4.23	277	5.97	271	-2.6	83	-5.0	0	0	983.3	NA	0.0000		9999	2690	0	0	0
2019/04/20 09:58:00	BASE	4.09	271	5.97	271	-2.5	83	-5.0	0	0	983.3	NA	0.0000		9999	2490	0	0	0
2019/04/20 09:59:00	BASE	4.13	270	5.97	271	-2.5	84	-4.9	0	0	983.3	NA	0.0000		9999	2560	3150	0	0
2019/04/20 10:00:00	BASE	4.00	280	5.97	271	-2.6	84	-4.9	0	0	983.3	NA	0.0000		9999	2950	0	0	0
2019/04/20 10:01:00	BASE	3.52	288	5.97	271	-2.6	85	-4.8	0	0	983.3	NA	0.0000		9999	2620	0	0	0
2019/04/20 10:02:01	BASE	3.45	284	5.97	271	-2.6	85	-4.8	0	0	983.3	NA	0.0000		9999	2760	0	0	0
2019/04/20 10:03:00	BASE	3.41	278	5.97	271	-2.6	86	-4.7	0	0	983.3	NA	0.0000		9999	2820	0	0	0
2019/04/20 10:04:00	BASE	3.33	277	5.92	289	-2.6	86	-4.7	0	0	983.3	NA	0.0000		9999	2850	0	0	0
2019/04/20 10:05:00	BASE	3.45	278	5.86	269	-2.6	86	-4.6	0	0	983.3	NA	0.0000		9999	2890	0	0	0
2019/04/20 10:06:00	BASE	3.44	284	5.86	269	-2.6	86	-4.6	0	0	983.4	NA	0.0000		9999	2890	0	0	0
2019/04/20 10:07:00	BASE	3.39	290	5.86	269	-2.6	86	-4.6	0	0	983.4	NA	0.0000		9999	3020	0	0	0
2019/04/20 10:08:00	BASE	3.72	287	5.86	269	-2.6	86	-4.6	0	0	983.4	NA	0.0000		9999	2990	0	0	0
2019/04/20 10:09:00	BASE	4.26	288	5.04	304	-2.6	86	-4.6	0	0	983.4	NA	0.0000		9999	2720	0	0	0
2019/04/20 10:10:00	BASE	5.07	291	6.58	291	-2.6	86	-4.6	0	0	983.4	NA	0.0000		9999	2620	0	0	0
2019/04/20 10:11:00	BASE	5.40	284	6.58	291	-2.6	86	-4.7	0	0	983.4	NA	0.0000		9999	2820	0	0	0
2019/04/20 10:12:00	BASE	5.14	272	6.58	291	-2.6	85	-4.7	0	0	983.4	NA	0.0000		9999	2950	0	0	0
2019/04/20 10:13:00	BASE	4.97	256	6.58	291	-2.6	85	-4.8	0	0	983.5	NA	0.0000		9999	2760	0	0	0
2019/04/20 10:14:00	BASE	4.73	248	6.58	291	-2.6	85	-4.8	0	0	983.5	NA	0.0000		9999	2820	0	0	0
2019/04/20 10:15:00	BASE	5.01	240	6.58	291	-2.6	85	-4.8	0	0	983.5	NA	0.0000		9999	2620	0	0	0
2019/04/20 10:16:00	BASE	5.29	230	6.58	291	-2.6	85	-4.8	0	0	983.5	NA	0.0000		9999	2720	0	0	0
2019/04/20 10:17:01	BASE	5.37	224	6.58	291	-2.6	85	-4.8	0	0	983.5	NA	0.0000		9999	2820	0	0	0
2019/04/20 10:18:00	BASE	5.59	217	6.58	291	-2.6	85	-4.7	0	0	983.5	NA	0.0000		9999	2820	0	0	0
2019/04/20 10:19:00	BASE	5.66	213	6.58	291	-2.6	86	-4.7	0	0	983.5	NA	0.0000		9999	2660	0	0	0
2019/04/20 10:20:00	BASE	5.53	209	6.53	205	-2.6	86	-4.7	0	0	983.5	NA	0.0000		9999	2720	0	0	0
2019/04/20 10:21:00	BASE	5.19	202	6.53	205	-2.6	86	-4.7	0	0	983.5	NA	0.0000		9999	2620	0	0	0
2019/04/20 10:22:00	BASE	4.65	205	6.53	205	-2.6	86	-4.7	0	0	983.5	NA	0.0000		9999	2920	0	0	0
2019/04/20 10:23:00	BASE	4.50	212	6.53	205	-2.6	85	-4.7	0	0	983.5	NA	0.0000		9999	3020	0	0	0
2019/04/20 10:24:00	BASE	5.02	213	6.53	205	-2.6	85	-4.7	0	0	983.5	NA	0.0000		9999	2950	0	0	0
2019/04/20 10:25:00	BASE	4.88	213	6.53	205	-2.6	85	-4.8	0	0	983.5	NA	0.0000		9999	2890	0	0	0
2019/04/20 10:26:00	BASE	4.21	218	6.53	205	-2.6	85	-4.7	0	0	983.6	NA	0.0000		9999	2850	0	0	0
2019/04/20 10:27:00	BASE	4.10	229	6.53	205	-2.6	85	-4.7	0	0	983.7	NA	0.0000		9999	2760	0	0	0
2019/04/20 10:28:00	BASE	4.30	230	6.53	205	-2.6	86	-4.7	0	0	983.7	NA	0.0000		9999	2760	0	0	0
2019/04/20 10:29:01	BASE	4.14	221	5.81	218	-2.6	86	-4.7	0	0	983.7	NA	0.0000		9999	2820	0	0	0
2019/04/20 10:30:00	BASE	3.58	204	5.81	218	-2.6	86	-4.6	0	0	983.7	NA	0.0000		9999	2820	0	0	0
2019/04/20 10:31:00	BASE	3.26	193	5.81	218	-2.6	86	-4.6	0	0	983.7	NA	0.0000		9999	2850	0	0	0
2019/04/20 10:32:00	BASE	3.54	197	5.81	218	-2.6	86	-4.6	0	0	983.7	NA	0.0000		9999	2850	0	0	0
2019/04/20 10:33:00	BASE	3.87	197	5.81	218	-2.6	87	-4.5	0	0	983.7	NA	0.0000		9999	3080	0	0	0
2019/04/20 10:34:00	BASE	4.18	194	4.89	210	-2.7	87	-4.5	0	0	983.7	NA	0.0000		9999	3080	0	0	0
2019/04/20 10:35:00	BASE	4.52	190	4.94	184	-2.7	88	-4.5	0	0	983.7	NA	0.0000		9999	3150	0	0	0
2019/04/20 10:36:00	BASE	4.61	184	5.25	171	-2.7	88	-4.5	0	0	983.7	NA	0.0000		9999	3150	0	0	0
2019/04/20 10:37:00	BASE	4.69	178	5.45	185	-2.8	88	-4.5	0	0	983.7	NA	0.0000		9999	2760	0	0	0
2019/04/20 10:38:00	BASE	4.26	175	5.45	185	-2.8	88	-4.5	0	0	983.7	NA	0.0000		9999	2660	0	0	0
2019/04/20 10:39:00	BASE	3.98	177	5.45	185	-2.7	88	-4.5	0	0	983.7	NA	0.0000		9999	2660	0	0	0
2019/04/20 10:40:00	BASE	4.40	182	5.45	185	-2.7	88	-4.5	0	0	983.7	NA	0.0000		9999	2760	0	0	0
2019/04/20 10:41:00	BASE	4.66	186	5.45	185	-2.7	88	-4.5	0	0	983.7	NA	0.0000		9999	2690	0	0	0
2019/04/20 10:42:00	BASE	4.85	188	5.76	191	-2.7	88	-4.5	0	0	983.7	NA	0.0000		9999	2660	0	0	0
2019/04/20 10:43:00	BASE	4.68	189	5.76	191	-2.8	88	-4.5	0	0	983.7	NA	0.0000		9999	2660	0	0	0
2019/04/20 10:44:00	BASE	3.87	181	5.76	191	-2.8	88	-4.5	0	0	983.7	NA	0.0000		9999	2560	0	0	0
2019/04/20 10:45:00	BASE	2.95	177	5.76	191	-2.8	88	-4.5	0	0	983.7	NA	0.0000		9999	2560	0	0	0
2019/04/20 10:46:00	BASE	2.96	183	5.76	191	-2.8	88	-4.6	0	0	983.7	NA	0.0000		9999	2490	0	0	0
2019/04/20 10:47:00	BASE	3.63	183	5.76	191	-2.8	88	-4.6	0	0	983.8	NA	0.0000		9999	2530	0	0	0
2019/04/20 10:48:00	BASE	3.60	181	5.76	191	-2.8	87	-4.6	0	0	983.9	NA	0.0000		9999	2490	0	0	0
2019/04/20 10:49:00	BASE	3.16	186	5.76	191	-2.9	87	-4.7	0	0	983.9	NA	0.0000		9999	2690	0	0	0
2019/04/20 10:50:00	BASE	2.88	187	5.76	191	-2.9	87	-4.7	0	0	983.9	NA	0.0000		9999	2560	0	0	0
2019/04/20 10:51:00	BASE	3.20	179	5.76	191	-2.9	87	-4.7	0	0	983.9	NA	0.0000		9999	2620	0	0	0
2019/04/20 10:52:00	BASE	3.65	181	4.99	189	-2.9	87	-4.7	0	0	983.9	NA	0.0000		9999	2590	0	0	0
2019/04/20 10:53:00	BASE	4.15	193	5.76	198	-2.9	88	-4.6	0	0	983.9	NA	0.0000		9999	2560	0	0	0
2019/04/20 10:54:00	BASE	4.91	208	5.97	220	-2.8	88	-4.6	0	0	983.9	NA	0.0000		9999	2560	0	0	0
2019/04/20 10:55:00	BASE	4.14	223	5.97	220	-2.8	88	-4.6	0	0	984.0	NA	0.0000		9999	2820	0	0	0
2019/04/20 10:56:00	BASE	2.40	230	5.97	220	-2.8	87	-4.6	0	0	984.0	NA	0.0000		9999	2690	0	0	0
2019/04/20 10:57:00	BASE	2.98	230	5.97	220	-2.8	86	-4.8	0	0	984.0	NA	0.0000		9999	2660	0	0	0
2019/04/20 10:58:00	BASE	3.99	235	5.97	220	-2.8	85	-4.9	0	0	984.0	NA	0.0000		9999	2660	0	0	0
2019/04/20 10:59:00	BASE	3.77	242	5.97	220	-2.7	84	-5.0	0	0	984.0	NA	0.0000		9999	2660	0	0	0
2019/04/20 11:00:00	BASE	3.27	235	5.97	220	-2.7	84	-5.1	0	0	984.0	NA	0.0000		9999	2590	0	0	0
2019/04/20 11:01:00	BASE	3.06	205	5.97	220	-2.7	84	-5.1	0	0	984.0	NA	0.0000		9999	2400	0	0	0
2019/04/20 11:02:00	BASE	3.36	178	5.97	220	-2.7	84	-5.0	0	0	984.0	NA	0.0000		9999	2400	0	0	0
2019/04/20 11:03:00	BASE	3.08	179	5.97	220	-2.7	84	-5.0	0	0	984.0	NA	0.0000		9999	2300	0	0	0
2019/04/20 11:04:00	BASE	2.55	175	4.78	248	-2.7	85	-5.0	0	0	984.0	NA	0.0000		9999	2300	0	0	0
2019/04/20 11:05:00	BASE	2.64	172	4.78	248	-2.8	85	-5.0	0	0	984.1	NA	0.0000		9999	2260	0	0	0
2019/04/20 11:06:00	BASE	2.80	176	4.78	248	-2.8	85	-4.9	0	0	984.1	NA	0.0000		9999	2260	0	0	0
2019/04/20 11:07:00	BASE	2.68	166	4.78	248	-2.8	85	-5.0	0	0	984.1	NA	0.0000		9999	2330	0	0	0
2019/04/20 11:08:00	BASE	2.87	163	4.58	173	-2.8	85	-4.9	0	0	984.1	NA	0.0000		9999	2300	0	0	0
2019/04/20 11:09:00	BASE	3.05	166	4.58	173	-2.8	85	-4.9	0	0	984.1	NA	0.0000		9999	2330	0	0	0
2019/04/20 11:10:00	BASE	3.02	166	4.58	173	-2.9	86	-4.9	0	0	984.1	NA	0.0000		9999	2360	0	0	0
2019/04/20 11:11:00	BASE	2.91	167	4.58	173	-2.9	86	-4.9	0	0	984.1	NA	0.0000		9999	2330	0	0	0
2019/04/20 11:12:00	BASE	2.61	167	3.70	185	-2.9	86	-4.9	0	0	984.1	NA	0.0000		9999	2260	0	0	0
2019/04/20 11:13:00	BASE	2.23	163	3.65	163	-2.9	86	-4.9	0	0	984.1	NA	0.0000		9999	2460	0	0	0
2019/04/20 11:14:00	BASE	2.26	164	3.65	163	-2.8	86	-4.9	0	0	984.1	NA	0.0000		9999	2430	0	0	0
2019/04/20 11:15:00	BASE	2.70	165	3.65	163	-2.8	86	-4.9	0	0	984.1	NA	0.0000		9999	2490	0	0	0
2019/04/20 11:16:00	BASE	3.10	172	3.65	163	-2.8	86	-4.9	0	0	984.1	NA	0.0000		9999	2490	0	0	0
2019/04/20 11:17:00	BASE	2.87	184	3.65	163	-2.8	86	-4.9	0	0	984.2	NA	0.0000		9999	2560	0	0	0
2019/04/20 11:18:00	BASE	2.23	184	3.65	163	-2.9	86	-4.9	0	0	984.2	NA	0.0000		9999	2590	0	0	0
2019/04/20 11:19:00	BASE	2.22	174	3.65	163	-2.9	86	-4.9	0	0	984.2	NA	0.0000		9999	2590	0	0	0
2019/04/20 11:20:00	BASE	2.69	166	3.65	163	-2.9	86	-4.9	0	0	984.2	NA	0.0000		9999	2620	0	0	0
2019/04/20 11:21:00	BASE	2.75	157	3.60	178	-2.9	86	-4.9	0	0	984.2	NA	0.0000		9999	2660	0	0	0
2019/04/20 11:22:00	BASE	2.45	155	3.60	178	-2.9	86	-4.8	0	0	984.3	NA	0.0000		9999	2620	0	0	0
2019/04/20 11:23:00	BASE	2.06	160	3.60	178	-2.9	87	-4.8	0	0	984.3	NA	0.0000		9999	2820	0	0	0
2019/04/20 11:24:00	BASE	2.11	163	3.60	178	-2.9	87	-4.8	0	0	984.3	NA	0.0000		9999	2590	0	0	0
2019/04/20 11:25:00	BASE	2.75	167	3.60	178	-2.9	87	-4.8	0	0	984.3	NA	0.0000		9999	2460	0	0	0
2019/04/20 11:26:00	BASE	3.01	168	3.24	165	-2.9	87	-4.8	0	0	984.3	NA	0.0000		9999	2490	0	0	0
2019/04/20 11:27:00	BASE	3.02	164	3.60	167	-2.9	87	-4.8	0	0	984.3	NA	0.0000		9999	2430	0	0	0
2019/04/20 11:28:00	BASE	3.31	163	3.86	166	-2.9	87	-4.8	0	0	984.3	NA	0.0000		9999	2360	0	0	0
2019/04/20 11:29:00	BASE	3.52	167	4.58	174	-3.0	87	-4.7	0	0	984.3	NA	0.0000		9999	2300	0	0	0
2019/04/20 11:30:00	BASE	3.76	173	4.58	174	-3.0	88	-4.7	0	0	984.3	NA	0.0000		9999	2300	0	0	0
2019/04/20 11:31:00	BASE	4.28	169	4.99	170	-3.0	88	-4.7	1	0	984.3	NA	0.0000		9999	2230	0	0	0
2019/04/20 11:32:00	BASE	4.57	161	6.02	162	-3.0	88	-4.7	1	0	984.3	NA	0.0000		9999	2170	0	0	0
2019/04/20 11:33:00	BASE	4.79	158	6.02	162	-3.0	88	-4.7	1	0	984.3	NA	0.0000		9999	2170	2690	0	0
2019/04/20 11:34:00	BASE	5.06	156	6.02	162	-3.0	88	-4.7	1	0	984.3	NA	0.0000		9999	2170	2660	0	0
2019/04/20 11:35:00	BASE	5.39	146	6.74	135	-2.9	88	-4.7	1	0	984.3	NA	0.0000		9999	2530	0	0	0
2019/04/20 11:36:00	BASE	5.23	136	6.74	135	-2.9	87	-4.7	1	0	984.3	NA	0.0000		9999	2620	0	0	0
2019/04/20 11:37:00	BASE	4.66	140	6.74	135	-2.9	87	-4.8	1	0	984.3	NA	0.0000		9999	2530	0	0	0
2019/04/20 11:38:00	BASE	4.36	145	6.74	135	-2.9	87	-4.8	1	0	984.4	NA	0.0000		9999	2560	0	0	0
2019/04/20 11:39:00	BASE	4.67	142	6.74	135	-2.9	87	-4.8	1	0	984.4	NA	0.0000		9999	2530	0	0	0
2019/04/20 11:40:00	BASE	4.73	135	6.74	135	-3.0	87	-4.8	1	0	984.4	NA	0.0000		9999	2590	0	0	0
2019/04/20 11:41:00	BASE	4.48	127	6.74	135	-3.0	87	-4.8	1	0	984.5	NA	0.0000		9999	2620	0	0	0
2019/04/20 11:42:00	BASE	4.87	124	6.74	135	-3.0	87	-4.9	1	0	984.5	NA	0.0000		9999	2590	0	0	0
2019/04/20 11:43:00	BASE	5.06	125	6.74	135	-3.0	87	-4.9	1	0	984.4	NA	0.0000		9999	2490	0	0	0
2019/04/20 11:44:00	BASE	4.71	122	6.74	135	-3.1	87	-4.9	1	0	984.5	NA	0.0000		9999	2530	0	0	0
2019/04/20 11:45:00	BASE	4.13	117	5.92	135	-3.1	87	-5.0	1	0	984.5	NA	0.0000		9999	2490	0	0	0
2019/04/20 11:46:00	BASE	3.86	113	5.92	135	-3.1	87	-5.0	1	0	984.5	NA	0.0000		9999	2460	0	0	0
2019/04/20 11:47:00	BASE	3.82	111	5.92	135	-3.1	86	-5.0	1	0	984.5	NA	0.0000		9999	2490	0	0	0
2019/04/20 11:48:00	BASE	3.39	112	5.92	135	-3.1	86	-5.1	1	0	984.5	NA	0.0000		9999	2490	0	0	0
2019/04/20 11:49:00	BASE	2.87	109	5.71	120	-3.1	86	-5.1	1	0	984.5	NA	0.0000		9999	2430	0	0	0
2019/04/20 11:50:00	BASE	2.81	102	5.71	120	-3.1	86	-5.1	1	0	984.5	NA	0.0000		9999	2460	0	0	0
2019/04/20 11:51:00	BASE	2.96	98	5.71	120	-3.1	86	-5.1	2	0	984.5	NA	0.0000		9999	2400	0	0	0
2019/04/20 11:52:00	BASE	2.96	100	5.25	127	-3.0	86	-5.1	2	0	984.5	NA	0.0000		9999	2460	0	0	0
2019/04/20 11:53:00	BASE	3.08	109	4.78	120	-3.0	86	-5.1	2	0	984.5	NA	0.0000		9999	2430	0	0	0
2019/04/20 11:54:00	BASE	3.31	116	4.32	112	-3.1	85	-5.2	2	0	984.5	NA	0.0000		9999	2460	0	0	0
2019/04/20 11:55:00	BASE	3.41	121	4.32	112	-3.1	85	-5.2	2	0	984.5	NA	0.0000		9999	2430	0	0	0
2019/04/20 11:56:00	BASE	3.29	129	4.12	119	-3.1	86	-5.2	2	0	984.5	NA	0.0000		9999	2400	0	0	0
2019/04/20 11:57:00	BASE	2.98	135	3.76	108	-3.1	86	-5.2	2	0	984.5	NA	0.0000		9999	2330	0	0	0
2019/04/20 11:58:00	BASE	3.06	134	3.76	129	-3.1	86	-5.1	2	0	984.6	NA	0.0000		9999	2330	0	0	0
2019/04/20 11:59:00	BASE	3.43	134	3.76	129	-3.1	87	-5.0	2	0	984.6	NA	0.0000		9999	2300	0	0	0
2019/04/20 12:00:00	BASE	3.55	135	3.91	136	-3.1	87	-5.0	2	0	984.6	NA	0.0000		9999	2200	0	0	0
2019/04/20 12:01:00	BASE	3.41	135	3.91	136	-3.1	87	-5.0	2	0	984.6	NA	0.0000		9999	2200	0	0	0
2019/04/20 12:02:00	BASE	3.05	136	3.91	136	-3.1	87	-4.9	2	0	984.6	NA	0.0000		9999	2260	0	0	0
2019/04/20 12:03:00	BASE	2.92	129	3.91	136	-3.1	87	-4.9	2	0	984.6	NA	0.0000		9999	2230	0	0	0
2019/04/20 12:04:00	BASE	2.94	127	3.91	136	-3.1	87	-4.9	2	0	984.6	NA	0.0000		9999	2200	0	0	0
2019/04/20 12:05:00	BASE	3.01	128	3.91	136	-3.1	88	-4.8	3	0	984.6	NA	0.0000		9999	2260	0	0	0
2019/04/20 12:06:00	BASE	2.77	122	3.91	136	-3.1	88	-4.8	3	0	984.6	NA	0.0000		9999	2360	2990	0	0
2019/04/20 12:07:00	BASE	2.73	116	3.91	136	-3.0	88	-4.8	3	0	984.6	NA	0.0000		9999	2660	0	0	0
2019/04/20 12:08:00	BASE	3.16	121	3.91	136	-3.0	88	-4.8	3	0	984.6	NA	0.0000		9999	2560	0	0	0
2019/04/20 12:09:00	BASE	2.90	128	3.91	136	-3.0	88	-4.8	3	0	984.6	NA	0.0000		9999	2890	0	0	0
2019/04/20 12:10:00	BASE	2.23	123	3.76	112	-3.0	87	-4.8	3	0	984.7	NA	0.0000		9999	2790	0	0	0
2019/04/20 12:11:00	BASE	2.00	117	3.76	112	-3.0	87	-4.8	3	0	984.7	NA	0.0000		9999	2720	0	0	0
2019/04/20 12:12:00	BASE	2.06	123	3.76	112	-3.0	87	-4.9	3	0	984.7	NA	0.0000		9999	2660	0	0	0
2019/04/20 12:13:00	BASE	1.76	125	3.76	112	-3.0	87	-4.9	4	0	984.7	NA	0.0000		9999	2490	0	0	0
2019/04/20 12:14:00	BASE	1.49	123	3.76	112	-3.0	86	-5.0	4	0	984.7	NA	0.0000		9999	2490	0	0	0
2019/04/20 12:15:00	BASE	1.57	130	3.76	112	-3.0	86	-5.0	4	0	984.7	NA	0.0000		9999	2330	0	0	0
2019/04/20 12:16:00	BASE	1.43	136	3.76	112	-3.0	86	-5.0	4	0	984.7	NA	0.0000		9999	2330	0	0	0
2019/04/20 12:17:00	BASE	1.18	144	3.70	125	-3.0	86	-5.1	4	0	984.7	NA	0.0000		9999	2300	0	0	0
2019/04/20 12:18:00	BASE	1.41	162	2.78	129	-3.1	86	-5.1	4	0	984.7	NA	0.0000		9999	2300	0	0	0
2019/04/20 12:19:00	BASE	2.00	161	2.52	142	-3.1	86	-5.1	5	0	984.7	NA	0.0000		9999	2100	0	0	0
2019/04/20 12:20:00	BASE	2.31	149	2.62	147	-3.0	86	-5.0	5	0	984.7	NA	0.0000		9999	1940	0	0	0
2019/04/20 12:21:01	BASE	2.44	146	2.78	143	-3.0	86	-5.0	5	0	984.7	NA	0.0000		9999	1970	0	0	0
2019/04/20 12:22:00	BASE	2.96	151	3.81	146	-3.0	86	-5.0	6	0	984.7	NA	0.0000		9999	2130	0	0	0
2019/04/20 12:23:00	BASE	3.81	163	5.14	159	-3.0	86	-5.0	6	0	984.7	NA	0.0000		9999	2070	0	0	0
2019/04/20 12:24:00	BASE	4.80	172	6.38	179	-3.0	87	-4.9	6	0	984.7	NA	0.0000		9999	2070	0	0	0
2019/04/20 12:25:01	BASE	6.04	175	7.51	174	-3.0	87	-4.8	5	0	984.7	NA	0.0000		9999	2000	0	0	0
2019/04/20 12:26:00	BASE	6.44	179	7.51	174	-3.0	88	-4.7	6	0	984.7	NA	0.0000		9999	2030	0	0	0
2019/04/20 12:27:00	BASE	5.67	177	7.51	174	-3.0	88	-4.7	6	0	984.8	NA	0.0000		9999	2070	0	0	0
2019/04/20 12:28:00	BASE	5.55	169	7.51	174	-3.0	89	-4.6	6	0	984.8	NA	0.0000	UP	7000	590	0	0	0
2019/04/20 12:29:00	BASE	5.32	171	7.51	174	-3.0	89	-4.5	6	0	984.8	NA	0.0000	UP	6000	1410	0	0	0
2019/04/20 12:30:00	BASE	4.43	176	7.51	174	-3.0	90	-4.5	7	0	984.8	NA	0.0000	UP BR	4300	2330	0	0	0
2019/04/20 12:31:00	BASE	4.32	172	7.51	174	-3.0	90	-4.5	7	0	984.8	NA	0.0000	UP BR	3600	2260	2790	0	0
2019/04/20 12:32:00	BASE	3.83	170	7.51	174	-3.0	90	-4.4	7	0	984.8	NA	0.0000	UP BR	4200	2690	0	0	0
2019/04/20 12:33:00	BASE	2.99	171	7.51	174	-3.0	90	-4.4	8	0	984.8	NA	0.0000	UP BR	6000	2760	0	0	0
2019/04/20 12:34:00	BASE	2.58	165	7.51	174	-3.0	90	-4.4	8	0	984.8	NA	0.0000	UP BR	7000	2400	0	0	0
2019/04/20 12:35:00	BASE	2.27	158	7.05	185	-3.0	91	-4.3	8	0	984.8	NA	0.0000	UP BR	7000	2660	0	0	0
2019/04/20 12:36:00	BASE	2.15	160	6.38	163	-3.0	91	-4.3	8	0	984.9	NA	0.0000	UP BR	7000	2760	0	0	0
2019/04/20 12:37:00	BASE	2.00	166	6.38	163	-3.0	91	-4.2	9	0	984.9	NA	0.0000	UP BR	9000	2820	0	0	0
2019/04/20 12:38:00	BASE	1.92	176	6.02	173	-3.1	92	-4.2	9	0	984.9	NA	0.0000	UP BR	9999	2890	0	0	0
2019/04/20 12:39:00	BASE	2.21	183	5.50	170	-3.1	92	-4.2	9	0	984.9	NA	0.0000	UP BR	9999	2820	0	0	0
2019/04/20 12:40:00	BASE	2.22	182	5.40	163	-3.1	93	-4.1	10	0	984.9	NA	0.0000	BR	9999	2790	0	0	0
2019/04/20 12:41:00	BASE	2.36	182	4.01	169	-3.1	93	-4.1	10	0	984.9	NA	0.0000	BR	9999	2920	0	0	0
2019/04/20 12:42:00	BASE	2.66	178	3.24	181	-3.2	93	-4.1	10	0	984.9	NA	0.0000	BR	9999	2920	0	0	0
2019/04/20 12:43:00	BASE	2.55	175	3.24	181	-3.2	93	-4.1	11	0	984.9	NA	0.0000	BR	9999	2790	0	0	0
2019/04/20 12:44:00	BASE	2.50	177	3.24	181	-3.2	93	-4.1	11	0	984.9	NA	0.0000		9999	2720	0	0	0
2019/04/20 12:45:00	BASE	2.43	173	3.24	181	-3.1	93	-4.0	12	0	984.9	NA	0.0000		9999	2660	0	0	0
2019/04/20 12:46:00	BASE	2.51	170	3.24	181	-3.1	93	-4.0	12	0	984.9	NA	0.0000		9999	2760	0	0	0
2019/04/20 12:47:00	BASE	2.39	177	3.24	181	-3.1	93	-4.0	12	0	984.9	NA	0.0000		9999	2590	0	0	0
2019/04/20 12:48:00	BASE	2.01	182	3.24	181	-3.1	93	-4.1	11	0	984.9	NA	0.0000		9999	2400	0	0	0
2019/04/20 12:49:00	BASE	1.92	182	3.24	181	-3.1	93	-4.1	11	0	984.9	NA	0.0000		9999	2400	0	0	0
2019/04/20 12:50:00	BASE	1.87	187	3.24	181	-3.1	92	-4.2	10	0	984.9	NA	0.0000		9999	2360	0	0	0
2019/04/20 12:51:00	BASE	1.54	189	3.09	181	-3.1	92	-4.2	10	0	984.9	NA	0.0000		9999	2260	0	0	0
2019/04/20 12:52:00	BASE	1.20	179	2.88	172	-3.1	92	-4.2	10	0	984.9	NA	0.0000		9999	2170	0	0	0
2019/04/20 12:53:00	BASE	1.49	165	2.88	172	-3.0	91	-4.3	10	0	985.0	NA	0.0000		9999	2200	0	0	0
2019/04/20 12:54:00	BASE	1.90	157	2.88	172	-3.0	91	-4.3	10	0	985.1	NA	0.0000		9999	2200	0	0	0
2019/04/20 12:55:00	BASE	1.83	154	2.83	172	-3.0	91	-4.3	10	0	985.1	NA	0.0000		9999	2170	0	0	0
2019/04/20 12:56:00	BASE	1.64	164	2.37	175	-3.0	90	-4.4	10	0	985.1	NA	0.0000		9999	2100	0	0	0
2019/04/20 12:57:00	BASE	1.80	182	2.57	191	-3.1	90	-4.4	10	0	985.1	NA	0.0000		9999	1940	0	0	0
2019/04/20 12:58:00	BASE	1.82	190	2.57	191	-3.1	90	-4.4	11	0	985.1	NA	0.0000		9999	2000	0	0	0
2019/04/20 12:59:00	BASE	1.16	187	2.57	191	-3.1	91	-4.4	11	0	985.1	NA	0.0000		9999	1870	0	0	0
2019/04/20 13:00:00	BASE	0.45	190	2.57	191	-3.1	91	-4.4	11	0	985.1	NA	0.0000		9999	1770	0	0	0
2019/04/20 13:01:00	BASE	0.10	194	2.57	191	-3.1	91	-4.3	11	0	985.1	NA	0.0000		9999	1840	2790	0	0
2019/04/20 13:02:00	BASE	0.00	196	2.57	191	-3.0	91	-4.3	12	0	985.1	NA	0.0000		9999	2890	0	0	0
2019/04/20 13:03:01	BASE	0.00	241	2.57	191	-3.0	91	-4.3	12	0	985.1	NA	0.0000		9999	2850	0	0	0
2019/04/20 13:04:01	BASE	0.17	266	2.57	191	-3.0	90	-4.3	13	0	985.1	NA	0.0000		9999	2490	0	0	0
2019/04/20 13:05:01	BASE	0.21	275	2.57	191	-3.0	90	-4.3	13	0	985.1	NA	0.0000		9999	2430	0	0	0
2019/04/20 13:06:01	BASE	0.29	311	2.57	191	-2.9	90	-4.4	14	0	985.2	NA	0.0000		9999	2430	0	0	0
2019/04/20 13:07:01	BASE	1.01	298	1.90	189	-2.9	90	-4.4	14	0	985.2	NA	0.0000		9999	2300	0	0	0
2019/04/20 13:08:01	BASE	2.15	277	3.50	272	-2.9	89	-4.4	14	0	985.2	NA	0.0000		9999	2260	0	0	0
2019/04/20 13:09:01	BASE	2.52	273	3.50	273	-2.9	89	-4.4	14	0	985.2	NA	0.0000		9999	2200	0	0	0
2019/04/20 13:10:01	BASE	2.29	251	3.50	273	-2.9	89	-4.5	14	0	985.2	NA	0.0000		9999	2100	2620	0	0
2019/04/20 13:11:01	BASE	3.44	243	5.71	242	-2.9	88	-4.5	15	0	985.2	NA	0.0000		9999	2400	0	0	0
2019/04/20 13:12:01	BASE	4.51	251	5.92	243	-2.9	88	-4.6	16	0	985.2	NA	0.0000		9999	2200	0	0	0
2019/04/20 13:13:01	BASE	5.78	248	7.82	235	-2.9	87	-4.7	16	0	985.2	NA	0.0000		9999	2360	2820	0	0
2019/04/20 13:14:01	BASE	7.65	246	10.13	246	-2.9	87	-4.8	17	0	985.2	NA	0.0000		9999	2200	0	0	0
2019/04/20 13:15:01	BASE	7.52	240	10.13	246	-2.9	86	-4.8	17	0	985.2	NA	0.0000		9999	2790	0	0	0
2019/04/20 13:16:01	BASE	7.15	236	10.24	222	-2.9	86	-4.9	18	0	985.2	NA	0.0000		9999	2300	0	0	0
2019/04/20 13:17:01	BASE	7.96	240	10.24	222	-2.8	85	-5.0	19	0	985.2	NA	0.0000		9999	2460	0	0	0
2019/04/20 13:18:01	BASE	9.62	237	12.45	231	-2.9	85	-5.1	20	0	985.1	NA	0.0000		9999	3080	0	0	0
2019/04/20 13:19:01	BASE	10.40	229	12.45	231	-2.8	84	-5.1	22	0	985.2	NA	0.0000		9999	2430	3050	0	0
2019/04/20 13:20:01	BASE	11.08	226	13.68	227	-2.8	84	-5.2	22	0	985.1	NA	0.0000		9999	3150	0	0	0
2019/04/20 13:21:01	BASE	11.91	225	13.68	227	-2.8	83	-5.3	23	0	985.1	NA	0.0000		9999	2950	0	0	0
2019/04/20 13:22:01	BASE	11.72	224	13.68	227	-2.8	83	-5.3	23	0	985.1	NA	0.0000		9999	2990	0	0	0
2019/04/20 13:23:01	BASE	10.71	216	13.68	227	-2.8	83	-5.2	24	0	985.2	NA	0.0000		9999	2890	0	0	0
2019/04/20 13:24:01	BASE	9.73	211	13.68	227	-2.7	84	-5.1	25	0	985.2	NA	0.0000		9999	2990	0	0	0
2019/04/20 13:25:01	BASE	10.07	207	13.68	227	-2.7	84	-5.1	26	0	985.2	NA	0.0000		9999	2920	3580	0	0
2019/04/20 13:26:01	BASE	10.01	203	13.68	227	-2.7	84	-5.0	27	0	985.2	NA	0.0000		9999	3120	0	0	0
2019/04/20 13:27:01	BASE	8.96	208	13.68	227	-2.8	85	-4.9	29	0	985.2	NA	0.0000		9999	3310	0	0	0
2019/04/20 13:28:01	BASE	7.95	210	13.68	227	-2.8	85	-4.9	30	0	985.2	NA	0.0000		9999	3280	0	0	0
2019/04/20 13:29:01	BASE	7.77	206	13.68	227	-2.8	86	-4.9	31	0	985.3	NA	0.0000		9999	3020	0	0	0
2019/04/20 13:30:01	BASE	7.67	207	13.07	227	-2.8	86	-4.9	32	0	985.3	NA	0.0000		9999	2660	0	0	0
2019/04/20 13:31:00	BASE	7.45	208	12.76	220	-2.8	86	-4.8	31	0	985.3	NA	0.0000		9999	2950	0	0	0
2019/04/20 13:32:01	BASE	7.85	202	11.16	203	-2.8	86	-4.9	30	0	985.3	NA	0.0000		9999	2560	3150	0	0
2019/04/20 13:33:01	BASE	6.98	203	11.16	203	-2.8	85	-5.0	29	0	985.3	NA	0.0000		9999	2490	0	0	0
2019/04/20 13:34:01	BASE	5.12	199	11.16	203	-2.9	85	-5.1	28	0	985.4	NA	0.0000		9999	2360	0	0	0
2019/04/20 13:35:00	BASE	4.73	201	10.55	199	-2.9	84	-5.3	28	0	985.4	NA	0.0000		9999	2460	0	0	0
2019/04/20 13:36:00	BASE	5.97	218	10.34	198	-2.9	82	-5.5	27	0	985.4	NA	0.0000		9999	2560	0	0	0
2019/04/20 13:37:00	BASE	7.99	220	10.34	198	-2.9	81	-5.6	28	0	985.4	NA	0.0000		9999	2560	0	0	0
2019/04/20 13:38:01	BASE	8.72	212	10.34	198	-2.8	81	-5.6	28	0	985.4	NA	0.0000		9999	2690	0	0	0
2019/04/20 13:39:00	BASE	9.17	216	10.34	224	-2.8	81	-5.6	28	0	985.4	NA	0.0000		9999	2590	0	0	0
2019/04/20 13:40:01	BASE	10.06	224	12.09	219	-2.8	80	-5.7	27	0	985.4	NA	0.0000		9999	2560	0	0	0
2019/04/20 13:41:00	BASE	10.96	222	12.60	223	-2.8	80	-5.7	26	0	985.4	NA	0.0000		9999	2490	0	0	0
2019/04/20 13:42:00	BASE	11.29	218	12.60	223	-2.8	80	-5.7	26	0	985.4	NA	0.0000		9999	2660	0	0	0
2019/04/20 13:43:00	BASE	10.55	218	12.60	223	-2.8	80	-5.9	26	0	985.4	NA	0.0000		9999	2460	0	0	0
2019/04/20 13:44:00	BASE	9.19	219	12.60	223	-2.8	79	-6.0	25	0	985.4	NA	0.0000		9999	2400	0	0	0
2019/04/20 13:45:01	BASE	8.03	214	12.60	223	-2.8	78	-6.1	25	0	985.4	NA	0.0000		9999	2360	0	0	0
2019/04/20 13:46:00	BASE	8.19	212	12.60	223	-2.9	78	-6.2	25	0	985.4	NA	0.0000		9999	2460	0	0	0
2019/04/20 13:47:00	BASE	8.62	213	12.60	223	-2.9	77	-6.3	26	0	985.4	NA	0.0000		9999	2560	0	0	0
2019/04/20 13:48:00	BASE	8.51	212	12.60	223	-2.9	77	-6.3	26	0	985.4	NA	0.0000		9999	2490	0	0	0
2019/04/20 13:49:00	BASE	8.94	219	12.60	223	-2.8	77	-6.3	27	0	985.4	NA	0.0000		9999	2400	21820	0	0
2019/04/20 13:50:00	BASE	9.22	233	12.60	223	-2.8	77	-6.3	29	0	985.5	NA	0.0000		9999	2460	0	0	0
2019/04/20 13:51:00	BASE	8.70	241	11.57	216	-2.8	77	-6.2	31	0	985.5	NA	0.0000		9999	2490	0	0	0
2019/04/20 13:52:00	BASE	9.34	234	11.57	216	-2.8	77	-6.2	32	0	985.5	NA	0.0000		9999	2430	0	0	0
2019/04/20 13:53:00	BASE	10.31	226	11.68	232	-2.8	78	-6.1	33	0	985.5	NA	0.0000		9999	2560	0	0	0
2019/04/20 13:54:00	BASE	10.71	225	11.78	219	-2.8	78	-6.0	33	0	985.6	NA	0.0000		9999	2620	0	0	0
2019/04/20 13:55:00	BASE	10.98	225	13.02	219	-2.8	79	-6.0	34	0	985.6	NA	0.0000		9999	2660	0	0	0
2019/04/20 13:56:00	BASE	11.30	223	13.07	232	-2.8	79	-5.9	36	0	985.5	NA	0.0000		9999	2620	0	0	0
2019/04/20 13:57:00	BASE	11.99	227	13.68	230	-2.8	79	-5.9	37	0	985.5	NA	0.0000		9999	2890	0	0	0
2019/04/20 13:58:00	BASE	12.08	229	13.68	230	-2.8	79	-5.9	37	0	985.6	NA	0.0000		9999	2660	0	0	0
2019/04/20 13:59:00	BASE	11.19	225	13.68	230	-2.8	79	-5.9	37	0	985.6	NA	0.0000		9999	2590	0	0	0
2019/04/20 14:00:00	BASE	9.76	220	13.68	230	-2.8	79	-6.0	38	0	985.6	NA	0.0000		9999	2560	0	0	0
2019/04/20 14:01:00	BASE	9.42	218	13.68	230	-2.8	79	-6.0	39	0	985.6	NA	0.0000		9999	2560	0	0	0
2019/04/20 14:02:00	BASE	9.21	220	13.68	230	-2.8	79	-6.0	41	0	985.6	NA	0.0000		9999	2590	0	0	0
2019/04/20 14:03:00	BASE	7.83	229	13.68	230	-2.8	79	-6.0	41	0	985.7	NA	0.0000		9999	2590	0	0	0
2019/04/20 14:04:00	BASE	7.44	243	13.68	230	-2.8	79	-5.9	41	0	985.7	NA	0.0000		9999	2620	0	0	0
2019/04/20 14:05:00	BASE	7.93	248	13.68	230	-2.8	79	-6.0	40	0	985.7	NA	0.0000		9999	2620	0	0	0
2019/04/20 14:06:00	BASE	7.62	251	13.68	230	-2.9	79	-6.0	40	0	985.7	NA	0.0000		9999	2560	0	0	0
2019/04/20 14:07:00	BASE	7.00	251	12.66	227	-2.9	79	-6.0	40	0	985.7	NA	0.0000		9999	2620	0	0	0
2019/04/20 14:08:00	BASE	7.82	246	11.47	223	-2.9	79	-6.0	40	0	985.6	NA	0.0000		9999	2560	0	0	0
2019/04/20 14:09:00	BASE	8.89	250	10.55	214	-2.9	79	-6.0	38	0	985.7	NA	0.0000		9999	2850	0	0	0
2019/04/20 14:10:00	BASE	9.35	254	10.91	256	-2.9	79	-5.9	35	0	985.7	NA	0.0000		9999	2690	0	0	0
2019/04/20 14:11:00	BASE	9.82	254	11.11	256	-2.9	80	-5.9	31	0	985.7	NA	0.0000		9999	2430	0	0	0
2019/04/20 14:12:00	BASE	9.76	260	11.11	259	-2.8	80	-5.8	30	0	985.7	NA	0.0000		9999	2360	0	0	0
2019/04/20 14:13:00	BASE	9.85	256	11.99	259	-2.8	80	-5.7	30	0	985.7	NA	0.0000		9999	2360	0	0	0
2019/04/20 14:14:00	BASE	10.24	242	11.99	259	-2.8	81	-5.7	31	0	985.7	NA	0.0000		9999	2400	0	0	0
2019/04/20 14:15:00	BASE	10.16	232	11.99	259	-2.8	81	-5.6	31	0	985.8	NA	0.0000		9999	2430	0	0	0
2019/04/20 14:16:00	BASE	8.61	232	11.99	259	-2.8	81	-5.6	29	0	985.8	NA	0.0000		9999	2430	0	0	0
2019/04/20 14:17:00	BASE	7.53	237	11.99	259	-2.7	81	-5.5	28	0	985.8	NA	0.0000		9999	2430	0	0	0
2019/04/20 14:18:00	BASE	8.60	240	11.99	259	-2.7	81	-5.5	26	0	985.8	NA	0.0000		9999	2400	0	0	0
2019/04/20 14:19:00	BASE	9.49	244	11.99	259	-2.7	82	-5.5	25	0	985.8	NA	0.0000		9999	2430	0	0	0
2019/04/20 14:20:00	BASE	10.23	245	12.45	230	-2.8	82	-5.5	24	0	985.8	NA	0.0000		9999	2430	0	0	0
2019/04/20 14:21:00	BASE	10.56	224	12.45	230	-2.8	82	-5.5	25	0	985.7	NA	0.0000		9999	2330	0	0	0
2019/04/20 14:22:00	BASE	9.66	213	12.45	230	-2.8	81	-5.5	27	0	985.8	NA	0.0000		9999	2430	0	0	0
2019/04/20 14:23:00	BASE	8.55	220	12.45	230	-2.8	81	-5.5	27	0	985.8	NA	0.0000		9999	2430	0	0	0
2019/04/20 14:24:00	BASE	8.93	218	12.45	230	-2.8	81	-5.6	27	0	985.8	NA	0.0000		9999	2430	0	0	0
2019/04/20 14:25:00	BASE	9.89	216	12.45	230	-2.8	81	-5.6	27	0	985.8	NA	0.0000		9999	2400	0	0	0
2019/04/20 14:26:00	BASE	9.52	221	12.45	230	-2.8	81	-5.6	26	0	985.8	NA	0.0000		9999	2430	0	0	0
2019/04/20 14:27:00	BASE	8.82	225	12.45	230	-2.8	81	-5.6	27	0	985.8	NA	0.0000		9999	2430	0	0	0
2019/04/20 14:28:00	BASE	8.20	224	12.45	230	-2.8	81	-5.7	27	0	985.9	NA	0.0000		9999	2400	0	0	0
2019/04/20 14:29:00	BASE	8.14	231	12.45	230	-2.8	80	-5.7	28	0	985.9	NA	0.0000		9999	2560	0	0	0
2019/04/20 14:30:00	BASE	8.99	237	12.35	207	-2.8	80	-5.8	28	0	985.9	NA	0.0000		9999	2490	0	0	0
2019/04/20 14:31:00	BASE	10.25	239	13.07	237	-2.8	80	-5.8	28	0	985.9	NA	0.0000		9999	2460	0	0	0
2019/04/20 14:32:00	BASE	10.40	240	13.07	237	-2.8	80	-5.8	28	0	986.0	NA	0.0000		9999	2490	0	0	0
2019/04/20 14:33:00	BASE	9.80	242	13.07	237	-2.8	79	-5.9	29	0	986.0	NA	0.0000		9999	2460	0	0	0
2019/04/20 14:34:00	BASE	9.67	246	13.07	237	-2.8	79	-5.9	30	0	986.0	NA	0.0000		9999	2490	0	0	0
2019/04/20 14:35:00	BASE	9.07	245	13.07	237	-2.9	79	-6.0	32	0	986.0	NA	0.0000		9999	2560	24250	0	0
2019/04/20 14:36:00	BASE	8.37	241	13.07	237	-2.9	78	-6.1	33	0	986.0	NA	0.0000		9999	2790	0	0	0
2019/04/20 14:37:00	BASE	8.82	234	13.07	237	-2.9	78	-6.1	35	0	985.9	NA	0.0000		9999	2720	0	0	0
2019/04/20 14:38:00	BASE	9.65	233	13.07	237	-2.8	78	-6.1	36	0	986.0	NA	0.0000		9999	2620	0	0	0
2019/04/20 14:39:00	BASE	8.76	236	13.07	237	-2.8	78	-6.0	37	0	986.0	NA	0.0000		9999	2590	0	0	0
2019/04/20 14:40:00	BASE	8.70	238	13.07	237	-2.8	79	-6.0	38	0	986.0	NA	0.0000		9999	2720	0	0	0
2019/04/20 14:41:00	BASE	10.30	236	12.35	236	-2.8	79	-6.0	39	0	985.9	NA	0.0000		9999	2530	0	0	0
2019/04/20 14:42:00	BASE	10.90	234	12.35	236	-2.8	79	-5.9	40	0	986.0	NA	0.0000		9999	2620	0	0	0
2019/04/20 14:43:00	BASE	10.60	236	12.76	233	-2.8	79	-5.9	41	0	986.0	NA	0.0000		9999	2690	0	0	0
2019/04/20 14:44:00	BASE	10.76	239	12.76	233	-2.8	79	-6.0	42	0	986.0	NA	0.0000		9999	2720	0	0	0
2019/04/20 14:45:00	BASE	10.94	240	12.76	233	-2.8	79	-6.0	42	0	986.0	NA	0.0000		9999	2430	0	0	0
2019/04/20 14:46:00	BASE	10.04	240	12.76	233	-2.8	78	-6.1	42	0	986.0	NA	0.0000		9999	2460	0	0	0
2019/04/20 14:47:00	BASE	9.29	245	12.76	233	-2.9	78	-6.2	41	0	986.0	NA	0.0000		9999	2560	0	0	0
2019/04/20 14:48:00	BASE	9.50	248	12.76	233	-2.9	77	-6.3	41	0	986.0	NA	0.0000		9999	2590	0	0	0
2019/04/20 14:49:00	BASE	9.88	247	12.76	233	-2.9	77	-6.3	41	0	986.0	NA	0.0000		9999	2690	0	0	0
2019/04/20 14:50:00	BASE	9.48	246	12.76	233	-2.9	77	-6.4	43	0	986.1	NA	0.0000		9999	2530	0	0	0
2019/04/20 14:51:00	BASE	8.28	245	12.76	233	-2.9	77	-6.4	44	0	986.1	NA	0.0000		9999	2660	0	0	0
2019/04/20 14:52:00	BASE	7.78	251	12.76	233	-2.9	77	-6.4	44	0	986.1	NA	0.0000		9999	2690	0	0	0
2019/04/20 14:53:00	BASE	8.34	249	12.45	243	-2.9	76	-6.5	44	0	986.1	NA	0.0000		9999	2690	0	0	0
2019/04/20 14:54:00	BASE	9.16	241	12.24	244	-2.9	76	-6.4	43	0	986.1	NA	0.0000		9999	2720	0	0	0
2019/04/20 14:55:00	BASE	9.14	237	11.21	244	-2.9	76	-6.5	42	0	986.1	NA	0.0000		9999	2690	0	0	0
2019/04/20 14:56:00	BASE	8.75	232	11.21	244	-2.9	76	-6.5	42	0	986.1	NA	0.0000		9999	2760	0	0	0
2019/04/20 14:57:00	BASE	8.72	230	11.21	244	-2.8	76	-6.4	42	0	986.1	NA	0.0000		9999	2820	0	0	0
2019/04/20 14:58:00	BASE	8.72	231	11.21	244	-2.8	76	-6.4	42	0	986.2	NA	0.0000		9999	2620	0	0	0
2019/04/20 14:59:00	BASE	9.03	231	10.55	243	-2.8	76	-6.5	42	0	986.1	NA	0.0000		9999	2460	0	0	0
2019/04/20 15:00:00	BASE	8.93	235	10.80	236	-2.8	76	-6.5	42	0	986.2	NA	0.0000		9999	2560	0	0	0
2019/04/20 15:01:00	BASE	8.13	241	10.80	236	-2.8	76	-6.5	42	0	986.2	NA	0.0000		9999	2490	0	0	0
2019/04/20 15:02:00	BASE	7.78	242	10.80	236	-2.9	76	-6.6	42	0	986.2	NA	0.0000		9999	2690	0	0	0
2019/04/20 15:03:00	BASE	7.85	239	10.80	236	-2.9	76	-6.6	40	0	986.3	NA	0.0000		9999	3020	0	0	0
2019/04/20 15:04:00	BASE	8.16	241	10.80	236	-2.9	76	-6.6	37	0	986.3	NA	0.0000		9999	2620	0	0	0
2019/04/20 15:05:00	BASE	7.98	245	10.80	236	-2.9	75	-6.7	35	0	986.3	NA	0.0000		9999	2560	0	0	0
2019/04/20 15:06:00	BASE	8.09	247	10.80	236	-2.9	75	-6.7	35	0	986.3	NA	0.0000		9999	2560	0	0	0
2019/04/20 15:07:00	BASE	9.16	248	10.80	236	-2.9	75	-6.7	34	0	986.3	NA	0.0000		9999	2490	0	0	0
2019/04/20 15:08:00	BASE	9.00	251	10.80	236	-2.9	75	-6.7	34	0	986.3	NA	0.0000		9999	2560	0	0	0
2019/04/20 15:09:00	BASE	8.81	252	10.80	236	-3.0	75	-6.7	33	0	986.3	NA	0.0000		9999	2560	0	0	0
2019/04/20 15:10:00	BASE	9.21	251	11.32	262	-3.0	76	-6.6	33	0	986.3	NA	0.0000		9999	2530	0	0	0
2019/04/20 15:11:00	BASE	9.23	253	11.32	262	-3.0	76	-6.6	32	0	986.2	NA	0.0000		9999	2430	0	0	0
2019/04/20 15:12:00	BASE	9.01	253	11.32	262	-3.0	76	-6.5	33	0	986.3	NA	0.0000		9999	2430	0	0	0
2019/04/20 15:13:00	BASE	8.52	255	11.32	262	-3.0	77	-6.5	35	0	986.3	NA	0.0000		9999	2560	0	0	0
2019/04/20 15:14:00	BASE	7.95	255	11.32	262	-3.0	77	-6.5	36	0	986.3	NA	0.0000		9999	2400	0	0	0
2019/04/20 15:15:00	BASE	7.61	253	11.32	262	-3.0	77	-6.5	36	0	986.3	NA	0.0000		9999	2400	22280	0	0
2019/04/20 15:16:00	BASE	7.26	252	11.32	262	-3.0	77	-6.5	37	0	986.3	NA	0.0000		9999	2360	0	0	0
2019/04/20 15:17:00	BASE	6.16	252	11.32	262	-3.0	77	-6.5	38	0	986.3	NA	0.0000		9999	2460	0	0	0
2019/04/20 15:18:00	BASE	6.47	255	11.32	262	-3.0	77	-6.5	39	0	986.3	NA	0.0000		9999	2460	0	0	0
2019/04/20 15:19:00	BASE	7.40	258	11.32	262	-3.0	77	-6.4	41	0	986.3	NA	0.0000		9999	2490	3120	0	0
2019/04/20 15:20:00	BASE	6.47	263	10.13	248	-3.0	78	-6.4	41	0	986.3	NA	0.0000		9999	2560	0	0	0
2019/04/20 15:21:00	BASE	6.88	261	9.62	260	-3.0	78	-6.3	42	0	986.3	NA	0.0000		9999	2430	0	0	0
2019/04/20 15:22:00	BASE	8.45	246	10.19	233	-2.9	78	-6.2	43	0	986.3	NA	0.0000		9999	2460	0	0	0
2019/04/20 15:23:00	BASE	9.05	238	11.16	237	-2.9	79	-6.1	43	0	986.3	NA	0.0000		9999	2400	0	0	0
2019/04/20 15:24:00	BASE	9.14	242	11.16	237	-2.9	79	-6.1	43	0	986.3	NA	0.0000		9999	2430	0	0	0
2019/04/20 15:25:00	BASE	8.93	247	11.16	237	-2.9	79	-6.1	44	0	986.3	NA	0.0000		9999	2490	0	0	0
2019/04/20 15:26:00	BASE	8.58	252	11.16	237	-2.9	79	-6.1	44	0	986.3	NA	0.0000		9999	2530	0	0	0
2019/04/20 15:27:00	BASE	8.33	252	11.16	237	-2.9	78	-6.2	44	0	986.3	NA	0.0000		9999	2490	0	0	0
2019/04/20 15:28:00	BASE	7.73	248	11.16	237	-3.0	78	-6.2	45	0	986.3	NA	0.0000		9999	2400	0	0	0
2019/04/20 15:29:00	BASE	6.55	251	11.16	237	-3.0	78	-6.3	46	0	986.3	NA	0.0000		9999	2460	0	0	0
2019/04/20 15:30:00	BASE	5.56	254	11.16	237	-3.0	78	-6.2	49	0	986.3	NA	0.0000		9999	2430	0	0	0
2019/04/20 15:31:00	BASE	5.57	249	11.16	237	-3.0	78	-6.2	50	0	986.3	NA	0.0000		9999	2590	0	0	0
2019/04/20 15:32:00	BASE	6.69	252	11.16	237	-2.9	79	-6.1	49	0	986.3	NA	0.0000		9999	2560	0	0	0
2019/04/20 15:33:00	BASE	8.48	254	10.34	251	-2.9	79	-6.0	47	0	986.3	NA	0.0000		9999	2490	0	0	0
2019/04/20 15:34:00	BASE	9.29	249	10.34	251	-2.9	79	-6.0	46	0	986.3	NA	0.0000		9999	2490	0	0	0
2019/04/20 15:35:00	BASE	8.10	250	10.34	251	-2.9	79	-6.0	44	0	986.3	NA	0.0000		9999	2360	0	0	0
2019/04/20 15:36:00	BASE	7.43	251	10.34	251	-2.9	79	-6.0	42	0	986.3	NA	0.0000		9999	2360	0	0	0
2019/04/20 15:37:00	BASE	7.77	248	10.34	251	-2.9	79	-6.0	39	0	986.3	NA	0.0000		9999	2260	0	0	0
2019/04/20 15:38:00	BASE	8.13	245	10.34	251	-2.9	79	-6.1	38	0	986.3	NA	0.0000		9999	2230	0	0	0
2019/04/20 15:39:00	BASE	8.05	245	10.34	251	-2.9	79	-6.1	36	0	986.3	NA	0.0000		9999	2170	0	0	0
2019/04/20 15:40:00	BASE	8.48	246	11.16	247	-2.9	79	-6.0	35	0	986.3	NA	0.0000		9999	2330	0	0	0
2019/04/20 15:41:00	BASE	9.30	249	11.16	247	-2.9	79	-6.0	34	0	986.3	NA	0.0000		9999	2330	0	0	0
2019/04/20 15:42:00	BASE	9.63	248	12.45	240	-2.9	79	-5.9	34	0	986.3	NA	0.0000		9999	2300	0	0	0
2019/04/20 15:43:00	BASE	10.56	245	12.55	240	-2.8	80	-5.8	35	0	986.3	NA	0.0000		9999	2360	0	0	0
2019/04/20 15:44:00	BASE	11.03	245	12.55	240	-2.8	80	-5.8	36	0	986.3	NA	0.0000		9999	2530	0	0	0
2019/04/20 15:45:00	BASE	11.07	235	13.32	223	-2.8	81	-5.7	37	0	986.3	NA	0.0000		9999	2360	0	0	0
2019/04/20 15:46:00	BASE	11.77	226	13.84	228	-2.8	81	-5.6	39	0	986.3	NA	0.0000		9999	2400	0	0	0
2019/04/20 15:47:00	BASE	12.24	228	14.20	218	-2.8	81	-5.6	40	0	986.3	NA	0.0000		9999	2430	0	0	0
2019/04/20 15:48:00	BASE	12.86	225	14.30	227	-2.8	81	-5.6	40	0	986.3	NA	0.0000		9999	2530	0	0	0
2019/04/20 15:49:00	BASE	12.97	224	14.30	227	-2.8	81	-5.6	40	0	986.3	NA	0.0000		9999	2560	0	0	0
2019/04/20 15:50:00	BASE	13.41	229	15.64	227	-2.8	81	-5.7	41	0	986.3	NA	0.0000		9999	2660	0	0	0
2019/04/20 15:51:00	BASE	14.08	231	15.64	227	-2.8	80	-5.7	42	0	986.3	NA	0.0000		9999	2530	0	0	0
2019/04/20 15:52:00	BASE	13.52	227	15.64	227	-2.8	80	-5.8	43	0	986.3	NA	0.0000		9999	2430	0	0	0
2019/04/20 15:53:00	BASE	13.00	227	15.64	227	-2.8	79	-6.0	45	0	986.3	NA	0.0000		9999	2590	0	0	0
2019/04/20 15:54:00	BASE	12.87	229	15.64	227	-2.8	78	-6.1	46	0	986.4	NA	0.0000		9999	2690	0	0	0
2019/04/20 15:55:00	BASE	13.34	224	15.64	227	-2.8	78	-6.2	47	0	986.4	NA	0.0000		9999	2590	0	0	0
2019/04/20 15:56:00	BASE	12.92	223	15.64	227	-2.8	77	-6.3	49	0	986.4	NA	0.0000		9999	2490	0	0	0
2019/04/20 15:57:00	BASE	11.69	225	15.64	227	-2.8	76	-6.4	49	0	986.5	NA	0.0000		9999	2850	0	0	0
2019/04/20 15:58:00	BASE	10.84	223	15.64	227	-2.8	76	-6.5	48	0	986.5	NA	0.0000		9999	2990	0	0	0
2019/04/20 15:59:00	BASE	11.60	223	15.64	227	-2.8	75	-6.5	48	0	986.5	NA	0.0000		9999	2890	0	0	0
2019/04/20 16:00:00	BASE	11.59	232	15.48	230	-2.8	75	-6.6	49	0	986.5	NA	0.0000		9999	2790	0	0	0
2019/04/20 16:01:00	BASE	10.84	238	14.82	230	-2.8	75	-6.6	49	0	986.5	NA	0.0000		9999	2790	0	0	0
2019/04/20 16:02:00	BASE	11.48	235	14.82	230	-2.8	75	-6.6	49	0	986.5	NA	0.0000		9999	2660	0	0	0
2019/04/20 16:03:00	BASE	11.59	238	14.82	230	-2.8	75	-6.6	49	0	986.6	NA	0.0000		9999	2530	0	0	0
2019/04/20 16:04:00	BASE	11.49	237	14.82	230	-2.8	75	-6.6	50	0	986.5	NA	0.0000		9999	2430	0	0	0
2019/04/20 16:05:00	BASE	12.35	231	14.15	231	-2.8	75	-6.6	51	0	986.5	NA	0.0000		9999	2590	0	0	0
2019/04/20 16:06:00	BASE	13.05	227	14.15	231	-2.8	75	-6.7	51	0	986.5	NA	0.0000		9999	2920	0	0	0
2019/04/20 16:07:00	BASE	13.80	224	16.62	223	-2.8	75	-6.7	51	0	986.5	NA	0.0000		9999	2990	0	0	0
2019/04/20 16:08:00	BASE	13.95	225	16.62	223	-2.8	74	-6.7	51	0	986.6	NA	0.0000		9999	2790	0	0	0
2019/04/20 16:09:00	BASE	13.81	225	16.62	223	-2.8	74	-6.7	51	0	986.5	NA	0.0000		9999	2590	0	0	0
2019/04/20 16:10:00	BASE	13.63	224	16.62	223	-2.8	74	-6.7	51	0	986.6	NA	0.0000		9999	2690	0	0	0
2019/04/20 16:11:00	BASE	12.60	226	16.62	223	-2.8	75	-6.6	52	0	986.6	NA	0.0000		9999	2760	0	0	0
2019/04/20 16:12:00	BASE	12.16	228	16.62	223	-2.8	76	-6.5	52	0	986.6	NA	0.0000		9999	2690	0	0	0
2019/04/20 16:13:00	BASE	12.28	232	16.62	223	-2.8	77	-6.3	53	0	986.6	NA	0.0000		9999	2430	0	0	0
2019/04/20 16:14:00	BASE	12.83	239	16.62	223	-2.8	78	-6.1	54	0	986.6	NA	0.0000		9999	2460	0	0	0
2019/04/20 16:15:00	BASE	13.22	241	16.62	223	-2.8	78	-6.0	54	0	986.6	NA	0.0000		9999	2760	0	0	0
2019/04/20 16:16:00	BASE	12.86	236	16.62	223	-2.8	79	-6.0	54	0	986.6	NA	0.0000		9999	2790	0	0	0
2019/04/20 16:17:00	BASE	13.61	231	17.39	235	-2.8	79	-6.0	54	0	986.6	NA	0.0000		9999	2620	0	0	0
2019/04/20 16:18:00	BASE	14.85	232	17.39	235	-2.9	79	-6.0	56	0	986.6	NA	0.0000		9999	2660	0	0	0
2019/04/20 16:19:00	BASE	13.66	232	17.39	235	-2.9	79	-6.0	58	0	986.6	NA	0.0000		9999	2560	0	0	0
2019/04/20 16:20:00	BASE	12.87	228	17.39	235	-2.8	79	-6.0	61	0	986.6	NA	0.0000		9999	2430	0	0	0
2019/04/20 16:21:00	BASE	12.51	232	17.39	235	-2.8	79	-6.0	62	0	986.6	NA	0.0000		9999	2560	0	0	0
2019/04/20 16:22:00	BASE	11.14	240	17.39	235	-2.9	79	-6.0	63	0	986.6	NA	0.0000		9999	2430	0	0	0
2019/04/20 16:23:00	BASE	9.64	243	17.39	235	-2.9	79	-6.1	63	0	986.6	NA	0.0000		9999	2400	0	0	0
2019/04/20 16:24:00	BASE	9.31	246	17.39	235	-2.9	79	-6.1	62	0	986.6	NA	0.0000		9999	2460	0	0	0
2019/04/20 16:25:00	BASE	10.60	246	17.39	235	-3.0	79	-6.2	61	0	986.6	NA	0.0000		9999	2330	0	0	0
2019/04/20 16:26:00	BASE	10.96	245	17.39	235	-3.0	79	-6.2	61	0	986.6	NA	0.0000		9999	2400	0	0	0
2019/04/20 16:27:00	BASE	9.78	245	16.26	235	-3.0	79	-6.2	61	0	986.6	NA	0.0000		9999	2300	0	0	0
2019/04/20 16:28:00	BASE	8.54	241	14.51	226	-3.0	79	-6.1	60	0	986.6	NA	0.0000		9999	2300	0	0	0
2019/04/20 16:29:00	BASE	8.71	237	14.51	226	-3.0	79	-6.1	60	0	986.6	NA	0.0000		9999	2400	0	0	0
2019/04/20 16:30:00	BASE	10.32	237	13.68	233	-3.0	79	-6.1	61	0	986.6	NA	0.0000		9999	2620	0	0	0
2019/04/20 16:31:00	BASE	12.05	234	13.84	226	-2.9	79	-6.1	61	0	986.6	NA	0.0000		9999	2530	0	0	0
2019/04/20 16:32:00	BASE	11.84	230	13.84	226	-2.9	79	-6.1	61	0	986.6	NA	0.0000		9999	2530	0	0	0
2019/04/20 16:33:00	BASE	9.58	235	13.84	226	-2.9	79	-6.1	61	0	986.6	NA	0.0000		9999	2400	0	0	0
2019/04/20 16:34:00	BASE	9.09	238	13.84	226	-2.9	78	-6.2	61	0	986.6	NA	0.0000		9999	2530	0	0	0
2019/04/20 16:35:00	BASE	10.01	237	13.84	226	-2.9	78	-6.2	59	0	986.6	NA	0.0000		9999	2300	0	0	0
2019/04/20 16:36:00	BASE	9.75	244	13.84	226	-2.9	78	-6.2	58	0	986.6	NA	0.0000		9999	2300	2920	0	0
2019/04/20 16:37:00	BASE	10.69	246	14.15	253	-2.9	78	-6.2	57	0	986.6	NA	0.0000		9999	2360	2850	0	0
2019/04/20 16:38:00	BASE	11.13	247	14.15	253	-2.9	78	-6.2	57	0	986.6	NA	0.0000		9999	2330	0	0	0
2019/04/20 16:39:00	BASE	11.23	249	14.92	247	-2.9	79	-6.1	57	0	986.6	NA	0.0000		9999	2300	0	0	0
2019/04/20 16:40:00	BASE	12.49	246	14.92	247	-2.9	79	-6.0	56	0	986.6	NA	0.0000		9999	2400	0	0	0
2019/04/20 16:41:00	BASE	11.57	242	14.92	247	-2.9	80	-6.0	55	0	986.6	NA	0.0000		9999	2230	0	0	0
2019/04/20 16:42:00	BASE	9.85	242	14.92	247	-2.9	80	-5.9	55	0	986.6	NA	0.0000		9999	2260	0	0	0
2019/04/20 16:43:00	BASE	10.30	239	14.92	247	-2.9	80	-5.9	55	0	986.6	NA	0.0000		9999	2460	0	0	0
2019/04/20 16:44:00	BASE	11.41	234	14.92	247	-2.9	80	-5.8	54	0	986.6	NA	0.0000		9999	2460	0	0	0
2019/04/20 16:45:00	BASE	12.35	236	14.92	247	-2.9	80	-5.8	54	0	986.6	NA	0.0000		9999	2530	0	0	0
2019/04/20 16:46:00	BASE	12.74	233	14.92	247	-2.9	81	-5.7	54	0	986.6	NA	0.0000		9999	2330	0	0	0
2019/04/20 16:47:00	BASE	11.60	231	14.92	247	-2.9	81	-5.7	53	0	986.7	NA	0.0000		9999	2230	0	0	0
2019/04/20 16:48:00	BASE	10.64	235	14.92	247	-2.9	81	-5.7	53	0	986.7	NA	0.0000		9999	2230	0	0	0
2019/04/20 16:49:00	BASE	9.64	242	14.76	248	-2.9	81	-5.7	52	0	986.7	NA	0.0000		9999	2260	0	0	0
2019/04/20 16:50:00	BASE	9.97	248	14.04	240	-2.9	81	-5.7	52	0	986.7	NA	0.0000		9999	2130	0	0	0
2019/04/20 16:51:00	BASE	10.77	243	14.04	240	-2.9	81	-5.7	53	0	986.6	NA	0.0000		9999	2360	0	0	0
2019/04/20 16:52:00	BASE	11.99	232	15.48	227	-2.9	81	-5.7	54	0	986.6	NA	0.0000		9999	2760	0	0	0
2019/04/20 16:53:00	BASE	12.23	229	15.48	227	-2.9	81	-5.6	56	0	986.7	NA	0.0000		9999	2920	0	0	0
2019/04/20 16:54:00	BASE	11.15	225	15.48	227	-2.9	82	-5.6	57	0	986.6	NA	0.0000		9999	2920	0	0	0
2019/04/20 16:55:00	BASE	11.85	226	15.48	227	-2.8	82	-5.5	57	0	986.6	NA	0.0000		9999	2170	0	0	0
2019/04/20 16:56:00	BASE	11.43	234	15.48	227	-2.8	82	-5.4	57	0	986.7	NA	0.0000		9999	2430	0	0	0
2019/04/20 16:57:00	BASE	11.03	238	15.48	227	-2.8	82	-5.4	58	0	986.7	NA	0.0000		9999	2560	0	0	0
2019/04/20 16:58:00	BASE	12.26	237	15.48	227	-2.7	82	-5.4	58	0	986.7	NA	0.0000		9999	2660	0	0	0
2019/04/20 16:59:00	BASE	13.55	235	16.67	233	-2.8	82	-5.4	57	0	986.7	NA	0.0000		9999	2620	0	0	0
2019/04/20 17:00:00	BASE	12.22	232	16.67	233	-2.8	82	-5.5	56	0	986.8	NA	0.0000		9999	2560	0	0	0
2019/04/20 17:01:00	BASE	10.13	232	16.67	233	-2.9	81	-5.6	54	0	986.8	NA	0.0000		9999	2490	0	0	0
2019/04/20 17:02:00	BASE	9.73	236	16.67	233	-3.0	81	-5.8	53	0	986.8	NA	0.0000		9999	2460	0	0	0
2019/04/20 17:03:01	BASE	9.44	238	16.67	233	-3.0	80	-5.9	53	0	986.8	NA	0.0000		9999	2490	0	0	0
2019/04/20 17:04:01	BASE	9.06	243	16.67	233	-3.0	80	-6.0	53	0	986.8	NA	0.0000		9999	2430	0	0	0
2019/04/20 17:05:01	BASE	9.78	250	16.67	233	-2.9	79	-6.0	53	0	986.8	NA	0.0000		9999	2530	0	0	0
2019/04/20 17:06:01	BASE	11.01	250	16.67	233	-2.9	79	-6.0	54	0	986.8	NA	0.0000		9999	2560	0	0	0
2019/04/20 17:07:01	BASE	11.17	244	16.67	233	-2.9	80	-5.9	55	0	986.8	NA	0.0000		9999	2690	0	0	0
2019/04/20 17:08:01	BASE	10.49	240	16.67	233	-2.9	80	-5.9	56	0	986.8	NA	0.0000		9999	2490	0	0	0
2019/04/20 17:09:01	BASE	11.12	239	13.38	244	-2.9	80	-5.9	58	0	986.8	NA	0.0000		9999	2400	0	0	0
2019/04/20 17:10:01	BASE	10.67	237	13.38	244	-2.9	80	-5.9	59	0	986.9	NA	0.0000		9999	2720	0	0	0
2019/04/20 17:11:01	BASE	8.82	236	13.38	244	-2.9	79	-6.0	61	0	987.0	NA	0.0000		9999	2850	0	0	0
2019/04/20 17:12:01	BASE	8.07	240	13.38	244	-2.9	79	-6.1	66	0	987.0	NA	0.0000		9999	2890	0	0	0
2019/04/20 17:13:01	BASE	8.18	246	13.38	244	-3.0	78	-6.2	72	0	986.9	NA	0.0000		9999	2920	0	0	0
2019/04/20 17:14:01	BASE	10.20	242	13.68	242	-3.0	77	-6.4	78	0	986.9	NA	0.0000		9999	2890	0	0	0
2019/04/20 17:15:01	BASE	11.57	238	13.68	242	-3.0	76	-6.6	79	0	986.9	NA	0.0000		9999	2920	0	0	0
2019/04/20 17:16:01	BASE	10.91	236	13.68	242	-3.0	75	-6.7	79	0	987.0	NA	0.0000		9999	2950	0	0	0
2019/04/20 17:17:01	BASE	10.14	236	13.68	242	-3.0	74	-6.9	78	0	987.0	NA	0.0000		9999	2990	21720	0	0
2019/04/20 17:18:01	BASE	10.01	239	13.68	242	-2.9	74	-7.0	77	0	987.0	NA	0.0000		9999	2890	0	0	0
2019/04/20 17:19:01	BASE	9.84	238	13.68	242	-2.9	73	-7.1	76	0	987.0	NA	0.0000		9999	2920	0	0	0
2019/04/20 17:20:01	BASE	10.24	240	13.68	242	-2.9	73	-7.1	76	0	987.0	NA	0.0000		9999	2820	0	0	0
2019/04/20 17:21:01	BASE	10.81	244	13.68	242	-2.9	73	-7.1	77	0	987.1	NA	0.0000		9999	2890	0	0	0
2019/04/20 17:22:01	BASE	9.80	249	13.68	242	-2.9	72	-7.2	76	0	987.1	NA	0.0000		9999	2850	0	0	0
2019/04/20 17:23:01	BASE	8.27	252	13.68	242	-2.9	72	-7.2	75	0	987.1	NA	0.0000		9999	2820	0	0	0
2019/04/20 17:24:01	BASE	7.87	248	12.91	239	-2.9	72	-7.3	73	0	987.1	NA	0.0000		9999	2850	0	0	0
2019/04/20 17:25:01	BASE	7.72	246	12.40	240	-2.9	72	-7.3	71	0	987.2	NA	0.0000		9999	2890	0	0	0
2019/04/20 17:26:01	BASE	7.01	251	12.40	240	-2.9	72	-7.3	69	0	987.2	NA	0.0000		9999	2850	0	0	0
2019/04/20 17:27:01	BASE	7.75	250	12.40	240	-2.9	72	-7.2	69	0	987.2	NA	0.0000		9999	2850	0	0	0
2019/04/20 17:28:00	BASE	8.92	248	12.40	240	-2.9	72	-7.2	69	0	987.2	NA	0.0000		9999	2890	0	0	0
2019/04/20 17:29:01	BASE	8.14	244	12.40	240	-2.9	73	-7.1	68	0	987.2	NA	0.0000		9999	2850	0	0	0
2019/04/20 17:30:01	BASE	7.73	238	12.09	241	-2.8	73	-7.0	67	0	987.2	NA	0.0000		9999	2890	0	0	0
2019/04/20 17:31:00	BASE	8.10	241	10.65	250	-2.8	74	-6.9	66	0	987.2	NA	0.0000		9999	2760	0	0	0
2019/04/20 17:32:00	BASE	8.17	243	10.65	250	-2.8	74	-6.8	65	0	987.2	NA	0.0000		9999	2890	0	0	0
2019/04/20 17:33:00	BASE	8.02	244	10.65	250	-2.9	74	-6.8	63	0	987.2	NA	0.0000		9999	2850	0	0	0
2019/04/20 17:34:00	BASE	8.64	244	11.78	243	-2.9	74	-6.8	63	0	987.2	NA	0.0000		9999	2890	0	0	0
2019/04/20 17:35:00	BASE	9.35	242	11.78	243	-2.9	74	-6.9	64	0	987.3	NA	0.0000		9999	2820	0	0	0
2019/04/20 17:36:01	BASE	9.56	241	11.78	243	-2.9	74	-6.9	65	0	987.3	NA	0.0000		9999	2920	0	0	0
2019/04/20 17:37:00	BASE	9.42	244	11.78	243	-2.9	73	-7.0	65	0	987.3	NA	0.0000		9999	2850	0	0	0
2019/04/20 17:38:00	BASE	8.86	247	11.78	243	-2.9	73	-7.1	65	0	987.3	NA	0.0000		9999	2820	0	0	0
2019/04/20 17:39:00	BASE	8.76	245	11.78	243	-2.9	73	-7.1	66	0	987.3	NA	0.0000		9999	2820	0	0	0
2019/04/20 17:40:01	BASE	8.42	239	11.78	243	-2.9	72	-7.2	66	0	987.3	NA	0.0000		9999	2890	0	0	0
2019/04/20 17:41:01	BASE	7.72	234	11.78	243	-2.9	72	-7.2	65	0	987.3	NA	0.0000		9999	3020	0	0	0
2019/04/20 17:42:00	BASE	7.49	236	11.78	243	-2.9	72	-7.3	64	0	987.3	NA	0.0000		9999	2760	0	0	0
2019/04/20 17:43:00	BASE	9.33	236	12.91	226	-2.9	71	-7.3	63	0	987.2	NA	0.0000		9999	2790	0	0	0
2019/04/20 17:44:00	BASE	10.23	234	12.91	226	-2.8	71	-7.3	62	0	987.3	NA	0.0000		9999	2820	0	0	0
2019/04/20 17:45:00	BASE	10.08	236	13.53	238	-2.8	72	-7.2	61	0	987.3	NA	0.0000		9999	2760	0	0	0
2019/04/20 17:46:00	BASE	10.54	236	13.53	238	-2.8	72	-7.1	60	0	987.3	NA	0.0000		9999	2890	0	0	0
2019/04/20 17:47:00	BASE	10.02	239	13.53	238	-2.8	73	-7.0	59	0	987.3	NA	0.0000		9999	2850	0	0	0
2019/04/20 17:48:01	BASE	9.66	241	13.53	238	-2.8	74	-6.9	58	0	987.3	NA	0.0000		9999	2850	0	0	0
2019/04/20 17:49:00	BASE	11.35	237	15.69	231	-2.8	74	-6.8	58	0	987.2	NA	0.0000		9999	2760	0	0	0
2019/04/20 17:50:00	BASE	13.26	232	15.69	231	-2.8	75	-6.6	58	0	987.3	NA	0.0000		9999	2720	0	0	0
2019/04/20 17:51:00	BASE	12.93	232	15.69	231	-2.8	76	-6.5	58	0	987.3	NA	0.0000		9999	2790	0	0	0
2019/04/20 17:52:00	BASE	12.45	233	15.69	231	-2.7	76	-6.3	57	0	987.3	NA	0.0000		9999	2990	0	0	0
2019/04/20 17:53:00	BASE	12.39	236	15.69	231	-2.7	77	-6.2	54	0	987.3	NA	0.0000		9999	2990	23200	0	0
2019/04/20 17:54:00	BASE	11.59	237	15.69	231	-2.8	78	-6.1	50	0	987.3	NA	0.0000		9999	2950	0	0	0
2019/04/20 17:55:00	BASE	10.08	233	15.69	231	-2.8	78	-6.1	45	0	987.3	NA	0.0000		9999	2200	3020	0	0
2019/04/20 17:56:00	BASE	9.54	231	15.69	231	-2.8	78	-6.0	43	0	987.4	NA	0.0000		9999	2690	0	0	0
2019/04/20 17:57:00	BASE	10.28	236	15.69	231	-2.8	79	-6.0	40	0	987.4	NA	0.0000		9999	2820	0	0	0
2019/04/20 17:58:00	BASE	9.87	242	15.69	231	-2.8	79	-5.9	38	0	987.4	NA	0.0000		9999	2490	0	0	0
2019/04/20 17:59:00	BASE	9.50	247	14.56	233	-2.8	80	-5.8	37	0	987.4	NA	0.0000		9999	2330	2950	0	0
2019/04/20 18:00:00	BASE	10.99	248	14.76	259	-2.9	80	-5.8	36	0	987.4	NA	0.0000		9999	2230	0	0	0
2019/04/20 18:01:00	BASE	11.28	238	14.76	259	-2.9	81	-5.7	34	0	987.4	NA	0.0000		9999	2230	0	0	0
2019/04/20 18:02:00	BASE	11.67	233	15.07	236	-2.9	81	-5.7	34	0	987.4	NA	0.0000		9999	2590	0	0	0
2019/04/20 18:03:00	BASE	12.67	233	15.07	236	-2.9	81	-5.7	33	0	987.4	NA	0.0000		9999	2330	0	0	0
2019/04/20 18:04:00	BASE	11.77	231	15.07	236	-2.8	81	-5.7	33	0	987.4	NA	0.0000		9999	2460	24310	0	0
2019/04/20 18:05:00	BASE	11.06	233	15.07	236	-2.8	81	-5.6	32	0	987.5	NA	0.0000		9999	2560	0	0	0
2019/04/20 18:06:00	BASE	9.85	237	15.07	236	-2.8	81	-5.7	31	0	987.5	NA	0.0000		9999	2430	0	0	0
2019/04/20 18:07:00	BASE	8.52	240	15.07	236	-2.9	81	-5.7	30	0	987.6	NA	0.0000		9999	2490	0	0	0
2019/04/20 18:08:00	BASE	8.64	238	15.07	236	-2.9	81	-5.7	29	0	987.6	NA	0.0000		9999	2430	0	0	0
2019/04/20 18:09:00	BASE	9.73	228	15.07	236	-2.9	80	-5.8	29	0	987.6	NA	0.0000		9999	2360	0	0	0
2019/04/20 18:10:00	BASE	10.44	225	15.07	236	-2.9	80	-5.9	29	0	987.6	NA	0.0000		9999	2430	0	0	0
2019/04/20 18:11:00	BASE	10.12	225	15.07	236	-2.9	80	-5.9	29	0	987.6	NA	0.0000		9999	2430	0	0	0
2019/04/20 18:12:00	BASE	10.20	223	14.61	236	-2.9	79	-5.9	29	0	987.6	NA	0.0000		9999	2430	0	0	0
2019/04/20 18:13:00	BASE	10.51	227	12.91	237	-2.8	79	-5.9	30	0	987.6	NA	0.0000		9999	2460	0	0	0
2019/04/20 18:14:00	BASE	10.52	228	12.91	237	-2.8	79	-6.0	31	0	987.6	NA	0.0000		9999	2490	0	0	0
2019/04/20 18:15:00	BASE	10.02	228	12.71	218	-2.8	79	-6.0	31	0	987.7	NA	0.0000		9999	2430	0	0	0
2019/04/20 18:16:00	BASE	9.04	225	12.71	218	-2.8	78	-6.1	32	0	987.7	NA	0.0000		9999	2590	0	0	0
2019/04/20 18:17:00	BASE	8.25	221	12.71	218	-2.9	78	-6.2	32	0	987.7	NA	0.0000		9999	2620	0	0	0
2019/04/20 18:18:00	BASE	8.95	224	12.71	218	-2.9	77	-6.3	33	0	987.7	NA	0.0000		9999	2530	0	0	0
2019/04/20 18:19:00	BASE	9.59	222	11.88	232	-2.9	77	-6.4	33	0	987.7	NA	0.0000		9999	2590	0	0	0
2019/04/20 18:20:00	BASE	9.27	216	11.88	232	-2.9	76	-6.5	33	0	987.7	NA	0.0000		9999	2560	0	0	0
2019/04/20 18:21:00	BASE	9.29	219	11.88	232	-2.9	76	-6.5	31	0	987.7	NA	0.0000		9999	2660	0	0	0
2019/04/20 18:22:00	BASE	10.65	223	13.38	220	-2.8	76	-6.5	29	0	987.6	NA	0.0000		9999	2660	0	0	0
2019/04/20 18:23:00	BASE	12.54	227	14.15	229	-2.8	76	-6.5	28	0	987.6	NA	0.0000		9999	2430	0	0	0
2019/04/20 18:24:00	BASE	11.74	230	14.15	229	-2.8	76	-6.5	28	0	987.7	NA	0.0000		9999	2400	0	0	0
2019/04/20 18:25:00	BASE	10.90	237	14.15	229	-2.8	76	-6.4	28	0	987.7	NA	0.0000		9999	2360	0	0	0
2019/04/20 18:26:00	BASE	11.38	236	15.07	227	-2.8	77	-6.3	30	0	987.7	NA	0.0000		9999	2360	0	0	0
2019/04/20 18:27:00	BASE	12.55	224	15.38	222	-2.8	78	-6.1	31	0	987.6	NA	0.0000		9999	2360	0	0	0
2019/04/20 18:28:00	BASE	13.28	218	15.38	222	-2.8	78	-6.1	31	0	987.7	NA	0.0000		9999	2530	0	0	0
2019/04/20 18:29:00	BASE	12.16	219	15.38	222	-2.9	79	-6.1	30	0	987.7	NA	0.0000		9999	2620	0	0	0
2019/04/20 18:30:00	BASE	10.83	222	15.38	222	-2.9	78	-6.1	29	0	987.8	NA	0.0000		9999	2430	0	0	0
2019/04/20 18:31:00	BASE	10.43	222	15.38	222	-2.9	78	-6.2	29	0	987.8	NA	0.0000		9999	2590	0	0	0
2019/04/20 18:32:00	BASE	11.77	220	15.38	222	-2.9	77	-6.3	29	0	987.8	NA	0.0000		9999	2490	0	0	0
2019/04/20 18:33:00	BASE	13.15	218	15.38	222	-2.8	77	-6.4	29	0	987.8	NA	0.0000		9999	2560	0	0	0
2019/04/20 18:34:00	BASE	13.21	218	15.43	213	-2.8	76	-6.4	31	0	987.8	NA	0.0000		9999	2660	0	0	0
2019/04/20 18:35:00	BASE	13.10	220	15.43	213	-2.8	76	-6.5	31	0	987.8	NA	0.0000		9999	2720	0	0	0
2019/04/20 18:36:00	BASE	12.68	224	15.43	213	-2.8	75	-6.6	32	0	987.8	NA	0.0000		9999	2660	0	0	0
2019/04/20 18:37:00	BASE	11.82	224	15.43	213	-2.8	75	-6.6	33	0	987.8	NA	0.0000		9999	2620	0	0	0
2019/04/20 18:38:00	BASE	12.43	220	15.43	213	-2.8	75	-6.6	33	0	987.8	NA	0.0000		9999	2620	0	0	0
2019/04/20 18:39:00	BASE	12.16	217	15.43	213	-2.8	76	-6.5	33	0	987.9	NA	0.0000		9999	2690	0	0	0
2019/04/20 18:40:00	BASE	11.10	217	15.43	213	-2.8	76	-6.5	32	0	987.9	NA	0.0000		9999	2530	0	0	0
2019/04/20 18:41:00	BASE	10.66	214	15.43	213	-2.8	76	-6.5	31	0	987.9	NA	0.0000		9999	2590	0	0	0
2019/04/20 18:42:00	BASE	10.66	216	15.43	213	-2.8	76	-6.5	29	0	987.9	NA	0.0000		9999	2590	0	0	0
2019/04/20 18:43:00	BASE	10.62	224	15.43	213	-2.8	76	-6.5	27	0	987.9	NA	0.0000		9999	2590	0	0	0
2019/04/20 18:44:00	BASE	9.55	230	14.71	219	-2.8	76	-6.5	26	0	987.9	NA	0.0000		9999	2720	0	0	0
2019/04/20 18:45:00	BASE	9.08	230	13.94	218	-2.8	76	-6.4	25	0	987.9	NA	0.0000		9999	2490	0	0	0
2019/04/20 18:46:00	BASE	9.59	229	13.94	218	-2.8	77	-6.3	25	0	987.9	NA	0.0000		9999	2560	0	0	0
2019/04/20 18:47:00	BASE	10.07	226	13.94	218	-2.8	77	-6.3	24	0	987.9	NA	0.0000		9999	2330	0	0	0
2019/04/20 18:48:00	BASE	10.79	218	12.50	213	-2.8	77	-6.2	23	0	987.9	NA	0.0000		9999	2490	0	0	0
2019/04/20 18:49:00	BASE	11.58	217	13.48	227	-2.8	78	-6.2	23	0	987.9	NA	0.0000		9999	2490	0	0	0
2019/04/20 18:50:00	BASE	12.25	227	14.87	243	-2.8	78	-6.2	23	0	987.9	NA	0.0000		9999	2400	0	0	0
2019/04/20 18:51:00	BASE	13.56	232	16.10	222	-2.8	78	-6.2	22	0	987.9	NA	0.0000		9999	2300	0	0	0
2019/04/20 18:52:00	BASE	14.68	228	16.72	226	-2.8	78	-6.2	21	0	987.9	NA	0.0000		9999	2330	0	0	0
2019/04/20 18:53:00	BASE	15.41	224	16.72	226	-2.8	78	-6.1	21	0	988.0	NA	0.0000		9999	2360	0	0	0
2019/04/20 18:54:00	BASE	15.55	224	16.72	226	-2.8	79	-6.0	21	0	988.0	NA	0.0000		9999	2460	0	0	0
2019/04/20 18:55:00	BASE	14.53	225	16.72	226	-2.8	79	-5.9	21	0	988.0	NA	0.0000		9999	2530	0	0	0
2019/04/20 18:56:00	BASE	13.90	228	16.72	226	-2.8	80	-5.9	20	0	988.0	NA	0.0000		9999	2260	0	0	0
2019/04/20 18:57:00	BASE	13.27	233	16.72	226	-2.8	80	-5.8	20	0	988.0	NA	0.0000		9999	2260	0	0	0
2019/04/20 18:58:00	BASE	12.83	234	16.72	226	-2.8	80	-5.7	20	0	988.1	NA	0.0000		9999	2300	0	0	0
2019/04/20 18:59:00	BASE	13.29	237	16.72	226	-2.9	81	-5.8	20	0	988.1	NA	0.0000		9999	2260	0	0	0
2019/04/20 19:00:00	BASE	13.76	239	16.72	226	-2.9	81	-5.8	20	0	988.1	NA	0.0000		9999	2330	0	0	0
2019/04/20 19:01:00	BASE	13.93	235	17.08	230	-3.0	81	-5.8	20	0	988.1	NA	0.0000		9999	2360	0	0	0
2019/04/20 19:02:00	BASE	14.87	231	17.08	230	-3.0	81	-5.9	20	0	988.1	NA	0.0000		9999	2400	0	0	0
2019/04/20 19:03:00	BASE	14.92	233	17.08	230	-3.0	80	-5.9	19	0	988.1	NA	0.0000		9999	2360	0	0	0
2019/04/20 19:04:00	BASE	13.37	236	17.08	230	-3.0	80	-6.0	19	0	988.1	NA	0.0000		9999	2360	0	0	0
2019/04/20 19:05:00	BASE	13.17	232	17.08	230	-3.0	80	-6.0	18	0	988.2	NA	0.0000		9999	2400	0	0	0
2019/04/20 19:06:00	BASE	14.05	231	17.08	230	-3.0	80	-6.0	18	0	988.1	NA	0.0000		9999	2430	0	0	0
2019/04/20 19:07:00	BASE	14.64	236	17.08	230	-3.0	80	-6.0	18	0	988.2	NA	0.0000		9999	2400	0	0	0
2019/04/20 19:08:00	BASE	14.30	237	17.08	230	-3.0	80	-6.0	18	0	988.2	NA	0.0000		9999	2330	0	0	0
2019/04/20 19:09:16	BASE	12.02	235	17.08	230	-3.0	80	-6.1	18	0	988.3	NA	0.0000		9999	2360	0	0	0
2019/04/20 19:10:00	BASE	11.64	234	17.08	230	-3.1	79	-6.1	18	0	988.2	NA	0.0000		9999	2460	0	0	0
2019/04/20 19:11:00	BASE	13.65	229	16.98	227	-3.1	79	-6.2	17	0	988.2	NA	0.0000		9999	2490	0	0	0
2019/04/20 19:12:00	BASE	13.41	229	16.62	239	-3.1	79	-6.2	17	0	988.3	NA	0.0000		9999	2430	0	0	0
2019/04/20 19:13:00	BASE	12.17	233	16.62	239	-3.1	79	-6.2	17	0	988.3	NA	0.0000		9999	2360	0	0	0
2019/04/20 19:14:00	BASE	11.62	236	16.62	239	-3.1	79	-6.3	16	0	988.3	NA	0.0000		9999	2400	0	0	0
2019/04/20 19:15:00	BASE	12.17	232	16.62	239	-3.1	78	-6.3	16	0	988.3	NA	0.0000		9999	2430	0	0	0
2019/04/20 19:16:00	BASE	12.83	233	16.62	239	-3.0	78	-6.3	16	0	988.3	NA	0.0000		9999	2400	0	0	0
2019/04/20 19:17:00	BASE	12.33	238	16.31	225	-3.1	78	-6.4	16	0	988.3	NA	0.0000		9999	2360	0	0	0
2019/04/20 19:18:00	BASE	12.84	241	16.31	225	-3.1	78	-6.4	17	0	988.3	NA	0.0000		9999	2400	0	0	0
2019/04/20 19:19:00	BASE	11.88	240	16.31	225	-3.1	78	-6.5	17	0	988.4	NA	0.0000		9999	2460	0	0	0
2019/04/20 19:20:00	BASE	11.32	237	16.31	225	-3.1	77	-6.6	17	0	988.3	NA	0.0000		9999	2490	0	0	0
2019/04/20 19:21:00	BASE	12.47	236	15.38	250	-3.1	77	-6.6	17	0	988.3	NA	0.0000		9999	2530	0	0	0
2019/04/20 19:22:00	BASE	12.72	235	15.38	250	-3.1	76	-6.7	17	0	988.3	NA	0.0000		9999	2490	0	0	0
2019/04/20 19:23:00	BASE	12.49	240	15.38	250	-3.1	76	-6.7	18	0	988.4	NA	0.0000		9999	2530	0	0	0
2019/04/20 19:24:00	BASE	12.33	250	15.38	250	-3.1	76	-6.7	19	0	988.4	NA	0.0000		9999	2590	0	0	0
2019/04/20 19:25:00	BASE	12.65	250	15.38	250	-3.1	76	-6.8	19	0	988.4	NA	0.0000		9999	2590	0	0	0
2019/04/20 19:26:00	BASE	12.14	244	15.38	250	-3.1	76	-6.8	19	0	988.4	NA	0.0000		9999	2590	0	0	0
2019/04/20 19:27:00	BASE	11.68	242	15.38	250	-3.1	76	-6.8	19	0	988.4	NA	0.0000		9999	2560	0	0	0
2019/04/20 19:28:00	BASE	12.43	240	15.23	225	-3.1	76	-6.8	20	0	988.4	NA	0.0000		9999	2560	0	0	0
2019/04/20 19:29:00	BASE	12.88	239	15.23	225	-3.1	76	-6.8	20	0	988.4	NA	0.0000		9999	2620	0	0	0
2019/04/20 19:30:00	BASE	12.98	240	15.23	225	-3.1	76	-6.8	20	0	988.5	NA	0.0000		9999	2660	0	0	0
2019/04/20 19:31:00	BASE	13.46	241	15.38	244	-3.2	76	-6.8	20	0	988.5	NA	0.0000		9999	2620	0	0	0
2019/04/20 19:32:00	BASE	13.09	242	15.38	244	-3.2	75	-6.9	20	0	988.5	NA	0.0000		9999	2660	0	0	0
2019/04/20 19:33:00	BASE	12.24	245	15.38	244	-3.2	75	-7.0	19	0	988.5	NA	0.0000		9999	2660	0	0	0
2019/04/20 19:34:00	BASE	11.20	237	15.38	244	-3.2	75	-7.0	20	0	988.5	NA	0.0000		9999	2560	0	0	0
2019/04/20 19:35:00	BASE	11.73	228	15.38	244	-3.1	75	-7.0	20	0	988.5	NA	0.0000		9999	2590	0	0	0
2019/04/20 19:36:00	BASE	13.56	227	15.84	223	-3.1	75	-6.9	21	0	988.5	NA	0.0000		9999	2720	0	0	0
2019/04/20 19:37:00	BASE	14.38	223	16.67	218	-3.1	75	-6.8	21	0	988.5	NA	0.0000		9999	2790	0	0	0
2019/04/20 19:38:00	BASE	15.00	220	16.67	218	-3.0	76	-6.7	21	0	988.5	NA	0.0000		9999	2690	0	0	0
2019/04/20 19:39:00	BASE	13.84	221	16.67	218	-3.0	76	-6.7	20	0	988.5	NA	0.0000		9999	2790	0	0	0
2019/04/20 19:40:00	BASE	12.33	223	16.67	218	-3.1	76	-6.7	20	0	988.5	NA	0.0000		9999	2820	0	0	0
2019/04/20 19:41:00	BASE	13.87	226	16.67	218	-3.1	76	-6.7	20	0	988.5	NA	0.0000		9999	2660	0	0	0
2019/04/20 19:42:00	BASE	15.35	226	16.77	228	-3.1	76	-6.7	20	0	988.5	NA	0.0000		9999	2660	0	0	0
2019/04/20 19:43:00	BASE	15.61	224	17.54	221	-3.1	76	-6.8	20	0	988.5	NA	0.0000		9999	2720	0	0	0
2019/04/20 19:44:00	BASE	14.98	222	17.54	221	-3.1	76	-6.8	20	0	988.5	NA	0.0000		9999	2720	0	0	0
2019/04/20 19:45:00	BASE	12.73	219	17.54	221	-3.1	75	-6.9	19	0	988.5	NA	0.0000		9999	2760	0	0	0
2019/04/20 19:46:00	BASE	13.29	221	17.54	221	-3.2	75	-7.0	19	0	988.5	NA	0.0000		9999	2760	0	0	0
2019/04/20 19:47:00	BASE	15.63	226	17.54	221	-3.2	75	-7.1	18	0	988.5	NA	0.0000		9999	2660	0	0	0
2019/04/20 19:48:00	BASE	15.39	228	17.54	221	-3.2	74	-7.2	18	0	988.5	NA	0.0000		9999	2660	0	0	0
2019/04/20 19:49:00	BASE	13.96	232	17.54	221	-3.2	74	-7.2	17	0	988.5	NA	0.0000		9999	2760	0	0	0
2019/04/20 19:50:00	BASE	12.55	239	17.54	221	-3.2	74	-7.3	16	0	988.6	NA	0.0000		9999	2760	0	0	0
2019/04/20 19:51:00	BASE	11.46	238	17.54	221	-3.3	73	-7.4	16	0	988.6	NA	0.0000		9999	2660	0	0	0
2019/04/20 19:52:00	BASE	10.65	236	17.54	221	-3.3	73	-7.5	16	0	988.6	NA	0.0000		9999	2760	0	0	0
2019/04/20 19:53:00	BASE	10.26	233	16.87	226	-3.3	73	-7.5	15	0	988.7	NA	0.0000		9999	2790	0	0	0
2019/04/20 19:54:00	BASE	10.04	233	16.87	226	-3.3	73	-7.5	15	0	988.7	NA	0.0000		9999	2850	0	0	0
2019/04/20 19:55:00	BASE	9.66	242	16.87	226	-3.4	73	-7.6	14	0	988.7	NA	0.0000		9999	2820	0	0	0
2019/04/20 19:56:00	BASE	9.50	242	16.87	226	-3.4	73	-7.6	14	0	988.7	NA	0.0000		9999	2760	0	0	0
2019/04/20 19:57:00	BASE	8.99	238	16.62	226	-3.4	73	-7.6	13	0	988.7	NA	0.0000		9999	2850	0	0	0
2019/04/20 19:58:00	BASE	9.88	229	14.15	245	-3.4	72	-7.6	12	0	988.7	NA	0.0000		9999	2850	0	0	0
2019/04/20 19:59:00	BASE	10.67	221	13.68	234	-3.4	72	-7.6	11	0	988.7	NA	0.0000		9999	2890	0	0	0
2019/04/20 20:00:00	BASE	10.28	226	13.32	237	-3.3	72	-7.7	10	0	988.7	NA	0.0000		9999	2820	0	0	0
2019/04/20 20:01:00	BASE	12.04	225	15.02	214	-3.3	72	-7.6	10	0	988.7	NA	0.0000		9999	2820	0	0	0
2019/04/20 20:02:00	BASE	13.51	221	15.02	214	-3.3	72	-7.6	9	0	988.7	NA	0.0000		9999	2850	0	0	0
2019/04/20 20:03:00	BASE	12.01	223	15.02	214	-3.3	72	-7.6	9	0	988.7	NA	0.0000		9999	2720	0	0	0
2019/04/20 20:04:00	BASE	10.07	235	15.02	214	-3.3	72	-7.6	8	0	988.7	NA	0.0000		9999	2790	0	0	0
2019/04/20 20:05:00	BASE	10.81	241	15.02	214	-3.3	72	-7.6	8	0	988.7	NA	0.0000		9999	2850	0	0	0
2019/04/20 20:06:00	BASE	11.41	234	15.02	214	-3.3	72	-7.7	7	0	988.7	NA	0.0000		9999	2820	0	0	0
2019/04/20 20:07:00	BASE	10.15	231	15.02	214	-3.3	72	-7.7	7	0	988.7	NA	0.0000		9999	2790	0	0	0
2019/04/20 20:08:00	BASE	9.75	231	15.02	214	-3.3	72	-7.7	7	0	988.7	NA	0.0000		9999	2760	0	0	0
2019/04/20 20:09:00	BASE	11.06	229	15.02	214	-3.3	72	-7.7	6	0	988.7	NA	0.0000		9999	2530	0	0	0
2019/04/20 20:10:00	BASE	13.68	228	17.75	226	-3.3	72	-7.6	6	0	988.6	NA	0.0000		9999	2490	0	0	0
2019/04/20 20:11:00	BASE	13.66	228	17.75	226	-3.3	72	-7.5	6	0	988.7	NA	0.0000		9999	2660	0	0	0
2019/04/20 20:12:00	BASE	12.40	228	17.75	226	-3.2	73	-7.3	6	0	988.7	NA	0.0000		9999	2760	0	0	0
2019/04/20 20:13:00	BASE	14.02	228	18.67	227	-3.2	74	-7.1	6	0	988.6	NA	0.0000		9999	2790	0	0	0
2019/04/20 20:14:00	BASE	15.33	228	18.67	227	-3.2	75	-7.0	6	0	988.7	NA	0.0000		9999	2690	0	0	0
2019/04/20 20:15:00	BASE	13.95	219	18.67	227	-3.3	76	-7.0	6	0	988.7	NA	0.0000		9999	2590	0	0	0
2019/04/20 20:16:00	BASE	11.94	215	18.67	227	-3.3	76	-6.9	5	0	988.7	NA	0.0000		9999	2430	0	0	0
2019/04/20 20:17:00	BASE	10.32	218	18.67	227	-3.4	76	-7.0	5	0	988.8	NA	0.0000		9999	2530	0	0	0
2019/04/20 20:18:00	BASE	9.32	220	18.67	227	-3.4	75	-7.1	5	0	988.9	NA	0.0000		9999	2530	0	0	0
2019/04/20 20:19:00	BASE	7.94	229	18.67	227	-3.4	75	-7.2	5	0	988.9	NA	0.0000		9999	2490	0	0	0
2019/04/20 20:20:00	BASE	6.38	241	18.67	227	-3.4	75	-7.3	4	0	988.9	NA	0.0000		9999	2400	0	0	0
2019/04/20 20:21:00	BASE	7.96	235	18.67	227	-3.4	74	-7.3	4	0	988.8	NA	0.0000		9999	2560	0	0	0
2019/04/20 20:22:00	BASE	12.51	223	18.67	227	-3.4	75	-7.2	4	0	988.7	NA	0.0000		9999	2460	0	0	0
2019/04/20 20:23:00	BASE	14.57	226	17.95	228	-3.3	75	-7.1	4	0	988.7	NA	0.0000		9999	2560	0	0	0
2019/04/20 20:24:00	BASE	12.95	235	16.05	228	-3.3	75	-7.0	4	0	988.8	NA	0.0000		9999	2590	0	0	0
2019/04/20 20:25:00	BASE	12.59	241	16.20	231	-3.3	76	-7.0	4	0	988.7	NA	0.0000		9999	2560	0	0	0
2019/04/20 20:26:00	BASE	12.61	233	16.20	231	-3.3	76	-7.0	4	0	988.8	NA	0.0000		9999	2590	0	0	0
2019/04/20 20:27:00	BASE	12.83	224	16.57	225	-3.3	76	-7.0	4	0	988.8	NA	0.0000		9999	2560	0	0	0
2019/04/20 20:28:00	BASE	13.21	222	16.57	225	-3.3	76	-7.0	4	0	988.9	NA	0.0000		9999	2660	0	0	0
2019/04/20 20:29:00	BASE	13.54	224	16.72	225	-3.4	75	-7.1	4	0	988.9	NA	0.0000		9999	2560	0	0	0
2019/04/20 20:30:00	BASE	12.37	232	16.72	225	-3.4	75	-7.1	3	0	988.9	NA	0.0000		9999	2620	0	0	0
2019/04/20 20:31:00	BASE	10.40	238	16.72	225	-3.4	75	-7.2	3	0	989.0	NA	0.0000		9999	2720	0	0	0
2019/04/20 20:32:00	BASE	10.78	238	16.72	225	-3.4	75	-7.3	3	0	989.0	NA	0.0000		9999	2690	0	0	0
2019/04/20 20:33:00	BASE	11.37	237	16.72	225	-3.4	74	-7.3	3	0	989.0	NA	0.0000		9999	2720	0	0	0
2019/04/20 20:34:00	BASE	11.26	237	16.72	225	-3.5	74	-7.4	3	0	989.0	NA	0.0000		9999	2760	0	0	0
2019/04/20 20:35:00	BASE	10.78	239	16.72	225	-3.4	74	-7.5	3	0	989.0	NA	0.0000		9999	2760	0	0	0
2019/04/20 20:36:00	BASE	11.27	240	16.72	225	-3.4	73	-7.5	2	0	989.0	NA	0.0000		9999	2690	0	0	0
2019/04/20 20:37:00	BASE	11.67	240	16.72	225	-3.4	73	-7.5	2	0	989.1	NA	0.0000		9999	2760	0	0	0
2019/04/20 20:38:00	BASE	11.86	237	16.72	225	-3.4	73	-7.6	2	0	989.1	NA	0.0000		9999	2760	0	0	0
2019/04/20 20:39:00	BASE	12.79	232	15.28	231	-3.4	73	-7.5	2	0	989.1	NA	0.0000		9999	2760	0	0	0
2019/04/20 20:40:00	BASE	12.44	229	15.38	227	-3.4	73	-7.5	2	0	989.1	NA	0.0000		9999	2660	0	0	0
2019/04/20 20:41:00	BASE	10.36	229	15.38	227	-3.5	73	-7.6	2	0	989.1	NA	0.0000		9999	2690	0	0	0
2019/04/20 20:42:00	BASE	9.56	229	15.38	227	-3.5	73	-7.6	2	0	989.1	NA	0.0000		9999	2820	0	0	0
2019/04/20 20:43:00	BASE	10.06	228	15.38	227	-3.4	73	-7.6	2	0	989.1	NA	0.0000		9999	2720	0	0	0
2019/04/20 20:44:00	BASE	10.53	235	15.38	227	-3.4	73	-7.6	2	0	989.1	NA	0.0000		9999	2790	0	0	0
2019/04/20 20:45:00	BASE	12.30	236	15.38	227	-3.4	73	-7.6	1	0	989.1	NA	0.0000		9999	2820	0	0	0
2019/04/20 20:46:00	BASE	11.84	234	15.38	227	-3.4	73	-7.6	1	0	989.1	NA	0.0000		9999	2660	0	0	0
2019/04/20 20:47:00	BASE	10.09	232	15.38	227	-3.4	73	-7.6	1	0	989.1	NA	0.0000		9999	2660	0	0	0
2019/04/20 20:48:00	BASE	9.50	226	15.38	227	-3.4	73	-7.6	1	0	989.1	NA	0.0000		9999	2690	0	0	0
2019/04/20 20:49:00	BASE	9.64	223	15.38	227	-3.4	72	-7.7	1	0	989.1	NA	0.0000		9999	2560	0	0	0
2019/04/20 20:50:00	BASE	9.47	225	14.51	228	-3.4	72	-7.7	1	0	989.1	NA	0.0000		9999	2620	0	0	0
2019/04/20 20:51:00	BASE	8.38	224	14.51	228	-3.4	72	-7.7	1	0	989.1	NA	0.0000		9999	2560	0	0	0
2019/04/20 20:52:00	BASE	8.40	224	14.51	228	-3.4	72	-7.6	1	0	989.1	NA	0.0000		9999	2560	0	0	0
2019/04/20 20:53:00	BASE	9.18	224	14.51	228	-3.4	73	-7.6	1	0	989.1	NA	0.0000		9999	2760	0	0	0
2019/04/20 20:54:00	BASE	10.89	222	14.51	228	-3.3	73	-7.5	1	0	989.1	NA	0.0000		9999	2760	0	0	0
2019/04/20 20:55:00	BASE	11.33	220	13.02	220	-3.3	73	-7.5	1	0	989.2	NA	0.0000		9999	2660	0	0	0
2019/04/20 20:56:00	BASE	11.37	220	13.38	220	-3.3	73	-7.5	1	0	989.2	NA	0.0000		9999	2620	0	0	0
2019/04/20 20:57:00	BASE	12.98	226	15.07	234	-3.3	73	-7.5	1	0	989.2	NA	0.0000		9999	2760	0	0	0
2019/04/20 20:58:00	BASE	12.87	232	15.07	234	-3.3	73	-7.5	1	0	989.2	NA	0.0000		9999	2850	0	0	0
2019/04/20 20:59:00	BASE	11.29	236	15.07	234	-3.3	73	-7.5	1	0	989.3	NA	0.0000		9999	2890	0	0	0
2019/04/20 21:00:01	BASE	11.10	237	15.07	234	-3.4	72	-7.6	0	0	989.3	NA	0.0000		9999	2890	0	0	0
2019/04/20 21:01:01	BASE	11.30	227	15.07	234	-3.4	72	-7.7	0	0	989.4	NA	0.0000		9999	2850	0	0	0
2019/04/20 21:02:01	BASE	10.37	218	15.07	234	-3.4	72	-7.7	0	0	989.4	NA	0.0000		9999	2920	0	0	0
2019/04/20 21:03:01	BASE	9.89	217	15.07	234	-3.4	72	-7.7	0	0	989.4	NA	0.0000		9999	2950	0	0	0
2019/04/20 21:04:01	BASE	10.39	219	15.07	234	-3.4	72	-7.7	0	0	989.4	NA	0.0000		9999	2790	0	0	0
2019/04/20 21:05:01	BASE	8.79	221	15.07	234	-3.4	72	-7.7	0	0	989.4	NA	0.0000		9999	2590	0	0	0
2019/04/20 21:06:01	BASE	7.33	224	15.07	234	-3.4	72	-7.7	0	0	989.4	NA	0.0000		9999	2660	0	0	0
2019/04/20 21:07:01	BASE	7.69	233	14.92	228	-3.3	72	-7.7	0	0	989.4	NA	0.0000		9999	2530	0	0	0
2019/04/20 21:08:01	BASE	8.00	232	14.92	228	-3.3	72	-7.7	0	0	989.3	NA	0.0000		9999	2490	0	0	0
2019/04/20 21:09:01	BASE	9.53	228	14.92	228	-3.3	72	-7.7	0	0	989.3	NA	0.0000		9999	2430	0	0	0
2019/04/20 21:10:01	BASE	11.91	232	16.00	226	-3.3	72	-7.6	0	0	989.2	NA	0.0000		9999	2490	0	0	0
2019/04/20 21:11:01	BASE	13.69	233	16.67	230	-3.3	73	-7.5	0	0	989.2	NA	0.0000		9999	2530	0	0	0
2019/04/20 21:12:01	BASE	14.04	230	16.67	221	-3.3	74	-7.3	0	0	989.2	NA	0.0000		9999	2560	0	0	0
2019/04/20 21:13:01	BASE	14.21	232	16.67	221	-3.3	74	-7.2	0	0	989.3	NA	0.0000		9999	2590	0	0	0
2019/04/20 21:14:01	BASE	13.62	238	16.67	221	-3.3	75	-7.2	0	0	989.3	NA	0.0000		9999	2490	0	0	0
2019/04/20 21:15:01	BASE	12.31	240	16.67	221	-3.4	75	-7.2	0	0	989.4	NA	0.0000		9999	2590	0	0	0
2019/04/20 21:16:01	BASE	12.53	236	16.67	221	-3.4	75	-7.2	0	0	989.3	NA	0.0000		9999	2620	0	0	0
2019/04/20 21:17:01	BASE	12.58	235	16.67	221	-3.4	75	-7.2	0	0	989.4	NA	0.0000		9999	2620	0	0	0
2019/04/20 21:18:01	BASE	11.94	237	16.67	221	-3.4	75	-7.2	0	0	989.4	NA	0.0000		9999	2400	0	0	0
2019/04/20 21:19:01	BASE	10.66	233	16.67	221	-3.5	75	-7.3	0	0	989.4	NA	0.0000		9999	2460	0	0	0
2019/04/20 21:20:01	BASE	8.82	233	16.67	221	-3.5	75	-7.3	0	0	989.4	NA	0.0000		9999	2530	0	0	0
2019/04/20 21:21:01	BASE	8.36	228	16.67	221	-3.5	74	-7.4	0	0	989.4	NA	0.0000		9999	2530	0	0	0
2019/04/20 21:22:01	BASE	8.09	230	16.31	227	-3.5	74	-7.4	0	0	989.4	NA	0.0000		9999	2460	0	0	0
2019/04/20 21:23:00	BASE	8.15	236	13.99	231	-3.5	74	-7.4	0	0	989.4	NA	0.0000		9999	2400	0	0	0
2019/04/20 21:24:00	BASE	9.30	231	13.99	231	-3.5	74	-7.4	0	0	989.4	NA	0.0000		9999	2460	0	0	0
2019/04/20 21:25:00	BASE	10.69	229	13.99	231	-3.4	75	-7.3	0	0	989.4	NA	0.0000		9999	2560	0	0	0
2019/04/20 21:26:00	BASE	11.73	234	13.32	228	-3.4	75	-7.2	0	0	989.3	NA	0.0000		9999	2660	0	0	0
2019/04/20 21:27:00	BASE	12.27	237	14.76	238	-3.4	75	-7.2	0	0	989.3	NA	0.0000		9999	2590	0	0	0
2019/04/20 21:28:00	BASE	12.17	238	14.76	238	-3.5	75	-7.2	0	0	989.4	NA	0.0000		9999	2620	0	0	0
2019/04/20 21:29:00	BASE	11.42	237	14.76	238	-3.5	75	-7.3	0	0	989.4	NA	0.0000		9999	2660	0	0	0
2019/04/20 21:30:00	BASE	10.39	241	14.76	238	-3.6	75	-7.4	0	0	989.4	NA	0.0000		9999	2590	0	0	0
2019/04/20 21:31:00	BASE	10.03	238	14.76	238	-3.6	74	-7.5	0	0	989.4	NA	0.0000		9999	2620	0	0	0
2019/04/20 21:32:00	BASE	11.31	225	14.76	238	-3.6	74	-7.5	0	0	989.4	NA	0.0000		9999	2560	0	0	0
2019/04/20 21:33:00	BASE	11.10	217	14.76	238	-3.6	74	-7.5	0	0	989.5	NA	0.0000		9999	2660	0	0	0
2019/04/20 21:34:00	BASE	10.06	216	14.76	238	-3.5	74	-7.5	0	0	989.5	NA	0.0000		9999	2660	0	0	0
2019/04/20 21:35:00	BASE	10.90	220	14.76	238	-3.5	74	-7.5	0	0	989.5	NA	0.0000		9999	2660	0	0	0
2019/04/20 21:36:00	BASE	12.19	227	14.76	238	-3.5	74	-7.4	0	0	989.4	NA	0.0000		9999	2660	0	0	0
2019/04/20 21:37:00	BASE	11.03	233	14.30	238	-3.5	74	-7.4	0	0	989.5	NA	0.0000		9999	2530	0	0	0
2019/04/20 21:38:00	BASE	10.61	236	14.46	243	-3.5	74	-7.5	0	0	989.5	NA	0.0000		9999	2490	0	0	0
2019/04/20 21:39:00	BASE	12.09	240	14.46	243	-3.5	74	-7.5	0	0	989.5	NA	0.0000		9999	2620	0	0	0
2019/04/20 21:40:00	BASE	12.86	240	15.84	237	-3.6	74	-7.6	0	0	989.5	NA	0.0000		9999	2660	0	0	0
2019/04/20 21:41:00	BASE	13.62	239	15.84	237	-3.6	74	-7.6	0	0	989.5	NA	0.0000		9999	2560	0	0	0
2019/04/20 21:42:00	BASE	12.30	240	15.84	237	-3.7	74	-7.7	0	0	989.6	NA	0.0000		9999	2560	0	0	0
2019/04/20 21:43:00	BASE	10.03	243	15.84	237	-3.7	73	-7.8	0	0	989.6	NA	0.0000		9999	2430	0	0	0
2019/04/20 21:44:00	BASE	8.43	246	15.84	237	-3.8	73	-7.9	0	0	989.6	NA	0.0000		9999	2490	0	0	0
2019/04/20 21:45:00	BASE	7.71	243	15.84	237	-3.8	73	-7.9	0	0	989.6	NA	0.0000		9999	2490	0	0	0
2019/04/20 21:46:00	BASE	8.14	238	15.84	237	-3.8	73	-8.0	0	0	989.6	NA	0.0000		9999	2530	0	0	0
2019/04/20 21:47:00	BASE	9.13	235	15.84	237	-3.8	73	-8.0	0	0	989.6	NA	0.0000		9999	2490	0	0	0
2019/04/20 21:48:00	BASE	10.53	238	15.84	237	-3.7	73	-7.9	0	0	989.6	NA	0.0000		9999	2530	0	0	0
2019/04/20 21:49:00	BASE	11.54	245	15.84	237	-3.7	73	-7.8	0	0	989.6	NA	0.0000		9999	2530	0	0	0
2019/04/20 21:50:00	BASE	11.02	250	14.82	239	-3.7	74	-7.7	0	0	989.7	NA	0.0000		9999	2400	0	0	0
2019/04/20 21:51:00	BASE	10.07	250	13.12	245	-3.7	75	-7.5	0	0	989.7	NA	0.0000		9999	2330	0	0	0
2019/04/20 21:52:00	BASE	9.17	251	13.12	245	-3.7	75	-7.5	0	0	989.7	NA	0.0000		9999	2330	0	0	0
2019/04/20 21:53:00	BASE	8.57	254	13.12	245	-3.8	76	-7.5	0	0	989.7	NA	0.0000		9999	2360	0	0	0
2019/04/20 21:54:00	BASE	8.24	252	13.12	245	-3.8	76	-7.4	0	0	989.7	NA	0.0000		9999	2360	0	0	0
2019/04/20 21:55:00	BASE	7.94	250	13.12	245	-3.8	76	-7.4	0	0	989.7	NA	0.0000		9999	2400	0	0	0
2019/04/20 21:56:00	BASE	9.10	247	13.12	245	-3.8	76	-7.4	0	0	989.7	NA	0.0000		9999	2430	0	0	0
2019/04/20 21:57:00	BASE	10.88	239	13.12	226	-3.8	76	-7.3	0	0	989.7	NA	0.0000		9999	2430	0	0	0
2019/04/20 21:58:00	BASE	12.12	233	13.27	232	-3.8	77	-7.3	0	0	989.7	NA	0.0000		9999	2430	0	0	0
2019/04/20 21:59:00	BASE	11.28	230	13.27	232	-3.7	77	-7.2	0	0	989.8	NA	0.0000		9999	2400	0	0	0
2019/04/20 22:00:00	BASE	9.72	231	13.27	232	-3.7	77	-7.1	0	0	989.8	NA	0.0000		9999	2460	0	0	0
2019/04/20 22:01:00	BASE	9.47	229	13.27	232	-3.7	77	-7.1	0	0	989.8	NA	0.0000		9999	2330	0	0	0
2019/04/20 22:02:00	BASE	9.28	232	13.27	232	-3.7	77	-7.1	0	0	989.8	NA	0.0000		9999	2260	0	0	0
2019/04/20 22:03:00	BASE	8.05	238	13.27	232	-3.7	77	-7.1	0	0	989.8	NA	0.0000		9999	2170	0	0	0
2019/04/20 22:04:00	BASE	7.04	235	13.27	232	-3.7	77	-7.1	0	0	989.8	NA	0.0000		9999	2200	0	0	0
2019/04/20 22:05:00	BASE	6.49	235	13.27	232	-3.7	77	-7.2	0	0	989.8	NA	0.0000		9999	2170	0	0	0
2019/04/20 22:06:00	BASE	5.49	242	13.27	232	-3.7	77	-7.2	0	0	989.9	NA	0.0000		9999	2100	0	0	0
2019/04/20 22:07:00	BASE	5.90	245	13.27	232	-3.8	77	-7.2	0	0	989.8	NA	0.0000		9999	2130	0	0	0
2019/04/20 22:08:00	BASE	8.49	234	12.35	221	-3.7	77	-7.2	0	0	989.8	NA	0.0000		9999	2260	0	0	0
2019/04/20 22:09:00	BASE	10.24	225	13.27	227	-3.7	77	-7.1	0	0	989.8	NA	0.0000		9999	2030	0	0	0
2019/04/20 22:10:00	BASE	10.33	233	13.27	227	-3.6	78	-7.0	0	0	989.9	NA	0.0000		9999	2170	0	0	0
2019/04/20 22:11:00	BASE	9.73	245	13.27	227	-3.6	78	-6.8	0	0	989.9	NA	0.0000		9999	2100	0	0	0
2019/04/20 22:12:00	BASE	8.64	248	13.27	227	-3.6	79	-6.7	0	0	989.9	NA	0.0000		9999	2260	0	0	0
2019/04/20 22:13:00	BASE	7.95	243	13.27	227	-3.5	79	-6.7	0	0	989.9	NA	0.0000		9999	2260	0	0	0
2019/04/20 22:14:00	BASE	7.42	240	13.27	227	-3.5	79	-6.6	0	0	989.9	NA	0.0000		9999	2200	0	0	0
2019/04/20 22:15:00	BASE	8.16	246	13.27	227	-3.5	79	-6.6	0	0	989.9	NA	0.0000		9999	2260	0	0	0
2019/04/20 22:16:00	BASE	9.88	247	13.27	227	-3.5	80	-6.5	0	0	989.9	NA	0.0000		9999	2130	0	0	0
2019/04/20 22:17:00	BASE	9.78	240	13.27	227	-3.5	80	-6.5	0	0	989.9	NA	0.0000		9999	2130	0	0	0
2019/04/20 22:18:00	BASE	9.74	239	13.27	227	-3.5	80	-6.4	0	0	989.9	NA	0.0000		9999	2130	0	0	0
2019/04/20 22:19:00	BASE	10.68	241	13.07	244	-3.5	80	-6.4	0	0	989.9	NA	0.0000		9999	2130	0	0	0
2019/04/20 22:20:00	BASE	11.62	246	14.51	244	-3.5	80	-6.4	0	0	989.8	NA	0.0000		9999	2000	0	0	0
2019/04/20 22:21:00	BASE	12.95	246	15.02	224	-3.5	81	-6.3	0	0	989.8	NA	0.0000		9999	2070	0	0	0
2019/04/20 22:22:00	BASE	12.95	237	15.02	224	-3.4	81	-6.2	0	0	989.8	NA	0.0000		9999	2030	0	0	0
2019/04/20 22:23:00	BASE	11.66	237	15.02	224	-3.4	81	-6.1	0	0	989.9	NA	0.0000		9999	2100	0	0	0
2019/04/20 22:24:00	BASE	11.37	246	15.02	224	-3.4	82	-6.1	0	0	989.9	NA	0.0000		9999	1970	0	0	0
2019/04/20 22:25:00	BASE	11.68	250	15.02	224	-3.4	82	-6.0	0	0	989.9	NA	0.0000		9999	2000	0	0	0
2019/04/20 22:26:00	BASE	12.20	249	15.84	252	-3.4	82	-6.0	0	0	989.9	NA	0.0000		9999	1970	0	0	0
2019/04/20 22:27:00	BASE	13.20	244	15.95	248	-3.5	83	-6.0	0	0	990.0	NA	0.0000		9999	2030	0	0	0
2019/04/20 22:28:00	BASE	12.64	237	15.95	248	-3.5	83	-6.0	0	0	990.0	NA	0.0000		9999	2100	0	0	0
2019/04/20 22:29:00	BASE	11.05	234	15.95	248	-3.5	83	-6.0	0	0	990.1	NA	0.0000		9999	2070	0	0	0
2019/04/20 22:30:00	BASE	11.30	232	15.95	248	-3.5	83	-5.9	0	0	990.1	NA	0.0000		9999	2230	0	0	0
2019/04/20 22:31:00	BASE	12.50	230	15.95	248	-3.4	83	-5.9	0	0	990.1	NA	0.0000		9999	2300	0	0	0
2019/04/20 22:32:00	BASE	11.75	234	15.95	248	-3.4	83	-5.8	0	0	990.2	NA	0.0000		9999	2170	0	0	0
2019/04/20 22:33:00	BASE	11.16	239	15.95	248	-3.4	83	-5.8	0	0	990.2	NA	0.0000		9999	2130	0	0	0
2019/04/20 22:34:00	BASE	10.88	238	15.95	248	-3.5	83	-5.9	0	0	990.2	NA	0.0000		9999	2360	0	0	0
2019/04/20 22:35:00	BASE	10.16	236	15.95	248	-3.5	83	-5.9	0	0	990.2	NA	0.0000		9999	2330	0	0	0
2019/04/20 22:36:00	BASE	11.50	240	15.95	248	-3.6	83	-6.0	0	0	990.2	NA	0.0000		9999	2070	0	0	0
2019/04/20 22:37:00	BASE	11.49	242	14.61	218	-3.6	83	-6.1	0	0	990.2	NA	0.0000		9999	2130	0	0	0
2019/04/20 22:38:00	BASE	11.15	241	14.61	218	-3.6	83	-6.1	0	0	990.2	NA	0.0000		9999	2130	0	0	0
2019/04/20 22:39:00	BASE	11.44	243	14.51	221	-3.6	83	-6.1	0	0	990.3	NA	0.0000		9999	2030	0	0	0
2019/04/20 22:40:00	BASE	10.71	243	14.40	229	-3.6	83	-6.1	0	0	990.3	NA	0.0000		9999	2000	0	0	0
2019/04/20 22:41:00	BASE	12.11	241	15.07	242	-3.6	83	-6.0	0	0	990.2	NA	0.0000		9999	2030	0	0	0
2019/04/20 22:42:00	BASE	13.40	240	15.07	242	-3.6	83	-6.1	0	0	990.3	NA	0.0000		9999	2100	0	0	0
2019/04/20 22:43:00	BASE	13.05	239	15.07	242	-3.6	83	-6.1	0	0	990.3	NA	0.0000		9999	2030	0	0	0
2019/04/20 22:44:00	BASE	12.24	242	15.07	242	-3.6	83	-6.1	0	0	990.3	NA	0.0000		9999	2100	0	0	0
2019/04/20 22:45:00	BASE	11.27	248	15.07	242	-3.6	83	-6.1	0	0	990.3	NA	0.0000		9999	2000	0	0	0
2019/04/20 22:46:00	BASE	10.46	253	15.07	242	-3.6	83	-6.1	0	0	990.3	NA	0.0000		9999	2130	0	0	0
2019/04/20 22:47:00	BASE	9.94	251	15.07	242	-3.6	83	-6.1	0	0	990.3	NA	0.0000		9999	1970	0	0	0
2019/04/20 22:48:00	BASE	11.16	237	15.54	229	-3.6	83	-6.1	0	0	990.3	NA	0.0000		9999	1970	0	0	0
2019/04/20 22:49:00	BASE	12.18	231	15.54	229	-3.6	83	-6.0	0	0	990.3	NA	0.0000		9999	2030	0	0	0
2019/04/20 22:50:00	BASE	11.63	239	15.54	229	-3.6	84	-6.0	0	0	990.3	NA	0.0000		9999	2100	0	0	0
2019/04/20 22:51:00	BASE	10.16	241	15.54	229	-3.5	84	-5.9	0	0	990.4	NA	0.0000		9999	1970	0	0	0
2019/04/20 22:52:00	BASE	10.07	239	15.54	229	-3.5	84	-5.8	0	0	990.4	NA	0.0000		9999	2130	0	0	0
2019/04/20 22:53:00	BASE	11.82	240	15.54	229	-3.5	84	-5.8	0	0	990.3	NA	0.0000		9999	2200	0	0	0
2019/04/20 22:54:00	BASE	12.06	237	15.54	229	-3.5	84	-5.8	0	0	990.3	NA	0.0000		9999	2200	0	0	0
2019/04/20 22:55:00	BASE	11.25	236	15.54	229	-3.5	84	-5.9	0	0	990.4	NA	0.0000		9999	2200	0	0	0
2019/04/20 22:56:00	BASE	11.12	239	15.54	229	-3.6	84	-5.9	0	0	990.4	NA	0.0000		9999	2170	0	0	0
2019/04/20 22:57:00	BASE	11.81	244	15.54	229	-3.6	84	-5.9	0	0	990.4	NA	0.0000		9999	2030	0	0	0
2019/04/20 22:58:00	BASE	12.03	244	14.51	252	-3.6	84	-5.9	0	0	990.4	NA	0.0000		9999	2030	0	0	0
2019/04/20 22:59:00	BASE	12.23	241	14.51	252	-3.6	84	-6.0	0	0	990.4	NA	0.0000		9999	2200	0	0	0
2019/04/20 23:00:00	BASE	11.64	236	14.51	252	-3.6	84	-6.0	0	0	990.4	NA	0.0000		9999	2100	0	0	0
2019/04/20 23:01:00	BASE	11.77	230	14.51	252	-3.6	84	-5.9	0	0	990.4	NA	0.0000		9999	2200	0	0	0
2019/04/20 23:02:00	BASE	13.02	236	14.51	252	-3.7	84	-5.9	0	0	990.4	NA	0.0000		9999	2030	0	0	0
2019/04/20 23:03:00	BASE	12.18	247	14.51	252	-3.7	84	-5.9	0	0	990.4	NA	0.0000		9999	2000	0	0	0
2019/04/20 23:04:00	BASE	10.88	252	14.51	252	-3.7	85	-5.9	0	0	990.4	NA	0.0000		9999	2070	0	0	0
2019/04/20 23:05:00	BASE	10.44	247	14.51	252	-3.7	85	-5.9	0	0	990.4	NA	0.0000		9999	2170	0	0	0
2019/04/20 23:06:00	BASE	10.55	241	14.51	252	-3.7	85	-5.9	0	0	990.4	NA	0.0000		9999	2260	0	0	0
2019/04/20 23:07:00	BASE	10.76	240	14.51	252	-3.7	85	-5.9	0	0	990.4	NA	0.0000		9999	2260	0	0	0
2019/04/20 23:08:00	BASE	11.60	237	14.87	228	-3.7	85	-5.8	0	0	990.4	NA	0.0000		9999	2000	0	0	0
2019/04/20 23:09:00	BASE	11.34	235	14.87	228	-3.7	85	-5.8	0	0	990.4	NA	0.0000		9999	2030	0	0	0
2019/04/20 23:10:00	BASE	11.10	235	14.87	228	-3.7	85	-5.8	0	0	990.4	NA	0.0000		9999	1940	0	0	0
2019/04/20 23:11:00	BASE	11.33	236	14.87	228	-3.7	85	-5.9	0	0	990.4	NA	0.0000		9999	2070	0	0	0
2019/04/20 23:12:00	BASE	11.27	241	14.87	228	-3.7	85	-5.9	0	0	990.4	NA	0.0000		9999	2100	0	0	0
2019/04/20 23:13:00	BASE	11.36	243	14.87	228	-3.7	85	-5.9	0	0	990.5	NA	0.0000		9999	2030	0	0	0
2019/04/20 23:14:00	BASE	11.11	246	14.87	228	-3.7	85	-5.9	0	0	990.5	NA	0.0000		9999	2170	0	0	0
2019/04/20 23:15:00	BASE	11.31	243	14.87	228	-3.7	85	-5.9	0	0	990.5	NA	0.0000		9999	2170	0	0	0
2019/04/20 23:16:00	BASE	11.43	237	14.87	228	-3.7	85	-5.8	0	0	990.5	NA	0.0000		9999	2260	0	0	0
2019/04/20 23:17:00	BASE	11.34	236	14.87	228	-3.7	85	-5.8	0	0	990.5	NA	0.0000		9999	2260	0	0	0
2019/04/20 23:18:00	BASE	10.82	238	14.76	231	-3.7	85	-5.9	0	0	990.5	NA	0.0000		9999	2300	0	0	0
2019/04/20 23:19:00	BASE	10.54	240	14.76	231	-3.7	85	-5.9	0	0	990.6	NA	0.0000		9999	2200	0	0	0
2019/04/20 23:20:00	BASE	11.15	239	13.68	253	-3.8	85	-6.0	0	0	990.6	NA	0.0000		9999	2170	0	0	0
2019/04/20 23:21:00	BASE	10.78	241	13.68	253	-3.8	84	-6.0	0	0	990.6	NA	0.0000		9999	2170	0	0	0
2019/04/20 23:22:00	BASE	10.24	246	13.53	253	-3.8	84	-6.1	0	0	990.6	NA	0.0000		9999	2100	0	0	0
2019/04/20 23:23:00	BASE	11.63	248	13.53	253	-3.8	84	-6.1	0	0	990.5	NA	0.0000		9999	2260	0	0	0
2019/04/20 23:24:00	BASE	12.89	250	13.84	249	-3.8	84	-6.2	0	0	990.5	NA	0.0000		9999	2170	0	0	0
2019/04/20 23:25:00	BASE	12.49	248	13.84	249	-3.9	84	-6.2	0	0	990.5	NA	0.0000		9999	2330	0	0	0
2019/04/20 23:26:00	BASE	12.74	244	15.28	239	-3.9	83	-6.3	0	0	990.5	NA	0.0000		9999	2330	0	0	0
2019/04/20 23:27:00	BASE	12.72	241	15.28	239	-3.9	83	-6.3	0	0	990.6	NA	0.0000		9999	2330	0	0	0
2019/04/20 23:28:00	BASE	11.96	237	15.28	239	-3.9	83	-6.3	0	0	990.6	NA	0.0000		9999	2300	0	0	0
2019/04/20 23:29:00	BASE	12.30	232	15.28	239	-3.8	83	-6.3	0	0	990.6	NA	0.0000		9999	2300	0	0	0
2019/04/20 23:30:00	BASE	12.97	233	15.28	239	-3.8	83	-6.3	0	0	990.6	NA	0.0000		9999	2330	0	0	0
2019/04/20 23:31:00	BASE	12.36	239	15.28	239	-3.8	83	-6.3	0	0	990.6	NA	0.0000		9999	2330	0	0	0
2019/04/20 23:32:00	BASE	10.61	241	15.28	239	-3.8	83	-6.3	0	0	990.7	NA	0.0000		9999	2330	0	0	0
2019/04/20 23:33:00	BASE	10.83	247	15.28	239	-3.8	83	-6.3	0	0	990.7	NA	0.0000		9999	2300	0	0	0
2019/04/20 23:34:00	BASE	11.51	252	15.28	239	-3.8	83	-6.3	0	0	990.7	NA	0.0000		9999	2330	0	0	0
2019/04/20 23:35:00	BASE	10.91	255	15.28	239	-3.9	83	-6.4	0	0	990.7	NA	0.0000		9999	2300	0	0	0
2019/04/20 23:36:00	BASE	11.06	257	15.07	229	-3.9	83	-6.4	0	0	990.7	NA	0.0000		9999	2230	0	0	0
2019/04/20 23:37:00	BASE	10.97	256	15.07	229	-3.9	83	-6.4	0	0	990.7	NA	0.0000		9999	2230	0	0	0
2019/04/20 23:38:00	BASE	10.70	248	15.07	229	-4.0	83	-6.4	0	0	990.7	NA	0.0000		9999	2260	0	0	0
2019/04/20 23:39:00	BASE	11.15	238	15.07	229	-3.9	83	-6.4	0	0	990.7	NA	0.0000		9999	2230	0	0	0
2019/04/20 23:40:00	BASE	11.58	234	14.35	256	-3.9	83	-6.4	0	0	990.7	NA	0.0000		9999	2330	0	0	0
2019/04/20 23:41:00	BASE	12.28	237	14.61	236	-3.9	83	-6.3	0	0	990.7	NA	0.0000		9999	2230	0	0	0
2019/04/20 23:42:00	BASE	11.54	243	14.61	236	-3.9	83	-6.4	0	0	990.8	NA	0.0000		9999	2330	0	0	0
2019/04/20 23:43:00	BASE	10.34	245	14.61	236	-3.9	83	-6.4	0	0	990.9	NA	0.0000		9999	2330	0	0	0
2019/04/20 23:44:00	BASE	9.06	246	14.61	236	-3.9	82	-6.5	0	0	990.9	NA	0.0000		9999	2100	0	0	0
2019/04/20 23:45:00	BASE	7.64	249	14.61	236	-3.9	82	-6.5	0	0	990.9	NA	0.0000		9999	2070	0	0	0
2019/04/20 23:46:00	BASE	7.94	252	14.61	236	-4.0	82	-6.6	0	0	990.9	NA	0.0000		9999	2130	0	0	0
2019/04/20 23:47:00	BASE	7.96	253	14.61	236	-4.0	82	-6.6	0	0	990.9	NA	0.0000		9999	2130	0	0	0
2019/04/20 23:48:00	BASE	8.43	247	14.61	236	-4.0	82	-6.6	0	0	990.9	NA	0.0000		9999	2170	0	0	0
2019/04/20 23:49:00	BASE	11.45	234	14.61	236	-4.0	82	-6.5	0	0	990.9	NA	0.0000		9999	2230	0	0	0
2019/04/20 23:50:00	BASE	13.57	228	14.61	236	-4.0	83	-6.5	0	0	990.9	NA	0.0000		9999	2260	0	0	0
2019/04/20 23:51:00	BASE	11.79	224	14.40	228	-4.0	83	-6.5	0	0	991.0	NA	0.0000		9999	2170	0	0	0
2019/04/20 23:52:00	BASE	9.58	226	14.40	228	-4.0	82	-6.5	0	0	991.0	NA	0.0000		9999	2230	0	0	0
2019/04/20 23:53:00	BASE	9.67	231	14.40	228	-4.0	82	-6.6	0	0	991.0	NA	0.0000		9999	2170	0	0	0
2019/04/20 23:54:00	BASE	9.48	240	14.40	228	-3.9	82	-6.6	0	0	991.0	NA	0.0000		9999	2130	0	0	0
2019/04/20 23:55:00	BASE	8.78	248	14.40	228	-3.9	81	-6.7	0	0	991.0	NA	0.0000		9999	2200	0	0	0
2019/04/20 23:56:00	BASE	8.53	257	14.40	228	-3.9	81	-6.7	0	0	991.0	NA	0.0000		9999	2170	0	0	0
2019/04/20 23:57:00	BASE	8.71	261	14.40	228	-4.0	81	-6.7	0	0	990.9	NA	0.0000		9999	2260	0	0	0
2019/04/20 23:58:00	BASE	9.10	245	14.40	228	-4.0	81	-6.8	0	0	991.0	NA	0.0000		9999	2330	0	0	0
2019/04/20 23:59:00	BASE	8.54	238	14.35	224	-4.0	81	-6.8	0	0	991.0	NA	0.0000		9999	2360	0	0	0